<?xml version="1.0" encoding="UTF-8" standalone="no" ?>
<gpx xmlns="http://www.topografix.com/GPX/1/1" xmlns:xsi="http://www.w3.org/2001/XMLSchema-instance" xsi:schemaLocation="http://www.topografix.com/GPX/1/1 http://www.topografix.com/GPX/1/1/gpx.xsd" version="1.1" creator="VisuGPX - https://www.visugpx.com">
  <metadata>
    <name>Massif des Calanques - Mont Puget</name>
    <desc><![CDATA[[b][url]http://andraph.free.fr[/url][/b]]]></desc>
  </metadata>
  <trk>
    <name><![CDATA[23 janv. 2014 09:14:47]]></name>
    <cmt><![CDATA[23 janv. 2014 09:14:47]]></cmt>
    <trkseg>
      <trkpt lat="43.24038" lon="5.4583">
        <ele>315</ele>
        <time>2014-01-23T08:14:47Z</time>
      </trkpt>
      <trkpt lat="43.24037" lon="5.45829">
        <ele>321</ele>
        <time>2014-01-23T08:16:54Z</time>
      </trkpt>
      <trkpt lat="43.24031" lon="5.45827">
        <ele>322</ele>
        <time>2014-01-23T08:18:11Z</time>
      </trkpt>
      <trkpt lat="43.24032" lon="5.45819">
        <ele>322</ele>
        <time>2014-01-23T08:18:20Z</time>
      </trkpt>
      <trkpt lat="43.24032" lon="5.45813">
        <ele>321</ele>
        <time>2014-01-23T08:18:25Z</time>
      </trkpt>
      <trkpt lat="43.24031" lon="5.45804">
        <ele>319</ele>
        <time>2014-01-23T08:18:32Z</time>
      </trkpt>
      <trkpt lat="43.24029" lon="5.45798">
        <ele>319</ele>
        <time>2014-01-23T08:18:45Z</time>
      </trkpt>
      <trkpt lat="43.24025" lon="5.45785">
        <ele>318</ele>
        <time>2014-01-23T08:18:48Z</time>
      </trkpt>
      <trkpt lat="43.24025" lon="5.45769">
        <ele>314</ele>
        <time>2014-01-23T08:19:00Z</time>
      </trkpt>
      <trkpt lat="43.24024" lon="5.45757">
        <ele>313</ele>
        <time>2014-01-23T08:19:09Z</time>
      </trkpt>
      <trkpt lat="43.24016" lon="5.45747">
        <ele>314</ele>
        <time>2014-01-23T08:19:16Z</time>
      </trkpt>
      <trkpt lat="43.24008" lon="5.45735">
        <ele>315</ele>
        <time>2014-01-23T08:19:21Z</time>
      </trkpt>
      <trkpt lat="43.24005" lon="5.45729">
        <ele>316</ele>
        <time>2014-01-23T08:19:24Z</time>
      </trkpt>
      <trkpt lat="43.24" lon="5.45725">
        <ele>317</ele>
        <time>2014-01-23T08:19:28Z</time>
      </trkpt>
      <trkpt lat="43.23997" lon="5.45721">
        <ele>318</ele>
        <time>2014-01-23T08:19:32Z</time>
      </trkpt>
      <trkpt lat="43.23991" lon="5.45716">
        <ele>320</ele>
        <time>2014-01-23T08:19:36Z</time>
      </trkpt>
      <trkpt lat="43.23987" lon="5.45711">
        <ele>321</ele>
        <time>2014-01-23T08:19:39Z</time>
      </trkpt>
      <trkpt lat="43.23985" lon="5.45706">
        <ele>322</ele>
        <time>2014-01-23T08:19:43Z</time>
      </trkpt>
      <trkpt lat="43.23982" lon="5.45701">
        <ele>322</ele>
        <time>2014-01-23T08:19:47Z</time>
      </trkpt>
      <trkpt lat="43.23981" lon="5.45698">
        <ele>325</ele>
        <time>2014-01-23T08:19:59Z</time>
      </trkpt>
      <trkpt lat="43.23976" lon="5.45701">
        <ele>325</ele>
        <time>2014-01-23T08:20:20Z</time>
      </trkpt>
      <trkpt lat="43.23971" lon="5.45702">
        <ele>325</ele>
        <time>2014-01-23T08:20:24Z</time>
      </trkpt>
      <trkpt lat="43.23966" lon="5.45701">
        <ele>325</ele>
        <time>2014-01-23T08:20:28Z</time>
      </trkpt>
      <trkpt lat="43.23961" lon="5.457">
        <ele>324</ele>
        <time>2014-01-23T08:20:33Z</time>
      </trkpt>
      <trkpt lat="43.23956" lon="5.45698">
        <ele>325</ele>
        <time>2014-01-23T08:20:39Z</time>
      </trkpt>
      <trkpt lat="43.23951" lon="5.45694">
        <ele>325</ele>
        <time>2014-01-23T08:20:44Z</time>
      </trkpt>
      <trkpt lat="43.23947" lon="5.45691">
        <ele>326</ele>
        <time>2014-01-23T08:20:48Z</time>
      </trkpt>
      <trkpt lat="43.23942" lon="5.45687">
        <ele>326</ele>
        <time>2014-01-23T08:20:56Z</time>
      </trkpt>
      <trkpt lat="43.23939" lon="5.45683">
        <ele>326</ele>
        <time>2014-01-23T08:21:01Z</time>
      </trkpt>
      <trkpt lat="43.23936" lon="5.45676">
        <ele>326</ele>
        <time>2014-01-23T08:21:06Z</time>
      </trkpt>
      <trkpt lat="43.23934" lon="5.45672">
        <ele>327</ele>
        <time>2014-01-23T08:21:16Z</time>
      </trkpt>
      <trkpt lat="43.23929" lon="5.45665">
        <ele>327</ele>
        <time>2014-01-23T08:21:38Z</time>
      </trkpt>
      <trkpt lat="43.23925" lon="5.45659">
        <ele>327</ele>
        <time>2014-01-23T08:21:42Z</time>
      </trkpt>
      <trkpt lat="43.23921" lon="5.45655">
        <ele>327</ele>
        <time>2014-01-23T08:21:46Z</time>
      </trkpt>
      <trkpt lat="43.23922" lon="5.45657">
        <ele>326</ele>
        <time>2014-01-23T08:23:03Z</time>
      </trkpt>
      <trkpt lat="43.23924" lon="5.45665">
        <ele>326</ele>
        <time>2014-01-23T08:23:08Z</time>
      </trkpt>
      <trkpt lat="43.23923" lon="5.45673">
        <ele>326</ele>
        <time>2014-01-23T08:23:14Z</time>
      </trkpt>
      <trkpt lat="43.2392" lon="5.45678">
        <ele>326</ele>
        <time>2014-01-23T08:23:18Z</time>
      </trkpt>
      <trkpt lat="43.23917" lon="5.45683">
        <ele>326</ele>
        <time>2014-01-23T08:23:21Z</time>
      </trkpt>
      <trkpt lat="43.23913" lon="5.45687">
        <ele>326</ele>
        <time>2014-01-23T08:23:26Z</time>
      </trkpt>
      <trkpt lat="43.23906" lon="5.45693">
        <ele>327</ele>
        <time>2014-01-23T08:23:35Z</time>
      </trkpt>
      <trkpt lat="43.23903" lon="5.45699">
        <ele>327</ele>
        <time>2014-01-23T08:23:40Z</time>
      </trkpt>
      <trkpt lat="43.23899" lon="5.45705">
        <ele>328</ele>
        <time>2014-01-23T08:23:46Z</time>
      </trkpt>
      <trkpt lat="43.23897" lon="5.4571">
        <ele>328</ele>
        <time>2014-01-23T08:23:50Z</time>
      </trkpt>
      <trkpt lat="43.23893" lon="5.45715">
        <ele>327</ele>
        <time>2014-01-23T08:23:54Z</time>
      </trkpt>
      <trkpt lat="43.23889" lon="5.45719">
        <ele>327</ele>
        <time>2014-01-23T08:23:59Z</time>
      </trkpt>
      <trkpt lat="43.23885" lon="5.45723">
        <ele>328</ele>
        <time>2014-01-23T08:24:04Z</time>
      </trkpt>
      <trkpt lat="43.23881" lon="5.45729">
        <ele>328</ele>
        <time>2014-01-23T08:24:10Z</time>
      </trkpt>
      <trkpt lat="43.23878" lon="5.45735">
        <ele>328</ele>
        <time>2014-01-23T08:24:15Z</time>
      </trkpt>
      <trkpt lat="43.23875" lon="5.4574">
        <ele>328</ele>
        <time>2014-01-23T08:24:21Z</time>
      </trkpt>
      <trkpt lat="43.23873" lon="5.45746">
        <ele>329</ele>
        <time>2014-01-23T08:24:29Z</time>
      </trkpt>
      <trkpt lat="43.23868" lon="5.45751">
        <ele>329</ele>
        <time>2014-01-23T08:24:34Z</time>
      </trkpt>
      <trkpt lat="43.23863" lon="5.45755">
        <ele>329</ele>
        <time>2014-01-23T08:24:39Z</time>
      </trkpt>
      <trkpt lat="43.23858" lon="5.45758">
        <ele>328</ele>
        <time>2014-01-23T08:24:43Z</time>
      </trkpt>
      <trkpt lat="43.23854" lon="5.45761">
        <ele>329</ele>
        <time>2014-01-23T08:24:47Z</time>
      </trkpt>
      <trkpt lat="43.23849" lon="5.45765">
        <ele>328</ele>
        <time>2014-01-23T08:24:52Z</time>
      </trkpt>
      <trkpt lat="43.23844" lon="5.45768">
        <ele>328</ele>
        <time>2014-01-23T08:24:57Z</time>
      </trkpt>
      <trkpt lat="43.23839" lon="5.4577">
        <ele>329</ele>
        <time>2014-01-23T08:25:01Z</time>
      </trkpt>
      <trkpt lat="43.23834" lon="5.45773">
        <ele>329</ele>
        <time>2014-01-23T08:25:07Z</time>
      </trkpt>
      <trkpt lat="43.23829" lon="5.45776">
        <ele>329</ele>
        <time>2014-01-23T08:25:12Z</time>
      </trkpt>
      <trkpt lat="43.23824" lon="5.45778">
        <ele>329</ele>
        <time>2014-01-23T08:25:17Z</time>
      </trkpt>
      <trkpt lat="43.23819" lon="5.45781">
        <ele>329</ele>
        <time>2014-01-23T08:25:22Z</time>
      </trkpt>
      <trkpt lat="43.23815" lon="5.45784">
        <ele>329</ele>
        <time>2014-01-23T08:25:26Z</time>
      </trkpt>
      <trkpt lat="43.2381" lon="5.45785">
        <ele>329</ele>
        <time>2014-01-23T08:25:31Z</time>
      </trkpt>
      <trkpt lat="43.23805" lon="5.45787">
        <ele>329</ele>
        <time>2014-01-23T08:25:37Z</time>
      </trkpt>
      <trkpt lat="43.238" lon="5.45789">
        <ele>329</ele>
        <time>2014-01-23T08:25:41Z</time>
      </trkpt>
      <trkpt lat="43.23796" lon="5.45793">
        <ele>328</ele>
        <time>2014-01-23T08:25:46Z</time>
      </trkpt>
      <trkpt lat="43.23791" lon="5.45796">
        <ele>327</ele>
        <time>2014-01-23T08:25:51Z</time>
      </trkpt>
      <trkpt lat="43.23786" lon="5.45798">
        <ele>326</ele>
        <time>2014-01-23T08:25:55Z</time>
      </trkpt>
      <trkpt lat="43.23781" lon="5.45801">
        <ele>326</ele>
        <time>2014-01-23T08:26:00Z</time>
      </trkpt>
      <trkpt lat="43.23776" lon="5.45802">
        <ele>326</ele>
        <time>2014-01-23T08:26:04Z</time>
      </trkpt>
      <trkpt lat="43.23771" lon="5.45802">
        <ele>327</ele>
        <time>2014-01-23T08:26:08Z</time>
      </trkpt>
      <trkpt lat="43.23766" lon="5.45802">
        <ele>327</ele>
        <time>2014-01-23T08:26:12Z</time>
      </trkpt>
      <trkpt lat="43.23762" lon="5.45799">
        <ele>327</ele>
        <time>2014-01-23T08:26:16Z</time>
      </trkpt>
      <trkpt lat="43.23755" lon="5.45798">
        <ele>327</ele>
        <time>2014-01-23T08:26:21Z</time>
      </trkpt>
      <trkpt lat="43.23751" lon="5.45796">
        <ele>328</ele>
        <time>2014-01-23T08:26:25Z</time>
      </trkpt>
      <trkpt lat="43.23748" lon="5.45791">
        <ele>329</ele>
        <time>2014-01-23T08:26:32Z</time>
      </trkpt>
      <trkpt lat="43.23746" lon="5.45785">
        <ele>330</ele>
        <time>2014-01-23T08:26:36Z</time>
      </trkpt>
      <trkpt lat="43.23744" lon="5.4578">
        <ele>330</ele>
        <time>2014-01-23T08:26:40Z</time>
      </trkpt>
      <trkpt lat="43.23742" lon="5.45773">
        <ele>330</ele>
        <time>2014-01-23T08:26:46Z</time>
      </trkpt>
      <trkpt lat="43.23741" lon="5.45768">
        <ele>332</ele>
        <time>2014-01-23T08:26:56Z</time>
      </trkpt>
      <trkpt lat="43.23737" lon="5.45771">
        <ele>336</ele>
        <time>2014-01-23T08:27:53Z</time>
      </trkpt>
      <trkpt lat="43.23732" lon="5.4577">
        <ele>336</ele>
        <time>2014-01-23T08:27:57Z</time>
      </trkpt>
      <trkpt lat="43.23727" lon="5.45771">
        <ele>335</ele>
        <time>2014-01-23T08:28:02Z</time>
      </trkpt>
      <trkpt lat="43.23723" lon="5.45769">
        <ele>335</ele>
        <time>2014-01-23T08:28:11Z</time>
      </trkpt>
      <trkpt lat="43.23718" lon="5.45765">
        <ele>335</ele>
        <time>2014-01-23T08:28:16Z</time>
      </trkpt>
      <trkpt lat="43.23714" lon="5.45759">
        <ele>337</ele>
        <time>2014-01-23T08:28:29Z</time>
      </trkpt>
      <trkpt lat="43.23709" lon="5.45757">
        <ele>341</ele>
        <time>2014-01-23T08:29:09Z</time>
      </trkpt>
      <trkpt lat="43.23703" lon="5.4576">
        <ele>339</ele>
        <time>2014-01-23T08:29:21Z</time>
      </trkpt>
      <trkpt lat="43.23698" lon="5.45762">
        <ele>338</ele>
        <time>2014-01-23T08:29:28Z</time>
      </trkpt>
      <trkpt lat="43.23693" lon="5.45763">
        <ele>338</ele>
        <time>2014-01-23T08:29:32Z</time>
      </trkpt>
      <trkpt lat="43.23688" lon="5.45763">
        <ele>338</ele>
        <time>2014-01-23T08:29:36Z</time>
      </trkpt>
      <trkpt lat="43.23684" lon="5.45763">
        <ele>338</ele>
        <time>2014-01-23T08:29:41Z</time>
      </trkpt>
      <trkpt lat="43.23677" lon="5.45764">
        <ele>339</ele>
        <time>2014-01-23T08:29:52Z</time>
      </trkpt>
      <trkpt lat="43.23672" lon="5.45765">
        <ele>339</ele>
        <time>2014-01-23T08:29:57Z</time>
      </trkpt>
      <trkpt lat="43.23669" lon="5.45767">
        <ele>341</ele>
        <time>2014-01-23T08:30:14Z</time>
      </trkpt>
      <trkpt lat="43.23663" lon="5.45768">
        <ele>341</ele>
        <time>2014-01-23T08:30:20Z</time>
      </trkpt>
      <trkpt lat="43.23659" lon="5.45767">
        <ele>340</ele>
        <time>2014-01-23T08:30:26Z</time>
      </trkpt>
      <trkpt lat="43.23656" lon="5.45767">
        <ele>340</ele>
        <time>2014-01-23T08:30:33Z</time>
      </trkpt>
      <trkpt lat="43.23651" lon="5.45766">
        <ele>340</ele>
        <time>2014-01-23T08:30:39Z</time>
      </trkpt>
      <trkpt lat="43.23646" lon="5.45764">
        <ele>341</ele>
        <time>2014-01-23T08:30:47Z</time>
      </trkpt>
      <trkpt lat="43.23643" lon="5.45765">
        <ele>343</ele>
        <time>2014-01-23T08:31:21Z</time>
      </trkpt>
      <trkpt lat="43.23638" lon="5.45768">
        <ele>345</ele>
        <time>2014-01-23T08:32:51Z</time>
      </trkpt>
      <trkpt lat="43.2364" lon="5.45776">
        <ele>345</ele>
        <time>2014-01-23T08:33:16Z</time>
      </trkpt>
      <trkpt lat="43.23635" lon="5.4578">
        <ele>343</ele>
        <time>2014-01-23T08:33:22Z</time>
      </trkpt>
      <trkpt lat="43.23631" lon="5.45782">
        <ele>341</ele>
        <time>2014-01-23T08:33:27Z</time>
      </trkpt>
      <trkpt lat="43.23627" lon="5.45786">
        <ele>339</ele>
        <time>2014-01-23T08:33:34Z</time>
      </trkpt>
      <trkpt lat="43.23623" lon="5.4579">
        <ele>339</ele>
        <time>2014-01-23T08:33:39Z</time>
      </trkpt>
      <trkpt lat="43.23621" lon="5.45796">
        <ele>338</ele>
        <time>2014-01-23T08:33:45Z</time>
      </trkpt>
      <trkpt lat="43.23619" lon="5.45802">
        <ele>339</ele>
        <time>2014-01-23T08:33:50Z</time>
      </trkpt>
      <trkpt lat="43.23617" lon="5.45807">
        <ele>340</ele>
        <time>2014-01-23T08:33:57Z</time>
      </trkpt>
      <trkpt lat="43.23614" lon="5.45812">
        <ele>341</ele>
        <time>2014-01-23T08:34:02Z</time>
      </trkpt>
      <trkpt lat="43.23611" lon="5.45817">
        <ele>341</ele>
        <time>2014-01-23T08:34:09Z</time>
      </trkpt>
      <trkpt lat="43.23607" lon="5.45819">
        <ele>342</ele>
        <time>2014-01-23T08:34:15Z</time>
      </trkpt>
      <trkpt lat="43.23605" lon="5.45821">
        <ele>341</ele>
        <time>2014-01-23T08:34:26Z</time>
      </trkpt>
      <trkpt lat="43.23608" lon="5.45827">
        <ele>342</ele>
        <time>2014-01-23T08:34:29Z</time>
      </trkpt>
      <trkpt lat="43.23609" lon="5.45834">
        <ele>344</ele>
        <time>2014-01-23T08:34:34Z</time>
      </trkpt>
      <trkpt lat="43.2361" lon="5.45841">
        <ele>346</ele>
        <time>2014-01-23T08:34:43Z</time>
      </trkpt>
      <trkpt lat="43.23605" lon="5.45846">
        <ele>346</ele>
        <time>2014-01-23T08:35:01Z</time>
      </trkpt>
      <trkpt lat="43.23601" lon="5.45851">
        <ele>346</ele>
        <time>2014-01-23T08:35:07Z</time>
      </trkpt>
      <trkpt lat="43.23598" lon="5.45857">
        <ele>344</ele>
        <time>2014-01-23T08:35:17Z</time>
      </trkpt>
      <trkpt lat="43.23596" lon="5.45863">
        <ele>343</ele>
        <time>2014-01-23T08:35:24Z</time>
      </trkpt>
      <trkpt lat="43.23595" lon="5.45869">
        <ele>343</ele>
        <time>2014-01-23T08:35:31Z</time>
      </trkpt>
      <trkpt lat="43.23595" lon="5.45873">
        <ele>342</ele>
        <time>2014-01-23T08:35:43Z</time>
      </trkpt>
      <trkpt lat="43.23596" lon="5.45877">
        <ele>346</ele>
        <time>2014-01-23T08:35:50Z</time>
      </trkpt>
      <trkpt lat="43.23592" lon="5.45882">
        <ele>347</ele>
        <time>2014-01-23T08:35:57Z</time>
      </trkpt>
      <trkpt lat="43.23589" lon="5.45886">
        <ele>348</ele>
        <time>2014-01-23T08:36:04Z</time>
      </trkpt>
      <trkpt lat="43.23586" lon="5.45891">
        <ele>348</ele>
        <time>2014-01-23T08:36:10Z</time>
      </trkpt>
      <trkpt lat="43.23583" lon="5.45897">
        <ele>350</ele>
        <time>2014-01-23T08:36:16Z</time>
      </trkpt>
      <trkpt lat="43.2358" lon="5.45902">
        <ele>351</ele>
        <time>2014-01-23T08:36:23Z</time>
      </trkpt>
      <trkpt lat="43.23577" lon="5.45906">
        <ele>352</ele>
        <time>2014-01-23T08:36:30Z</time>
      </trkpt>
      <trkpt lat="43.23576" lon="5.45913">
        <ele>354</ele>
        <time>2014-01-23T08:36:38Z</time>
      </trkpt>
      <trkpt lat="43.23575" lon="5.4592">
        <ele>355</ele>
        <time>2014-01-23T08:36:46Z</time>
      </trkpt>
      <trkpt lat="43.23574" lon="5.45929">
        <ele>356</ele>
        <time>2014-01-23T08:36:53Z</time>
      </trkpt>
      <trkpt lat="43.23574" lon="5.45936">
        <ele>358</ele>
        <time>2014-01-23T08:37:03Z</time>
      </trkpt>
      <trkpt lat="43.23571" lon="5.45942">
        <ele>359</ele>
        <time>2014-01-23T08:37:12Z</time>
      </trkpt>
      <trkpt lat="43.2357" lon="5.45948">
        <ele>360</ele>
        <time>2014-01-23T08:37:17Z</time>
      </trkpt>
      <trkpt lat="43.23571" lon="5.45955">
        <ele>361</ele>
        <time>2014-01-23T08:37:22Z</time>
      </trkpt>
      <trkpt lat="43.23571" lon="5.45962">
        <ele>363</ele>
        <time>2014-01-23T08:37:29Z</time>
      </trkpt>
      <trkpt lat="43.23571" lon="5.45968">
        <ele>364</ele>
        <time>2014-01-23T08:37:36Z</time>
      </trkpt>
      <trkpt lat="43.23571" lon="5.45974">
        <ele>365</ele>
        <time>2014-01-23T08:37:43Z</time>
      </trkpt>
      <trkpt lat="43.2357" lon="5.45981">
        <ele>367</ele>
        <time>2014-01-23T08:37:53Z</time>
      </trkpt>
      <trkpt lat="43.23567" lon="5.45986">
        <ele>369</ele>
        <time>2014-01-23T08:38:01Z</time>
      </trkpt>
      <trkpt lat="43.23565" lon="5.45989">
        <ele>370</ele>
        <time>2014-01-23T08:38:07Z</time>
      </trkpt>
      <trkpt lat="43.23565" lon="5.45996">
        <ele>372</ele>
        <time>2014-01-23T08:38:18Z</time>
      </trkpt>
      <trkpt lat="43.23564" lon="5.46004">
        <ele>373</ele>
        <time>2014-01-23T08:38:26Z</time>
      </trkpt>
      <trkpt lat="43.23566" lon="5.46009">
        <ele>374</ele>
        <time>2014-01-23T08:38:35Z</time>
      </trkpt>
      <trkpt lat="43.2357" lon="5.46016">
        <ele>375</ele>
        <time>2014-01-23T08:38:44Z</time>
      </trkpt>
      <trkpt lat="43.23572" lon="5.46023">
        <ele>377</ele>
        <time>2014-01-23T08:38:52Z</time>
      </trkpt>
      <trkpt lat="43.23572" lon="5.4603">
        <ele>377</ele>
        <time>2014-01-23T08:38:59Z</time>
      </trkpt>
      <trkpt lat="43.23574" lon="5.46036">
        <ele>377</ele>
        <time>2014-01-23T08:39:05Z</time>
      </trkpt>
      <trkpt lat="43.23575" lon="5.46042">
        <ele>376</ele>
        <time>2014-01-23T08:39:10Z</time>
      </trkpt>
      <trkpt lat="43.23576" lon="5.46049">
        <ele>378</ele>
        <time>2014-01-23T08:39:18Z</time>
      </trkpt>
      <trkpt lat="43.23577" lon="5.46055">
        <ele>378</ele>
        <time>2014-01-23T08:39:25Z</time>
      </trkpt>
      <trkpt lat="43.23578" lon="5.46058">
        <ele>379</ele>
        <time>2014-01-23T08:39:31Z</time>
      </trkpt>
      <trkpt lat="43.23581" lon="5.46065">
        <ele>380</ele>
        <time>2014-01-23T08:39:45Z</time>
      </trkpt>
      <trkpt lat="43.2358" lon="5.46075">
        <ele>381</ele>
        <time>2014-01-23T08:39:53Z</time>
      </trkpt>
      <trkpt lat="43.23579" lon="5.46081">
        <ele>382</ele>
        <time>2014-01-23T08:40:03Z</time>
      </trkpt>
      <trkpt lat="43.23577" lon="5.46088">
        <ele>381</ele>
        <time>2014-01-23T08:40:50Z</time>
      </trkpt>
      <trkpt lat="43.23578" lon="5.46094">
        <ele>381</ele>
        <time>2014-01-23T08:40:55Z</time>
      </trkpt>
      <trkpt lat="43.23581" lon="5.46101">
        <ele>383</ele>
        <time>2014-01-23T08:41:01Z</time>
      </trkpt>
      <trkpt lat="43.23582" lon="5.46107">
        <ele>384</ele>
        <time>2014-01-23T08:41:08Z</time>
      </trkpt>
      <trkpt lat="43.2358" lon="5.46118">
        <ele>387</ele>
        <time>2014-01-23T08:41:23Z</time>
      </trkpt>
      <trkpt lat="43.23579" lon="5.46126">
        <ele>389</ele>
        <time>2014-01-23T08:41:32Z</time>
      </trkpt>
      <trkpt lat="43.23579" lon="5.46132">
        <ele>391</ele>
        <time>2014-01-23T08:41:37Z</time>
      </trkpt>
      <trkpt lat="43.23578" lon="5.46139">
        <ele>393</ele>
        <time>2014-01-23T08:41:42Z</time>
      </trkpt>
      <trkpt lat="43.23578" lon="5.46146">
        <ele>393</ele>
        <time>2014-01-23T08:41:48Z</time>
      </trkpt>
      <trkpt lat="43.23578" lon="5.46153">
        <ele>394</ele>
        <time>2014-01-23T08:41:55Z</time>
      </trkpt>
      <trkpt lat="43.23576" lon="5.4616">
        <ele>393</ele>
        <time>2014-01-23T08:42:01Z</time>
      </trkpt>
      <trkpt lat="43.23573" lon="5.46166">
        <ele>393</ele>
        <time>2014-01-23T08:42:07Z</time>
      </trkpt>
      <trkpt lat="43.23571" lon="5.46169">
        <ele>393</ele>
        <time>2014-01-23T08:42:15Z</time>
      </trkpt>
      <trkpt lat="43.23563" lon="5.46174">
        <ele>397</ele>
        <time>2014-01-23T08:42:46Z</time>
      </trkpt>
      <trkpt lat="43.23558" lon="5.46174">
        <ele>396</ele>
        <time>2014-01-23T08:42:48Z</time>
      </trkpt>
      <trkpt lat="43.23555" lon="5.46175">
        <ele>396</ele>
        <time>2014-01-23T08:42:56Z</time>
      </trkpt>
      <trkpt lat="43.23546" lon="5.4618">
        <ele>398</ele>
        <time>2014-01-23T08:43:55Z</time>
      </trkpt>
      <trkpt lat="43.23542" lon="5.4618">
        <ele>396</ele>
        <time>2014-01-23T08:44:02Z</time>
      </trkpt>
      <trkpt lat="43.23535" lon="5.46186">
        <ele>394</ele>
        <time>2014-01-23T08:44:15Z</time>
      </trkpt>
      <trkpt lat="43.23526" lon="5.46191">
        <ele>391</ele>
        <time>2014-01-23T08:44:30Z</time>
      </trkpt>
      <trkpt lat="43.23514" lon="5.46193">
        <ele>387</ele>
        <time>2014-01-23T08:44:48Z</time>
      </trkpt>
      <trkpt lat="43.23509" lon="5.46194">
        <ele>387</ele>
        <time>2014-01-23T08:44:51Z</time>
      </trkpt>
      <trkpt lat="43.23507" lon="5.46194">
        <ele>388</ele>
        <time>2014-01-23T08:45:03Z</time>
      </trkpt>
      <trkpt lat="43.23502" lon="5.46196">
        <ele>388</ele>
        <time>2014-01-23T08:45:07Z</time>
      </trkpt>
      <trkpt lat="43.235" lon="5.46203">
        <ele>388</ele>
        <time>2014-01-23T08:45:14Z</time>
      </trkpt>
      <trkpt lat="43.23493" lon="5.46206">
        <ele>390</ele>
        <time>2014-01-23T08:45:32Z</time>
      </trkpt>
      <trkpt lat="43.23489" lon="5.46212">
        <ele>389</ele>
        <time>2014-01-23T08:45:44Z</time>
      </trkpt>
      <trkpt lat="43.23486" lon="5.46217">
        <ele>388</ele>
        <time>2014-01-23T08:45:52Z</time>
      </trkpt>
      <trkpt lat="43.23482" lon="5.46222">
        <ele>388</ele>
        <time>2014-01-23T08:45:56Z</time>
      </trkpt>
      <trkpt lat="43.23479" lon="5.46227">
        <ele>386</ele>
        <time>2014-01-23T08:46:02Z</time>
      </trkpt>
      <trkpt lat="43.23472" lon="5.46237">
        <ele>385</ele>
        <time>2014-01-23T08:46:21Z</time>
      </trkpt>
      <trkpt lat="43.23468" lon="5.46241">
        <ele>385</ele>
        <time>2014-01-23T08:46:26Z</time>
      </trkpt>
      <trkpt lat="43.23464" lon="5.46249">
        <ele>382</ele>
        <time>2014-01-23T08:46:34Z</time>
      </trkpt>
      <trkpt lat="43.23461" lon="5.46254">
        <ele>381</ele>
        <time>2014-01-23T08:46:39Z</time>
      </trkpt>
      <trkpt lat="43.23458" lon="5.46258">
        <ele>381</ele>
        <time>2014-01-23T08:46:42Z</time>
      </trkpt>
      <trkpt lat="43.23453" lon="5.46264">
        <ele>381</ele>
        <time>2014-01-23T08:46:49Z</time>
      </trkpt>
      <trkpt lat="43.23449" lon="5.46269">
        <ele>381</ele>
        <time>2014-01-23T08:46:53Z</time>
      </trkpt>
      <trkpt lat="43.23447" lon="5.46276">
        <ele>381</ele>
        <time>2014-01-23T08:46:59Z</time>
      </trkpt>
      <trkpt lat="43.23444" lon="5.46281">
        <ele>380</ele>
        <time>2014-01-23T08:47:03Z</time>
      </trkpt>
      <trkpt lat="43.23437" lon="5.46291">
        <ele>380</ele>
        <time>2014-01-23T08:47:15Z</time>
      </trkpt>
      <trkpt lat="43.23433" lon="5.46297">
        <ele>379</ele>
        <time>2014-01-23T08:47:21Z</time>
      </trkpt>
      <trkpt lat="43.23426" lon="5.46304">
        <ele>377</ele>
        <time>2014-01-23T08:47:30Z</time>
      </trkpt>
      <trkpt lat="43.23422" lon="5.46308">
        <ele>377</ele>
        <time>2014-01-23T08:47:34Z</time>
      </trkpt>
      <trkpt lat="43.23418" lon="5.46314">
        <ele>378</ele>
        <time>2014-01-23T08:47:39Z</time>
      </trkpt>
      <trkpt lat="43.23416" lon="5.46319">
        <ele>378</ele>
        <time>2014-01-23T08:47:45Z</time>
      </trkpt>
      <trkpt lat="43.23412" lon="5.46324">
        <ele>378</ele>
        <time>2014-01-23T08:47:49Z</time>
      </trkpt>
      <trkpt lat="43.23409" lon="5.46331">
        <ele>379</ele>
        <time>2014-01-23T08:47:54Z</time>
      </trkpt>
      <trkpt lat="43.23406" lon="5.46338">
        <ele>379</ele>
        <time>2014-01-23T08:47:58Z</time>
      </trkpt>
      <trkpt lat="43.23401" lon="5.46343">
        <ele>379</ele>
        <time>2014-01-23T08:48:03Z</time>
      </trkpt>
      <trkpt lat="43.23397" lon="5.46345">
        <ele>380</ele>
        <time>2014-01-23T08:48:09Z</time>
      </trkpt>
      <trkpt lat="43.23393" lon="5.46349">
        <ele>379</ele>
        <time>2014-01-23T08:48:14Z</time>
      </trkpt>
      <trkpt lat="43.23389" lon="5.46353">
        <ele>379</ele>
        <time>2014-01-23T08:48:18Z</time>
      </trkpt>
      <trkpt lat="43.23385" lon="5.46357">
        <ele>379</ele>
        <time>2014-01-23T08:48:22Z</time>
      </trkpt>
      <trkpt lat="43.23382" lon="5.46363">
        <ele>378</ele>
        <time>2014-01-23T08:48:27Z</time>
      </trkpt>
      <trkpt lat="43.23379" lon="5.46371">
        <ele>379</ele>
        <time>2014-01-23T08:48:33Z</time>
      </trkpt>
      <trkpt lat="43.23376" lon="5.46376">
        <ele>380</ele>
        <time>2014-01-23T08:48:38Z</time>
      </trkpt>
      <trkpt lat="43.23371" lon="5.46379">
        <ele>380</ele>
        <time>2014-01-23T08:48:43Z</time>
      </trkpt>
      <trkpt lat="43.23368" lon="5.46383">
        <ele>381</ele>
        <time>2014-01-23T08:48:49Z</time>
      </trkpt>
      <trkpt lat="43.23364" lon="5.46387">
        <ele>381</ele>
        <time>2014-01-23T08:48:56Z</time>
      </trkpt>
      <trkpt lat="43.23362" lon="5.4639">
        <ele>378</ele>
        <time>2014-01-23T08:49:18Z</time>
      </trkpt>
      <trkpt lat="43.23359" lon="5.46397">
        <ele>378</ele>
        <time>2014-01-23T08:49:32Z</time>
      </trkpt>
      <trkpt lat="43.23355" lon="5.464">
        <ele>379</ele>
        <time>2014-01-23T08:49:38Z</time>
      </trkpt>
      <trkpt lat="43.2335" lon="5.46403">
        <ele>379</ele>
        <time>2014-01-23T08:49:43Z</time>
      </trkpt>
      <trkpt lat="43.23346" lon="5.46406">
        <ele>380</ele>
        <time>2014-01-23T08:49:47Z</time>
      </trkpt>
      <trkpt lat="43.23341" lon="5.46408">
        <ele>380</ele>
        <time>2014-01-23T08:49:53Z</time>
      </trkpt>
      <trkpt lat="43.23337" lon="5.46412">
        <ele>380</ele>
        <time>2014-01-23T08:49:57Z</time>
      </trkpt>
      <trkpt lat="43.23332" lon="5.46415">
        <ele>380</ele>
        <time>2014-01-23T08:50:03Z</time>
      </trkpt>
      <trkpt lat="43.23327" lon="5.46418">
        <ele>380</ele>
        <time>2014-01-23T08:50:10Z</time>
      </trkpt>
      <trkpt lat="43.23323" lon="5.4642">
        <ele>381</ele>
        <time>2014-01-23T08:50:15Z</time>
      </trkpt>
      <trkpt lat="43.23319" lon="5.46422">
        <ele>381</ele>
        <time>2014-01-23T08:50:19Z</time>
      </trkpt>
      <trkpt lat="43.23314" lon="5.46425">
        <ele>383</ele>
        <time>2014-01-23T08:50:24Z</time>
      </trkpt>
      <trkpt lat="43.23311" lon="5.46427">
        <ele>384</ele>
        <time>2014-01-23T08:50:32Z</time>
      </trkpt>
      <trkpt lat="43.23306" lon="5.46429">
        <ele>385</ele>
        <time>2014-01-23T08:50:40Z</time>
      </trkpt>
      <trkpt lat="43.23302" lon="5.46429">
        <ele>385</ele>
        <time>2014-01-23T08:50:44Z</time>
      </trkpt>
      <trkpt lat="43.23298" lon="5.46425">
        <ele>385</ele>
        <time>2014-01-23T08:50:50Z</time>
      </trkpt>
      <trkpt lat="43.23293" lon="5.46424">
        <ele>386</ele>
        <time>2014-01-23T08:50:55Z</time>
      </trkpt>
      <trkpt lat="43.23287" lon="5.46425">
        <ele>386</ele>
        <time>2014-01-23T08:51:00Z</time>
      </trkpt>
      <trkpt lat="43.23282" lon="5.46425">
        <ele>387</ele>
        <time>2014-01-23T08:51:05Z</time>
      </trkpt>
      <trkpt lat="43.2328" lon="5.46424">
        <ele>387</ele>
        <time>2014-01-23T08:51:11Z</time>
      </trkpt>
      <trkpt lat="43.23275" lon="5.46421">
        <ele>387</ele>
        <time>2014-01-23T08:51:42Z</time>
      </trkpt>
      <trkpt lat="43.2327" lon="5.46419">
        <ele>387</ele>
        <time>2014-01-23T08:51:47Z</time>
      </trkpt>
      <trkpt lat="43.23266" lon="5.46417">
        <ele>387</ele>
        <time>2014-01-23T08:51:52Z</time>
      </trkpt>
      <trkpt lat="43.23262" lon="5.46414">
        <ele>387</ele>
        <time>2014-01-23T08:51:56Z</time>
      </trkpt>
      <trkpt lat="43.23257" lon="5.46411">
        <ele>387</ele>
        <time>2014-01-23T08:52:00Z</time>
      </trkpt>
      <trkpt lat="43.23252" lon="5.46408">
        <ele>387</ele>
        <time>2014-01-23T08:52:04Z</time>
      </trkpt>
      <trkpt lat="43.23247" lon="5.46406">
        <ele>387</ele>
        <time>2014-01-23T08:52:09Z</time>
      </trkpt>
      <trkpt lat="43.23242" lon="5.46404">
        <ele>387</ele>
        <time>2014-01-23T08:52:13Z</time>
      </trkpt>
      <trkpt lat="43.23237" lon="5.46403">
        <ele>387</ele>
        <time>2014-01-23T08:52:18Z</time>
      </trkpt>
      <trkpt lat="43.23232" lon="5.46402">
        <ele>387</ele>
        <time>2014-01-23T08:52:23Z</time>
      </trkpt>
      <trkpt lat="43.23227" lon="5.464">
        <ele>388</ele>
        <time>2014-01-23T08:52:28Z</time>
      </trkpt>
      <trkpt lat="43.23222" lon="5.46399">
        <ele>388</ele>
        <time>2014-01-23T08:52:33Z</time>
      </trkpt>
      <trkpt lat="43.23217" lon="5.46402">
        <ele>388</ele>
        <time>2014-01-23T08:52:44Z</time>
      </trkpt>
      <trkpt lat="43.23213" lon="5.46407">
        <ele>388</ele>
        <time>2014-01-23T08:52:49Z</time>
      </trkpt>
      <trkpt lat="43.23209" lon="5.46412">
        <ele>387</ele>
        <time>2014-01-23T08:52:56Z</time>
      </trkpt>
      <trkpt lat="43.23203" lon="5.46415">
        <ele>388</ele>
        <time>2014-01-23T08:53:00Z</time>
      </trkpt>
      <trkpt lat="43.23198" lon="5.46416">
        <ele>387</ele>
        <time>2014-01-23T08:53:05Z</time>
      </trkpt>
      <trkpt lat="43.23194" lon="5.46419">
        <ele>387</ele>
        <time>2014-01-23T08:53:10Z</time>
      </trkpt>
      <trkpt lat="43.2319" lon="5.46423">
        <ele>386</ele>
        <time>2014-01-23T08:53:14Z</time>
      </trkpt>
      <trkpt lat="43.23185" lon="5.46426">
        <ele>386</ele>
        <time>2014-01-23T08:53:18Z</time>
      </trkpt>
      <trkpt lat="43.23181" lon="5.4643">
        <ele>385</ele>
        <time>2014-01-23T08:53:23Z</time>
      </trkpt>
      <trkpt lat="43.23179" lon="5.46435">
        <ele>384</ele>
        <time>2014-01-23T08:53:28Z</time>
      </trkpt>
      <trkpt lat="43.23174" lon="5.46443">
        <ele>384</ele>
        <time>2014-01-23T08:53:37Z</time>
      </trkpt>
      <trkpt lat="43.23172" lon="5.46447">
        <ele>383</ele>
        <time>2014-01-23T08:53:48Z</time>
      </trkpt>
      <trkpt lat="43.23166" lon="5.46448">
        <ele>383</ele>
        <time>2014-01-23T08:54:02Z</time>
      </trkpt>
      <trkpt lat="43.23162" lon="5.46445">
        <ele>383</ele>
        <time>2014-01-23T08:54:09Z</time>
      </trkpt>
      <trkpt lat="43.23157" lon="5.46444">
        <ele>381</ele>
        <time>2014-01-23T08:54:16Z</time>
      </trkpt>
      <trkpt lat="43.23154" lon="5.46441">
        <ele>380</ele>
        <time>2014-01-23T08:54:32Z</time>
      </trkpt>
      <trkpt lat="43.23152" lon="5.46434">
        <ele>379</ele>
        <time>2014-01-23T08:54:43Z</time>
      </trkpt>
      <trkpt lat="43.2315" lon="5.46429">
        <ele>376</ele>
        <time>2014-01-23T08:54:52Z</time>
      </trkpt>
      <trkpt lat="43.23144" lon="5.46427">
        <ele>374</ele>
        <time>2014-01-23T08:55:05Z</time>
      </trkpt>
      <trkpt lat="43.23141" lon="5.46427">
        <ele>372</ele>
        <time>2014-01-23T08:55:13Z</time>
      </trkpt>
      <trkpt lat="43.23142" lon="5.46416">
        <ele>372</ele>
        <time>2014-01-23T08:56:13Z</time>
      </trkpt>
      <trkpt lat="43.23141" lon="5.4641">
        <ele>371</ele>
        <time>2014-01-23T08:56:21Z</time>
      </trkpt>
      <trkpt lat="43.23142" lon="5.46403">
        <ele>369</ele>
        <time>2014-01-23T08:56:27Z</time>
      </trkpt>
      <trkpt lat="43.23143" lon="5.46391">
        <ele>363</ele>
        <time>2014-01-23T08:56:44Z</time>
      </trkpt>
      <trkpt lat="43.23143" lon="5.4638">
        <ele>361</ele>
        <time>2014-01-23T08:56:57Z</time>
      </trkpt>
      <trkpt lat="43.23141" lon="5.46372">
        <ele>361</ele>
        <time>2014-01-23T08:57:01Z</time>
      </trkpt>
      <trkpt lat="43.23139" lon="5.46363">
        <ele>359</ele>
        <time>2014-01-23T08:57:07Z</time>
      </trkpt>
      <trkpt lat="43.23136" lon="5.46356">
        <ele>358</ele>
        <time>2014-01-23T08:57:18Z</time>
      </trkpt>
      <trkpt lat="43.23137" lon="5.46339">
        <ele>359</ele>
        <time>2014-01-23T08:57:45Z</time>
      </trkpt>
      <trkpt lat="43.23135" lon="5.46327">
        <ele>358</ele>
        <time>2014-01-23T08:57:59Z</time>
      </trkpt>
      <trkpt lat="43.23127" lon="5.46317">
        <ele>353</ele>
        <time>2014-01-23T08:58:29Z</time>
      </trkpt>
      <trkpt lat="43.23122" lon="5.46312">
        <ele>351</ele>
        <time>2014-01-23T08:58:40Z</time>
      </trkpt>
      <trkpt lat="43.23118" lon="5.46307">
        <ele>349</ele>
        <time>2014-01-23T08:58:47Z</time>
      </trkpt>
      <trkpt lat="43.23115" lon="5.46302">
        <ele>348</ele>
        <time>2014-01-23T08:58:51Z</time>
      </trkpt>
      <trkpt lat="43.23111" lon="5.46297">
        <ele>349</ele>
        <time>2014-01-23T08:58:55Z</time>
      </trkpt>
      <trkpt lat="43.23105" lon="5.46288">
        <ele>349</ele>
        <time>2014-01-23T08:59:02Z</time>
      </trkpt>
      <trkpt lat="43.23101" lon="5.4628">
        <ele>349</ele>
        <time>2014-01-23T08:59:25Z</time>
      </trkpt>
      <trkpt lat="43.23098" lon="5.46274">
        <ele>348</ele>
        <time>2014-01-23T08:59:31Z</time>
      </trkpt>
      <trkpt lat="43.23096" lon="5.46267">
        <ele>347</ele>
        <time>2014-01-23T08:59:37Z</time>
      </trkpt>
      <trkpt lat="43.23092" lon="5.46262">
        <ele>347</ele>
        <time>2014-01-23T08:59:44Z</time>
      </trkpt>
      <trkpt lat="43.23088" lon="5.46258">
        <ele>347</ele>
        <time>2014-01-23T08:59:51Z</time>
      </trkpt>
      <trkpt lat="43.23082" lon="5.46251">
        <ele>349</ele>
        <time>2014-01-23T09:00:04Z</time>
      </trkpt>
      <trkpt lat="43.2308" lon="5.46245">
        <ele>348</ele>
        <time>2014-01-23T09:00:10Z</time>
      </trkpt>
      <trkpt lat="43.23074" lon="5.46242">
        <ele>348</ele>
        <time>2014-01-23T09:00:17Z</time>
      </trkpt>
      <trkpt lat="43.23066" lon="5.46235">
        <ele>350</ele>
        <time>2014-01-23T09:00:33Z</time>
      </trkpt>
      <trkpt lat="43.23062" lon="5.46232">
        <ele>351</ele>
        <time>2014-01-23T09:00:39Z</time>
      </trkpt>
      <trkpt lat="43.23056" lon="5.46229">
        <ele>352</ele>
        <time>2014-01-23T09:00:45Z</time>
      </trkpt>
      <trkpt lat="43.2305" lon="5.4622">
        <ele>357</ele>
        <time>2014-01-23T09:01:06Z</time>
      </trkpt>
      <trkpt lat="43.23044" lon="5.4621">
        <ele>358</ele>
        <time>2014-01-23T09:01:16Z</time>
      </trkpt>
      <trkpt lat="43.23042" lon="5.46202">
        <ele>359</ele>
        <time>2014-01-23T09:01:21Z</time>
      </trkpt>
      <trkpt lat="43.23038" lon="5.46194">
        <ele>359</ele>
        <time>2014-01-23T09:01:28Z</time>
      </trkpt>
      <trkpt lat="43.23034" lon="5.4619">
        <ele>360</ele>
        <time>2014-01-23T09:01:35Z</time>
      </trkpt>
      <trkpt lat="43.23029" lon="5.46184">
        <ele>362</ele>
        <time>2014-01-23T09:01:46Z</time>
      </trkpt>
      <trkpt lat="43.23025" lon="5.4618">
        <ele>364</ele>
        <time>2014-01-23T09:01:51Z</time>
      </trkpt>
      <trkpt lat="43.23021" lon="5.46177">
        <ele>365</ele>
        <time>2014-01-23T09:01:56Z</time>
      </trkpt>
      <trkpt lat="43.23022" lon="5.4617">
        <ele>369</ele>
        <time>2014-01-23T09:02:11Z</time>
      </trkpt>
      <trkpt lat="43.23019" lon="5.46158">
        <ele>368</ele>
        <time>2014-01-23T09:02:22Z</time>
      </trkpt>
      <trkpt lat="43.23017" lon="5.46152">
        <ele>369</ele>
        <time>2014-01-23T09:02:28Z</time>
      </trkpt>
      <trkpt lat="43.23011" lon="5.46143">
        <ele>371</ele>
        <time>2014-01-23T09:02:41Z</time>
      </trkpt>
      <trkpt lat="43.23008" lon="5.46139">
        <ele>370</ele>
        <time>2014-01-23T09:02:45Z</time>
      </trkpt>
      <trkpt lat="43.23005" lon="5.46131">
        <ele>370</ele>
        <time>2014-01-23T09:02:53Z</time>
      </trkpt>
      <trkpt lat="43.23002" lon="5.46124">
        <ele>370</ele>
        <time>2014-01-23T09:02:59Z</time>
      </trkpt>
      <trkpt lat="43.22999" lon="5.46118">
        <ele>370</ele>
        <time>2014-01-23T09:03:03Z</time>
      </trkpt>
      <trkpt lat="43.22996" lon="5.46108">
        <ele>369</ele>
        <time>2014-01-23T09:03:11Z</time>
      </trkpt>
      <trkpt lat="43.22993" lon="5.46102">
        <ele>369</ele>
        <time>2014-01-23T09:03:15Z</time>
      </trkpt>
      <trkpt lat="43.2299" lon="5.46092">
        <ele>370</ele>
        <time>2014-01-23T09:03:23Z</time>
      </trkpt>
      <trkpt lat="43.22986" lon="5.46082">
        <ele>371</ele>
        <time>2014-01-23T09:03:30Z</time>
      </trkpt>
      <trkpt lat="43.22983" lon="5.4607">
        <ele>372</ele>
        <time>2014-01-23T09:03:38Z</time>
      </trkpt>
      <trkpt lat="43.22981" lon="5.46064">
        <ele>373</ele>
        <time>2014-01-23T09:03:43Z</time>
      </trkpt>
      <trkpt lat="43.22979" lon="5.46057">
        <ele>373</ele>
        <time>2014-01-23T09:03:47Z</time>
      </trkpt>
      <trkpt lat="43.22978" lon="5.46051">
        <ele>372</ele>
        <time>2014-01-23T09:03:51Z</time>
      </trkpt>
      <trkpt lat="43.22977" lon="5.46044">
        <ele>372</ele>
        <time>2014-01-23T09:03:55Z</time>
      </trkpt>
      <trkpt lat="43.22976" lon="5.46038">
        <ele>373</ele>
        <time>2014-01-23T09:03:58Z</time>
      </trkpt>
      <trkpt lat="43.22975" lon="5.46031">
        <ele>373</ele>
        <time>2014-01-23T09:04:01Z</time>
      </trkpt>
      <trkpt lat="43.22973" lon="5.46025">
        <ele>375</ele>
        <time>2014-01-23T09:04:05Z</time>
      </trkpt>
      <trkpt lat="43.22971" lon="5.46019">
        <ele>376</ele>
        <time>2014-01-23T09:04:10Z</time>
      </trkpt>
      <trkpt lat="43.22968" lon="5.46015">
        <ele>377</ele>
        <time>2014-01-23T09:04:15Z</time>
      </trkpt>
      <trkpt lat="43.22964" lon="5.46009">
        <ele>379</ele>
        <time>2014-01-23T09:04:23Z</time>
      </trkpt>
      <trkpt lat="43.22961" lon="5.46004">
        <ele>379</ele>
        <time>2014-01-23T09:04:28Z</time>
      </trkpt>
      <trkpt lat="43.22957" lon="5.45998">
        <ele>379</ele>
        <time>2014-01-23T09:04:34Z</time>
      </trkpt>
      <trkpt lat="43.22953" lon="5.45995">
        <ele>379</ele>
        <time>2014-01-23T09:04:38Z</time>
      </trkpt>
      <trkpt lat="43.22949" lon="5.45992">
        <ele>377</ele>
        <time>2014-01-23T09:04:43Z</time>
      </trkpt>
      <trkpt lat="43.22945" lon="5.45985">
        <ele>377</ele>
        <time>2014-01-23T09:04:54Z</time>
      </trkpt>
      <trkpt lat="43.22937" lon="5.45977">
        <ele>375</ele>
        <time>2014-01-23T09:05:50Z</time>
      </trkpt>
      <trkpt lat="43.22933" lon="5.45972">
        <ele>374</ele>
        <time>2014-01-23T09:05:55Z</time>
      </trkpt>
      <trkpt lat="43.22927" lon="5.45967">
        <ele>374</ele>
        <time>2014-01-23T09:06:01Z</time>
      </trkpt>
      <trkpt lat="43.22923" lon="5.45962">
        <ele>373</ele>
        <time>2014-01-23T09:06:06Z</time>
      </trkpt>
      <trkpt lat="43.22917" lon="5.45958">
        <ele>373</ele>
        <time>2014-01-23T09:06:10Z</time>
      </trkpt>
      <trkpt lat="43.22911" lon="5.45954">
        <ele>374</ele>
        <time>2014-01-23T09:06:15Z</time>
      </trkpt>
      <trkpt lat="43.22907" lon="5.45951">
        <ele>374</ele>
        <time>2014-01-23T09:06:19Z</time>
      </trkpt>
      <trkpt lat="43.22901" lon="5.4594">
        <ele>375</ele>
        <time>2014-01-23T09:06:26Z</time>
      </trkpt>
      <trkpt lat="43.22899" lon="5.45932">
        <ele>376</ele>
        <time>2014-01-23T09:06:31Z</time>
      </trkpt>
      <trkpt lat="43.22898" lon="5.45925">
        <ele>376</ele>
        <time>2014-01-23T09:06:36Z</time>
      </trkpt>
      <trkpt lat="43.22902" lon="5.45913">
        <ele>376</ele>
        <time>2014-01-23T09:06:46Z</time>
      </trkpt>
      <trkpt lat="43.22904" lon="5.45907">
        <ele>375</ele>
        <time>2014-01-23T09:06:50Z</time>
      </trkpt>
      <trkpt lat="43.22906" lon="5.45902">
        <ele>374</ele>
        <time>2014-01-23T09:06:53Z</time>
      </trkpt>
      <trkpt lat="43.2291" lon="5.45897">
        <ele>374</ele>
        <time>2014-01-23T09:06:56Z</time>
      </trkpt>
      <trkpt lat="43.22914" lon="5.45891">
        <ele>375</ele>
        <time>2014-01-23T09:07:01Z</time>
      </trkpt>
      <trkpt lat="43.22918" lon="5.45885">
        <ele>375</ele>
        <time>2014-01-23T09:07:05Z</time>
      </trkpt>
      <trkpt lat="43.22922" lon="5.45877">
        <ele>375</ele>
        <time>2014-01-23T09:07:12Z</time>
      </trkpt>
      <trkpt lat="43.22927" lon="5.45866">
        <ele>376</ele>
        <time>2014-01-23T09:07:18Z</time>
      </trkpt>
      <trkpt lat="43.22929" lon="5.4586">
        <ele>376</ele>
        <time>2014-01-23T09:07:23Z</time>
      </trkpt>
      <trkpt lat="43.2293" lon="5.45853">
        <ele>377</ele>
        <time>2014-01-23T09:07:26Z</time>
      </trkpt>
      <trkpt lat="43.22932" lon="5.45847">
        <ele>377</ele>
        <time>2014-01-23T09:07:31Z</time>
      </trkpt>
      <trkpt lat="43.22931" lon="5.45839">
        <ele>377</ele>
        <time>2014-01-23T09:07:36Z</time>
      </trkpt>
      <trkpt lat="43.22931" lon="5.45832">
        <ele>377</ele>
        <time>2014-01-23T09:07:42Z</time>
      </trkpt>
      <trkpt lat="43.22924" lon="5.45822">
        <ele>375</ele>
        <time>2014-01-23T09:07:53Z</time>
      </trkpt>
      <trkpt lat="43.22918" lon="5.45813">
        <ele>376</ele>
        <time>2014-01-23T09:08:01Z</time>
      </trkpt>
      <trkpt lat="43.22911" lon="5.45804">
        <ele>377</ele>
        <time>2014-01-23T09:08:27Z</time>
      </trkpt>
      <trkpt lat="43.22905" lon="5.45794">
        <ele>378</ele>
        <time>2014-01-23T09:08:34Z</time>
      </trkpt>
      <trkpt lat="43.22903" lon="5.45788">
        <ele>380</ele>
        <time>2014-01-23T09:08:38Z</time>
      </trkpt>
      <trkpt lat="43.22902" lon="5.45781">
        <ele>380</ele>
        <time>2014-01-23T09:08:41Z</time>
      </trkpt>
      <trkpt lat="43.22902" lon="5.45771">
        <ele>381</ele>
        <time>2014-01-23T09:08:47Z</time>
      </trkpt>
      <trkpt lat="43.22901" lon="5.45765">
        <ele>381</ele>
        <time>2014-01-23T09:08:51Z</time>
      </trkpt>
      <trkpt lat="43.22899" lon="5.45759">
        <ele>381</ele>
        <time>2014-01-23T09:08:55Z</time>
      </trkpt>
      <trkpt lat="43.22897" lon="5.45751">
        <ele>382</ele>
        <time>2014-01-23T09:09:09Z</time>
      </trkpt>
      <trkpt lat="43.22894" lon="5.45742">
        <ele>383</ele>
        <time>2014-01-23T09:09:15Z</time>
      </trkpt>
      <trkpt lat="43.2289" lon="5.45737">
        <ele>382</ele>
        <time>2014-01-23T09:09:19Z</time>
      </trkpt>
      <trkpt lat="43.22888" lon="5.45731">
        <ele>382</ele>
        <time>2014-01-23T09:09:23Z</time>
      </trkpt>
      <trkpt lat="43.22887" lon="5.45725">
        <ele>382</ele>
        <time>2014-01-23T09:09:27Z</time>
      </trkpt>
      <trkpt lat="43.22887" lon="5.45719">
        <ele>383</ele>
        <time>2014-01-23T09:09:31Z</time>
      </trkpt>
      <trkpt lat="43.22887" lon="5.45712">
        <ele>384</ele>
        <time>2014-01-23T09:09:35Z</time>
      </trkpt>
      <trkpt lat="43.22886" lon="5.45704">
        <ele>384</ele>
        <time>2014-01-23T09:09:41Z</time>
      </trkpt>
      <trkpt lat="43.22884" lon="5.45698">
        <ele>385</ele>
        <time>2014-01-23T09:09:49Z</time>
      </trkpt>
      <trkpt lat="43.22881" lon="5.45686">
        <ele>385</ele>
        <time>2014-01-23T09:09:57Z</time>
      </trkpt>
      <trkpt lat="43.2288" lon="5.45677">
        <ele>385</ele>
        <time>2014-01-23T09:10:02Z</time>
      </trkpt>
      <trkpt lat="43.2288" lon="5.4567">
        <ele>386</ele>
        <time>2014-01-23T09:10:08Z</time>
      </trkpt>
      <trkpt lat="43.22881" lon="5.45663">
        <ele>386</ele>
        <time>2014-01-23T09:10:13Z</time>
      </trkpt>
      <trkpt lat="43.22883" lon="5.45654">
        <ele>386</ele>
        <time>2014-01-23T09:10:20Z</time>
      </trkpt>
      <trkpt lat="43.22883" lon="5.45642">
        <ele>387</ele>
        <time>2014-01-23T09:10:28Z</time>
      </trkpt>
      <trkpt lat="43.22882" lon="5.45636">
        <ele>388</ele>
        <time>2014-01-23T09:10:32Z</time>
      </trkpt>
      <trkpt lat="43.22882" lon="5.45632">
        <ele>389</ele>
        <time>2014-01-23T09:10:47Z</time>
      </trkpt>
      <trkpt lat="43.22879" lon="5.45626">
        <ele>390</ele>
        <time>2014-01-23T09:10:53Z</time>
      </trkpt>
      <trkpt lat="43.22876" lon="5.4562">
        <ele>390</ele>
        <time>2014-01-23T09:10:58Z</time>
      </trkpt>
      <trkpt lat="43.22873" lon="5.45615">
        <ele>390</ele>
        <time>2014-01-23T09:11:03Z</time>
      </trkpt>
      <trkpt lat="43.2287" lon="5.4561">
        <ele>390</ele>
        <time>2014-01-23T09:11:06Z</time>
      </trkpt>
      <trkpt lat="43.22868" lon="5.45603">
        <ele>390</ele>
        <time>2014-01-23T09:11:13Z</time>
      </trkpt>
      <trkpt lat="43.22865" lon="5.45596">
        <ele>390</ele>
        <time>2014-01-23T09:11:17Z</time>
      </trkpt>
      <trkpt lat="43.22863" lon="5.4559">
        <ele>389</ele>
        <time>2014-01-23T09:11:22Z</time>
      </trkpt>
      <trkpt lat="43.2286" lon="5.45584">
        <ele>389</ele>
        <time>2014-01-23T09:11:26Z</time>
      </trkpt>
      <trkpt lat="43.22858" lon="5.45578">
        <ele>389</ele>
        <time>2014-01-23T09:11:29Z</time>
      </trkpt>
      <trkpt lat="43.22857" lon="5.45571">
        <ele>390</ele>
        <time>2014-01-23T09:11:33Z</time>
      </trkpt>
      <trkpt lat="43.22855" lon="5.45565">
        <ele>389</ele>
        <time>2014-01-23T09:11:38Z</time>
      </trkpt>
      <trkpt lat="43.22853" lon="5.45559">
        <ele>390</ele>
        <time>2014-01-23T09:11:46Z</time>
      </trkpt>
      <trkpt lat="43.22851" lon="5.45553">
        <ele>390</ele>
        <time>2014-01-23T09:11:48Z</time>
      </trkpt>
      <trkpt lat="43.22849" lon="5.45548">
        <ele>390</ele>
        <time>2014-01-23T09:11:54Z</time>
      </trkpt>
      <trkpt lat="43.22849" lon="5.45545">
        <ele>389</ele>
        <time>2014-01-23T09:12:00Z</time>
      </trkpt>
      <trkpt lat="43.22844" lon="5.45541">
        <ele>391</ele>
        <time>2014-01-23T09:12:10Z</time>
      </trkpt>
      <trkpt lat="43.22839" lon="5.45537">
        <ele>391</ele>
        <time>2014-01-23T09:12:14Z</time>
      </trkpt>
      <trkpt lat="43.22834" lon="5.45531">
        <ele>390</ele>
        <time>2014-01-23T09:12:31Z</time>
      </trkpt>
      <trkpt lat="43.22831" lon="5.45526">
        <ele>389</ele>
        <time>2014-01-23T09:12:35Z</time>
      </trkpt>
      <trkpt lat="43.22826" lon="5.45522">
        <ele>388</ele>
        <time>2014-01-23T09:12:40Z</time>
      </trkpt>
      <trkpt lat="43.22821" lon="5.45521">
        <ele>389</ele>
        <time>2014-01-23T09:13:17Z</time>
      </trkpt>
      <trkpt lat="43.22816" lon="5.45519">
        <ele>390</ele>
        <time>2014-01-23T09:13:27Z</time>
      </trkpt>
      <trkpt lat="43.2281" lon="5.45517">
        <ele>389</ele>
        <time>2014-01-23T09:13:33Z</time>
      </trkpt>
      <trkpt lat="43.22806" lon="5.45516">
        <ele>388</ele>
        <time>2014-01-23T09:13:37Z</time>
      </trkpt>
      <trkpt lat="43.22801" lon="5.45515">
        <ele>388</ele>
        <time>2014-01-23T09:13:40Z</time>
      </trkpt>
      <trkpt lat="43.22796" lon="5.45513">
        <ele>389</ele>
        <time>2014-01-23T09:13:48Z</time>
      </trkpt>
      <trkpt lat="43.22792" lon="5.45515">
        <ele>387</ele>
        <time>2014-01-23T09:14:02Z</time>
      </trkpt>
      <trkpt lat="43.22783" lon="5.45516">
        <ele>385</ele>
        <time>2014-01-23T09:14:13Z</time>
      </trkpt>
      <trkpt lat="43.22775" lon="5.45519">
        <ele>387</ele>
        <time>2014-01-23T09:14:21Z</time>
      </trkpt>
      <trkpt lat="43.22765" lon="5.45524">
        <ele>390</ele>
        <time>2014-01-23T09:14:28Z</time>
      </trkpt>
      <trkpt lat="43.22758" lon="5.45531">
        <ele>394</ele>
        <time>2014-01-23T09:14:40Z</time>
      </trkpt>
      <trkpt lat="43.22758" lon="5.45538">
        <ele>396</ele>
        <time>2014-01-23T09:14:52Z</time>
      </trkpt>
      <trkpt lat="43.22751" lon="5.45544">
        <ele>398</ele>
        <time>2014-01-23T09:15:10Z</time>
      </trkpt>
      <trkpt lat="43.22745" lon="5.45554">
        <ele>399</ele>
        <time>2014-01-23T09:15:24Z</time>
      </trkpt>
      <trkpt lat="43.22736" lon="5.45559">
        <ele>404</ele>
        <time>2014-01-23T09:15:38Z</time>
      </trkpt>
      <trkpt lat="43.22731" lon="5.45558">
        <ele>405</ele>
        <time>2014-01-23T09:16:02Z</time>
      </trkpt>
      <trkpt lat="43.22728" lon="5.45554">
        <ele>404</ele>
        <time>2014-01-23T09:16:42Z</time>
      </trkpt>
      <trkpt lat="43.22722" lon="5.45553">
        <ele>412</ele>
        <time>2014-01-23T09:17:06Z</time>
      </trkpt>
      <trkpt lat="43.22713" lon="5.45552">
        <ele>412</ele>
        <time>2014-01-23T09:17:17Z</time>
      </trkpt>
      <trkpt lat="43.22703" lon="5.45549">
        <ele>410</ele>
        <time>2014-01-23T09:17:24Z</time>
      </trkpt>
      <trkpt lat="43.22698" lon="5.45547">
        <ele>409</ele>
        <time>2014-01-23T09:17:38Z</time>
      </trkpt>
      <trkpt lat="43.2269" lon="5.4554">
        <ele>410</ele>
        <time>2014-01-23T09:17:50Z</time>
      </trkpt>
      <trkpt lat="43.22681" lon="5.45533">
        <ele>412</ele>
        <time>2014-01-23T09:18:05Z</time>
      </trkpt>
      <trkpt lat="43.22673" lon="5.45525">
        <ele>414</ele>
        <time>2014-01-23T09:18:16Z</time>
      </trkpt>
      <trkpt lat="43.22661" lon="5.4553">
        <ele>413</ele>
        <time>2014-01-23T09:18:53Z</time>
      </trkpt>
      <trkpt lat="43.2265" lon="5.45534">
        <ele>419</ele>
        <time>2014-01-23T09:19:22Z</time>
      </trkpt>
      <trkpt lat="43.22643" lon="5.45535">
        <ele>421</ele>
        <time>2014-01-23T09:19:38Z</time>
      </trkpt>
      <trkpt lat="43.22638" lon="5.45535">
        <ele>425</ele>
        <time>2014-01-23T09:20:05Z</time>
      </trkpt>
      <trkpt lat="43.22624" lon="5.45533">
        <ele>427</ele>
        <time>2014-01-23T09:20:29Z</time>
      </trkpt>
      <trkpt lat="43.22614" lon="5.45534">
        <ele>430</ele>
        <time>2014-01-23T09:20:44Z</time>
      </trkpt>
      <trkpt lat="43.22609" lon="5.45538">
        <ele>432</ele>
        <time>2014-01-23T09:20:59Z</time>
      </trkpt>
      <trkpt lat="43.22602" lon="5.45531">
        <ele>434</ele>
        <time>2014-01-23T09:21:25Z</time>
      </trkpt>
      <trkpt lat="43.22597" lon="5.45531">
        <ele>435</ele>
        <time>2014-01-23T09:22:04Z</time>
      </trkpt>
      <trkpt lat="43.22592" lon="5.45537">
        <ele>438</ele>
        <time>2014-01-23T09:22:39Z</time>
      </trkpt>
      <trkpt lat="43.22584" lon="5.45537">
        <ele>445</ele>
        <time>2014-01-23T09:23:09Z</time>
      </trkpt>
      <trkpt lat="43.2258" lon="5.45549">
        <ele>452</ele>
        <time>2014-01-23T09:23:32Z</time>
      </trkpt>
      <trkpt lat="43.22576" lon="5.45545">
        <ele>452</ele>
        <time>2014-01-23T09:23:55Z</time>
      </trkpt>
      <trkpt lat="43.22573" lon="5.45557">
        <ele>465</ele>
        <time>2014-01-23T09:24:43Z</time>
      </trkpt>
      <trkpt lat="43.22562" lon="5.45545">
        <ele>469</ele>
        <time>2014-01-23T09:25:06Z</time>
      </trkpt>
      <trkpt lat="43.22556" lon="5.45518">
        <ele>479</ele>
        <time>2014-01-23T09:25:37Z</time>
      </trkpt>
      <trkpt lat="43.22546" lon="5.45522">
        <ele>502</ele>
        <time>2014-01-23T09:26:07Z</time>
      </trkpt>
      <trkpt lat="43.22547" lon="5.45534">
        <ele>488</ele>
        <time>2014-01-23T09:26:42Z</time>
      </trkpt>
      <trkpt lat="43.22537" lon="5.45537">
        <ele>475</ele>
        <time>2014-01-23T09:27:11Z</time>
      </trkpt>
      <trkpt lat="43.22532" lon="5.45534">
        <ele>469</ele>
        <time>2014-01-23T09:27:26Z</time>
      </trkpt>
      <trkpt lat="43.22523" lon="5.45521">
        <ele>473</ele>
        <time>2014-01-23T09:27:48Z</time>
      </trkpt>
      <trkpt lat="43.22512" lon="5.45516">
        <ele>477</ele>
        <time>2014-01-23T09:27:52Z</time>
      </trkpt>
      <trkpt lat="43.22507" lon="5.45523">
        <ele>477</ele>
        <time>2014-01-23T09:28:14Z</time>
      </trkpt>
      <trkpt lat="43.22506" lon="5.45532">
        <ele>475</ele>
        <time>2014-01-23T09:28:29Z</time>
      </trkpt>
      <trkpt lat="43.22519" lon="5.45532">
        <ele>473</ele>
        <time>2014-01-23T09:28:53Z</time>
      </trkpt>
      <trkpt lat="43.22528" lon="5.45528">
        <ele>473</ele>
        <time>2014-01-23T09:28:59Z</time>
      </trkpt>
      <trkpt lat="43.22534" lon="5.45527">
        <ele>479</ele>
        <time>2014-01-23T09:29:22Z</time>
      </trkpt>
      <trkpt lat="43.22542" lon="5.45529">
        <ele>471</ele>
        <time>2014-01-23T09:32:12Z</time>
      </trkpt>
      <trkpt lat="43.22537" lon="5.45525">
        <ele>477</ele>
        <time>2014-01-23T09:34:51Z</time>
      </trkpt>
      <trkpt lat="43.22529" lon="5.45519">
        <ele>478</ele>
        <time>2014-01-23T09:35:03Z</time>
      </trkpt>
      <trkpt lat="43.22527" lon="5.45517">
        <ele>478</ele>
        <time>2014-01-23T09:35:38Z</time>
      </trkpt>
      <trkpt lat="43.22535" lon="5.45534">
        <ele>476</ele>
        <time>2014-01-23T09:36:23Z</time>
      </trkpt>
      <trkpt lat="43.22522" lon="5.45538">
        <ele>483</ele>
        <time>2014-01-23T09:37:17Z</time>
      </trkpt>
      <trkpt lat="43.22517" lon="5.45541">
        <ele>486</ele>
        <time>2014-01-23T09:37:40Z</time>
      </trkpt>
      <trkpt lat="43.22515" lon="5.45548">
        <ele>491</ele>
        <time>2014-01-23T09:38:14Z</time>
      </trkpt>
      <trkpt lat="43.22519" lon="5.45556">
        <ele>492</ele>
        <time>2014-01-23T09:38:32Z</time>
      </trkpt>
      <trkpt lat="43.22527" lon="5.45563">
        <ele>495</ele>
        <time>2014-01-23T09:39:07Z</time>
      </trkpt>
      <trkpt lat="43.22524" lon="5.45569">
        <ele>503</ele>
        <time>2014-01-23T09:39:38Z</time>
      </trkpt>
      <trkpt lat="43.22526" lon="5.45576">
        <ele>506</ele>
        <time>2014-01-23T09:40:01Z</time>
      </trkpt>
      <trkpt lat="43.22522" lon="5.45576">
        <ele>507</ele>
        <time>2014-01-23T09:40:14Z</time>
      </trkpt>
      <trkpt lat="43.22514" lon="5.45576">
        <ele>508</ele>
        <time>2014-01-23T09:41:25Z</time>
      </trkpt>
      <trkpt lat="43.22511" lon="5.45573">
        <ele>509</ele>
        <time>2014-01-23T09:41:34Z</time>
      </trkpt>
      <trkpt lat="43.22504" lon="5.45573">
        <ele>509</ele>
        <time>2014-01-23T09:41:51Z</time>
      </trkpt>
      <trkpt lat="43.22498" lon="5.45569">
        <ele>510</ele>
        <time>2014-01-23T09:42:07Z</time>
      </trkpt>
      <trkpt lat="43.22487" lon="5.45569">
        <ele>508</ele>
        <time>2014-01-23T09:42:51Z</time>
      </trkpt>
      <trkpt lat="43.22483" lon="5.45567">
        <ele>508</ele>
        <time>2014-01-23T09:42:55Z</time>
      </trkpt>
      <trkpt lat="43.22479" lon="5.45562">
        <ele>508</ele>
        <time>2014-01-23T09:43:03Z</time>
      </trkpt>
      <trkpt lat="43.22472" lon="5.45555">
        <ele>510</ele>
        <time>2014-01-23T09:43:14Z</time>
      </trkpt>
      <trkpt lat="43.22463" lon="5.4555">
        <ele>511</ele>
        <time>2014-01-23T09:43:27Z</time>
      </trkpt>
      <trkpt lat="43.22459" lon="5.45551">
        <ele>514</ele>
        <time>2014-01-23T09:43:33Z</time>
      </trkpt>
      <trkpt lat="43.22448" lon="5.45549">
        <ele>522</ele>
        <time>2014-01-23T09:44:19Z</time>
      </trkpt>
      <trkpt lat="43.22444" lon="5.45556">
        <ele>524</ele>
        <time>2014-01-23T09:45:10Z</time>
      </trkpt>
      <trkpt lat="43.22437" lon="5.45558">
        <ele>524</ele>
        <time>2014-01-23T09:45:18Z</time>
      </trkpt>
      <trkpt lat="43.22436" lon="5.45554">
        <ele>523</ele>
        <time>2014-01-23T09:45:30Z</time>
      </trkpt>
      <trkpt lat="43.22427" lon="5.4555">
        <ele>525</ele>
        <time>2014-01-23T09:45:52Z</time>
      </trkpt>
      <trkpt lat="43.22423" lon="5.45552">
        <ele>520</ele>
        <time>2014-01-23T09:46:09Z</time>
      </trkpt>
      <trkpt lat="43.22415" lon="5.45555">
        <ele>522</ele>
        <time>2014-01-23T09:46:21Z</time>
      </trkpt>
      <trkpt lat="43.22405" lon="5.45556">
        <ele>522</ele>
        <time>2014-01-23T09:46:39Z</time>
      </trkpt>
      <trkpt lat="43.22397" lon="5.45558">
        <ele>525</ele>
        <time>2014-01-23T09:46:49Z</time>
      </trkpt>
      <trkpt lat="43.22396" lon="5.45556">
        <ele>529</ele>
        <time>2014-01-23T09:47:01Z</time>
      </trkpt>
      <trkpt lat="43.22392" lon="5.45551">
        <ele>529</ele>
        <time>2014-01-23T09:47:09Z</time>
      </trkpt>
      <trkpt lat="43.22395" lon="5.45546">
        <ele>531</ele>
        <time>2014-01-23T09:47:17Z</time>
      </trkpt>
      <trkpt lat="43.22397" lon="5.4554">
        <ele>532</ele>
        <time>2014-01-23T09:47:23Z</time>
      </trkpt>
      <trkpt lat="43.22401" lon="5.45535">
        <ele>533</ele>
        <time>2014-01-23T09:47:28Z</time>
      </trkpt>
      <trkpt lat="43.22404" lon="5.4553">
        <ele>533</ele>
        <time>2014-01-23T09:47:33Z</time>
      </trkpt>
      <trkpt lat="43.22406" lon="5.45524">
        <ele>534</ele>
        <time>2014-01-23T09:47:38Z</time>
      </trkpt>
      <trkpt lat="43.22406" lon="5.45517">
        <ele>536</ele>
        <time>2014-01-23T09:47:45Z</time>
      </trkpt>
      <trkpt lat="43.22407" lon="5.45511">
        <ele>537</ele>
        <time>2014-01-23T09:47:51Z</time>
      </trkpt>
      <trkpt lat="43.22409" lon="5.45504">
        <ele>537</ele>
        <time>2014-01-23T09:47:57Z</time>
      </trkpt>
      <trkpt lat="43.22412" lon="5.45497">
        <ele>539</ele>
        <time>2014-01-23T09:48:15Z</time>
      </trkpt>
      <trkpt lat="43.22414" lon="5.45491">
        <ele>540</ele>
        <time>2014-01-23T09:48:20Z</time>
      </trkpt>
      <trkpt lat="43.22416" lon="5.45487">
        <ele>540</ele>
        <time>2014-01-23T09:48:26Z</time>
      </trkpt>
      <trkpt lat="43.22416" lon="5.45483">
        <ele>542</ele>
        <time>2014-01-23T09:49:00Z</time>
      </trkpt>
      <trkpt lat="43.22413" lon="5.4548">
        <ele>542</ele>
        <time>2014-01-23T09:50:13Z</time>
      </trkpt>
      <trkpt lat="43.2241" lon="5.45476">
        <ele>544</ele>
        <time>2014-01-23T09:51:49Z</time>
      </trkpt>
      <trkpt lat="43.22408" lon="5.45475">
        <ele>544</ele>
        <time>2014-01-23T09:52:00Z</time>
      </trkpt>
      <trkpt lat="43.22403" lon="5.45474">
        <ele>544</ele>
        <time>2014-01-23T09:52:05Z</time>
      </trkpt>
      <trkpt lat="43.22399" lon="5.45472">
        <ele>544</ele>
        <time>2014-01-23T09:52:12Z</time>
      </trkpt>
      <trkpt lat="43.22396" lon="5.45471">
        <ele>543</ele>
        <time>2014-01-23T09:52:18Z</time>
      </trkpt>
      <trkpt lat="43.22391" lon="5.45472">
        <ele>547</ele>
        <time>2014-01-23T09:52:48Z</time>
      </trkpt>
      <trkpt lat="43.22385" lon="5.45468">
        <ele>546</ele>
        <time>2014-01-23T09:52:59Z</time>
      </trkpt>
      <trkpt lat="43.22382" lon="5.45466">
        <ele>547</ele>
        <time>2014-01-23T09:53:10Z</time>
      </trkpt>
      <trkpt lat="43.22379" lon="5.45461">
        <ele>546</ele>
        <time>2014-01-23T09:53:20Z</time>
      </trkpt>
      <trkpt lat="43.22377" lon="5.45461">
        <ele>545</ele>
        <time>2014-01-23T09:53:48Z</time>
      </trkpt>
      <trkpt lat="43.22375" lon="5.45457">
        <ele>545</ele>
        <time>2014-01-23T09:54:52Z</time>
      </trkpt>
      <trkpt lat="43.22369" lon="5.45457">
        <ele>544</ele>
        <time>2014-01-23T09:57:09Z</time>
      </trkpt>
      <trkpt lat="43.22366" lon="5.45462">
        <ele>544</ele>
        <time>2014-01-23T09:57:15Z</time>
      </trkpt>
      <trkpt lat="43.22365" lon="5.45469">
        <ele>541</ele>
        <time>2014-01-23T09:57:35Z</time>
      </trkpt>
      <trkpt lat="43.22364" lon="5.45476">
        <ele>542</ele>
        <time>2014-01-23T09:57:40Z</time>
      </trkpt>
      <trkpt lat="43.22363" lon="5.45482">
        <ele>542</ele>
        <time>2014-01-23T09:57:46Z</time>
      </trkpt>
      <trkpt lat="43.22363" lon="5.45489">
        <ele>542</ele>
        <time>2014-01-23T09:57:54Z</time>
      </trkpt>
      <trkpt lat="43.22362" lon="5.45496">
        <ele>541</ele>
        <time>2014-01-23T09:58:00Z</time>
      </trkpt>
      <trkpt lat="43.22362" lon="5.45502">
        <ele>540</ele>
        <time>2014-01-23T09:58:07Z</time>
      </trkpt>
      <trkpt lat="43.2236" lon="5.45509">
        <ele>539</ele>
        <time>2014-01-23T09:58:13Z</time>
      </trkpt>
      <trkpt lat="43.22359" lon="5.45517">
        <ele>540</ele>
        <time>2014-01-23T09:58:18Z</time>
      </trkpt>
      <trkpt lat="43.22357" lon="5.45523">
        <ele>540</ele>
        <time>2014-01-23T09:58:23Z</time>
      </trkpt>
      <trkpt lat="43.22356" lon="5.4553">
        <ele>540</ele>
        <time>2014-01-23T09:58:28Z</time>
      </trkpt>
      <trkpt lat="43.22352" lon="5.45533">
        <ele>539</ele>
        <time>2014-01-23T09:58:35Z</time>
      </trkpt>
      <trkpt lat="43.22348" lon="5.45528">
        <ele>539</ele>
        <time>2014-01-23T09:58:43Z</time>
      </trkpt>
      <trkpt lat="43.22351" lon="5.45541">
        <ele>537</ele>
        <time>2014-01-23T09:59:46Z</time>
      </trkpt>
      <trkpt lat="43.22352" lon="5.45548">
        <ele>537</ele>
        <time>2014-01-23T09:59:51Z</time>
      </trkpt>
      <trkpt lat="43.2235" lon="5.45552">
        <ele>539</ele>
        <time>2014-01-23T10:00:21Z</time>
      </trkpt>
      <trkpt lat="43.2235" lon="5.45561">
        <ele>537</ele>
        <time>2014-01-23T10:00:35Z</time>
      </trkpt>
      <trkpt lat="43.2235" lon="5.45568">
        <ele>536</ele>
        <time>2014-01-23T10:00:54Z</time>
      </trkpt>
      <trkpt lat="43.22348" lon="5.45574">
        <ele>536</ele>
        <time>2014-01-23T10:00:58Z</time>
      </trkpt>
      <trkpt lat="43.22345" lon="5.4558">
        <ele>536</ele>
        <time>2014-01-23T10:01:04Z</time>
      </trkpt>
      <trkpt lat="43.22341" lon="5.45584">
        <ele>536</ele>
        <time>2014-01-23T10:01:13Z</time>
      </trkpt>
      <trkpt lat="43.22337" lon="5.45588">
        <ele>536</ele>
        <time>2014-01-23T10:01:19Z</time>
      </trkpt>
      <trkpt lat="43.22335" lon="5.4559">
        <ele>533</ele>
        <time>2014-01-23T10:02:29Z</time>
      </trkpt>
      <trkpt lat="43.22335" lon="5.45596">
        <ele>533</ele>
        <time>2014-01-23T10:02:37Z</time>
      </trkpt>
      <trkpt lat="43.22334" lon="5.45603">
        <ele>534</ele>
        <time>2014-01-23T10:02:44Z</time>
      </trkpt>
      <trkpt lat="43.22338" lon="5.45608">
        <ele>534</ele>
        <time>2014-01-23T10:02:52Z</time>
      </trkpt>
      <trkpt lat="43.22342" lon="5.45612">
        <ele>534</ele>
        <time>2014-01-23T10:03:06Z</time>
      </trkpt>
      <trkpt lat="43.22345" lon="5.45618">
        <ele>535</ele>
        <time>2014-01-23T10:03:12Z</time>
      </trkpt>
      <trkpt lat="43.22344" lon="5.45624">
        <ele>536</ele>
        <time>2014-01-23T10:03:21Z</time>
      </trkpt>
      <trkpt lat="43.22342" lon="5.4563">
        <ele>537</ele>
        <time>2014-01-23T10:03:29Z</time>
      </trkpt>
      <trkpt lat="43.22341" lon="5.45635">
        <ele>537</ele>
        <time>2014-01-23T10:03:38Z</time>
      </trkpt>
      <trkpt lat="43.2234" lon="5.45645">
        <ele>538</ele>
        <time>2014-01-23T10:03:47Z</time>
      </trkpt>
      <trkpt lat="43.22338" lon="5.45654">
        <ele>541</ele>
        <time>2014-01-23T10:04:02Z</time>
      </trkpt>
      <trkpt lat="43.22339" lon="5.45657">
        <ele>541</ele>
        <time>2014-01-23T10:04:08Z</time>
      </trkpt>
      <trkpt lat="43.22337" lon="5.45664">
        <ele>541</ele>
        <time>2014-01-23T10:04:15Z</time>
      </trkpt>
      <trkpt lat="43.22337" lon="5.4567">
        <ele>542</ele>
        <time>2014-01-23T10:04:21Z</time>
      </trkpt>
      <trkpt lat="43.22336" lon="5.45675">
        <ele>545</ele>
        <time>2014-01-23T10:04:32Z</time>
      </trkpt>
      <trkpt lat="43.22332" lon="5.45679">
        <ele>546</ele>
        <time>2014-01-23T10:04:40Z</time>
      </trkpt>
      <trkpt lat="43.22329" lon="5.45684">
        <ele>548</ele>
        <time>2014-01-23T10:04:49Z</time>
      </trkpt>
      <trkpt lat="43.22325" lon="5.45689">
        <ele>550</ele>
        <time>2014-01-23T10:05:21Z</time>
      </trkpt>
      <trkpt lat="43.22321" lon="5.45693">
        <ele>552</ele>
        <time>2014-01-23T10:05:24Z</time>
      </trkpt>
      <trkpt lat="43.22318" lon="5.45698">
        <ele>552</ele>
        <time>2014-01-23T10:05:29Z</time>
      </trkpt>
      <trkpt lat="43.22314" lon="5.45704">
        <ele>554</ele>
        <time>2014-01-23T10:05:43Z</time>
      </trkpt>
      <trkpt lat="43.22311" lon="5.4571">
        <ele>554</ele>
        <time>2014-01-23T10:05:55Z</time>
      </trkpt>
      <trkpt lat="43.2231" lon="5.45714">
        <ele>552</ele>
        <time>2014-01-23T10:06:30Z</time>
      </trkpt>
      <trkpt lat="43.22309" lon="5.45717">
        <ele>551</ele>
        <time>2014-01-23T10:06:53Z</time>
      </trkpt>
      <trkpt lat="43.22304" lon="5.45717">
        <ele>552</ele>
        <time>2014-01-23T10:07:44Z</time>
      </trkpt>
      <trkpt lat="43.22304" lon="5.45725">
        <ele>554</ele>
        <time>2014-01-23T10:07:55Z</time>
      </trkpt>
      <trkpt lat="43.223" lon="5.45728">
        <ele>555</ele>
        <time>2014-01-23T10:08:20Z</time>
      </trkpt>
      <trkpt lat="43.22297" lon="5.45735">
        <ele>555</ele>
        <time>2014-01-23T10:08:25Z</time>
      </trkpt>
      <trkpt lat="43.22295" lon="5.45741">
        <ele>555</ele>
        <time>2014-01-23T10:08:29Z</time>
      </trkpt>
      <trkpt lat="43.22291" lon="5.45746">
        <ele>556</ele>
        <time>2014-01-23T10:08:34Z</time>
      </trkpt>
      <trkpt lat="43.22289" lon="5.45752">
        <ele>557</ele>
        <time>2014-01-23T10:08:40Z</time>
      </trkpt>
      <trkpt lat="43.22288" lon="5.45756">
        <ele>557</ele>
        <time>2014-01-23T10:08:47Z</time>
      </trkpt>
      <trkpt lat="43.22288" lon="5.45761">
        <ele>558</ele>
        <time>2014-01-23T10:08:55Z</time>
      </trkpt>
      <trkpt lat="43.22285" lon="5.45767">
        <ele>557</ele>
        <time>2014-01-23T10:09:13Z</time>
      </trkpt>
      <trkpt lat="43.22281" lon="5.45773">
        <ele>558</ele>
        <time>2014-01-23T10:09:18Z</time>
      </trkpt>
      <trkpt lat="43.22277" lon="5.45781">
        <ele>561</ele>
        <time>2014-01-23T10:09:32Z</time>
      </trkpt>
      <trkpt lat="43.22277" lon="5.45786">
        <ele>559</ele>
        <time>2014-01-23T10:09:57Z</time>
      </trkpt>
      <trkpt lat="43.22277" lon="5.45794">
        <ele>559</ele>
        <time>2014-01-23T10:10:04Z</time>
      </trkpt>
      <trkpt lat="43.22276" lon="5.458">
        <ele>560</ele>
        <time>2014-01-23T10:10:08Z</time>
      </trkpt>
      <trkpt lat="43.22274" lon="5.45805">
        <ele>560</ele>
        <time>2014-01-23T10:10:16Z</time>
      </trkpt>
      <trkpt lat="43.22272" lon="5.45806">
        <ele>558</ele>
        <time>2014-01-23T10:10:39Z</time>
      </trkpt>
      <trkpt lat="43.22274" lon="5.45811">
        <ele>553</ele>
        <time>2014-01-23T10:11:06Z</time>
      </trkpt>
      <trkpt lat="43.22271" lon="5.45815">
        <ele>552</ele>
        <time>2014-01-23T10:11:18Z</time>
      </trkpt>
      <trkpt lat="43.22269" lon="5.45822">
        <ele>552</ele>
        <time>2014-01-23T10:11:28Z</time>
      </trkpt>
      <trkpt lat="43.22266" lon="5.45827">
        <ele>552</ele>
        <time>2014-01-23T10:11:32Z</time>
      </trkpt>
      <trkpt lat="43.22263" lon="5.45832">
        <ele>553</ele>
        <time>2014-01-23T10:11:38Z</time>
      </trkpt>
      <trkpt lat="43.2226" lon="5.45838">
        <ele>554</ele>
        <time>2014-01-23T10:11:43Z</time>
      </trkpt>
      <trkpt lat="43.22257" lon="5.45841">
        <ele>556</ele>
        <time>2014-01-23T10:11:53Z</time>
      </trkpt>
      <trkpt lat="43.22252" lon="5.45846">
        <ele>557</ele>
        <time>2014-01-23T10:12:10Z</time>
      </trkpt>
      <trkpt lat="43.22248" lon="5.4585">
        <ele>557</ele>
        <time>2014-01-23T10:12:16Z</time>
      </trkpt>
      <trkpt lat="43.22242" lon="5.4585">
        <ele>556</ele>
        <time>2014-01-23T10:12:21Z</time>
      </trkpt>
      <trkpt lat="43.22238" lon="5.45849">
        <ele>556</ele>
        <time>2014-01-23T10:12:26Z</time>
      </trkpt>
      <trkpt lat="43.22233" lon="5.45849">
        <ele>556</ele>
        <time>2014-01-23T10:12:32Z</time>
      </trkpt>
      <trkpt lat="43.22228" lon="5.45851">
        <ele>556</ele>
        <time>2014-01-23T10:12:37Z</time>
      </trkpt>
      <trkpt lat="43.22223" lon="5.45854">
        <ele>557</ele>
        <time>2014-01-23T10:13:01Z</time>
      </trkpt>
      <trkpt lat="43.22219" lon="5.45855">
        <ele>559</ele>
        <time>2014-01-23T10:13:10Z</time>
      </trkpt>
      <trkpt lat="43.22216" lon="5.45855">
        <ele>559</ele>
        <time>2014-01-23T10:13:22Z</time>
      </trkpt>
      <trkpt lat="43.22215" lon="5.45862">
        <ele>559</ele>
        <time>2014-01-23T10:13:28Z</time>
      </trkpt>
      <trkpt lat="43.22211" lon="5.45867">
        <ele>560</ele>
        <time>2014-01-23T10:13:42Z</time>
      </trkpt>
      <trkpt lat="43.22208" lon="5.45872">
        <ele>560</ele>
        <time>2014-01-23T10:13:47Z</time>
      </trkpt>
      <trkpt lat="43.22203" lon="5.45874">
        <ele>559</ele>
        <time>2014-01-23T10:13:53Z</time>
      </trkpt>
      <trkpt lat="43.222" lon="5.45879">
        <ele>559</ele>
        <time>2014-01-23T10:13:58Z</time>
      </trkpt>
      <trkpt lat="43.22196" lon="5.45885">
        <ele>559</ele>
        <time>2014-01-23T10:14:05Z</time>
      </trkpt>
      <trkpt lat="43.22192" lon="5.45889">
        <ele>558</ele>
        <time>2014-01-23T10:14:11Z</time>
      </trkpt>
      <trkpt lat="43.22188" lon="5.45891">
        <ele>557</ele>
        <time>2014-01-23T10:14:20Z</time>
      </trkpt>
      <trkpt lat="43.2218" lon="5.45897">
        <ele>557</ele>
        <time>2014-01-23T10:14:26Z</time>
      </trkpt>
      <trkpt lat="43.22177" lon="5.45902">
        <ele>557</ele>
        <time>2014-01-23T10:14:30Z</time>
      </trkpt>
      <trkpt lat="43.22172" lon="5.45906">
        <ele>556</ele>
        <time>2014-01-23T10:14:35Z</time>
      </trkpt>
      <trkpt lat="43.22168" lon="5.4591">
        <ele>556</ele>
        <time>2014-01-23T10:14:40Z</time>
      </trkpt>
      <trkpt lat="43.22164" lon="5.45916">
        <ele>556</ele>
        <time>2014-01-23T10:14:45Z</time>
      </trkpt>
      <trkpt lat="43.22161" lon="5.4592">
        <ele>555</ele>
        <time>2014-01-23T10:14:48Z</time>
      </trkpt>
      <trkpt lat="43.22158" lon="5.45925">
        <ele>555</ele>
        <time>2014-01-23T10:14:52Z</time>
      </trkpt>
      <trkpt lat="43.22155" lon="5.45928">
        <ele>554</ele>
        <time>2014-01-23T10:15:01Z</time>
      </trkpt>
      <trkpt lat="43.2215" lon="5.4593">
        <ele>554</ele>
        <time>2014-01-23T10:15:06Z</time>
      </trkpt>
      <trkpt lat="43.22146" lon="5.4593">
        <ele>554</ele>
        <time>2014-01-23T10:15:12Z</time>
      </trkpt>
      <trkpt lat="43.22143" lon="5.45931">
        <ele>553</ele>
        <time>2014-01-23T10:15:29Z</time>
      </trkpt>
      <trkpt lat="43.22139" lon="5.45933">
        <ele>552</ele>
        <time>2014-01-23T10:15:34Z</time>
      </trkpt>
      <trkpt lat="43.22136" lon="5.45937">
        <ele>550</ele>
        <time>2014-01-23T10:15:43Z</time>
      </trkpt>
      <trkpt lat="43.22133" lon="5.45944">
        <ele>549</ele>
        <time>2014-01-23T10:15:50Z</time>
      </trkpt>
      <trkpt lat="43.2213" lon="5.45952">
        <ele>550</ele>
        <time>2014-01-23T10:15:56Z</time>
      </trkpt>
      <trkpt lat="43.22125" lon="5.45953">
        <ele>549</ele>
        <time>2014-01-23T10:16:01Z</time>
      </trkpt>
      <trkpt lat="43.22121" lon="5.45954">
        <ele>551</ele>
        <time>2014-01-23T10:16:11Z</time>
      </trkpt>
      <trkpt lat="43.22122" lon="5.45957">
        <ele>555</ele>
        <time>2014-01-23T10:17:35Z</time>
      </trkpt>
      <trkpt lat="43.22122" lon="5.45963">
        <ele>551</ele>
        <time>2014-01-23T10:29:06Z</time>
      </trkpt>
      <trkpt lat="43.22122" lon="5.45968">
        <ele>552</ele>
        <time>2014-01-23T10:29:21Z</time>
      </trkpt>
      <trkpt lat="43.2212" lon="5.45978">
        <ele>550</ele>
        <time>2014-01-23T10:30:06Z</time>
      </trkpt>
      <trkpt lat="43.22119" lon="5.45984">
        <ele>550</ele>
        <time>2014-01-23T10:30:12Z</time>
      </trkpt>
      <trkpt lat="43.22115" lon="5.45991">
        <ele>549</ele>
        <time>2014-01-23T10:31:10Z</time>
      </trkpt>
      <trkpt lat="43.22111" lon="5.45996">
        <ele>550</ele>
        <time>2014-01-23T10:31:15Z</time>
      </trkpt>
      <trkpt lat="43.22109" lon="5.46002">
        <ele>550</ele>
        <time>2014-01-23T10:31:21Z</time>
      </trkpt>
      <trkpt lat="43.22109" lon="5.4601">
        <ele>549</ele>
        <time>2014-01-23T10:31:26Z</time>
      </trkpt>
      <trkpt lat="43.22105" lon="5.46014">
        <ele>548</ele>
        <time>2014-01-23T10:31:33Z</time>
      </trkpt>
      <trkpt lat="43.22104" lon="5.4602">
        <ele>548</ele>
        <time>2014-01-23T10:31:41Z</time>
      </trkpt>
      <trkpt lat="43.22102" lon="5.46029">
        <ele>547</ele>
        <time>2014-01-23T10:31:56Z</time>
      </trkpt>
      <trkpt lat="43.22101" lon="5.46036">
        <ele>545</ele>
        <time>2014-01-23T10:32:05Z</time>
      </trkpt>
      <trkpt lat="43.221" lon="5.46042">
        <ele>544</ele>
        <time>2014-01-23T10:32:11Z</time>
      </trkpt>
      <trkpt lat="43.221" lon="5.46048">
        <ele>543</ele>
        <time>2014-01-23T10:32:16Z</time>
      </trkpt>
      <trkpt lat="43.22099" lon="5.46055">
        <ele>542</ele>
        <time>2014-01-23T10:32:22Z</time>
      </trkpt>
      <trkpt lat="43.22097" lon="5.46061">
        <ele>541</ele>
        <time>2014-01-23T10:32:26Z</time>
      </trkpt>
      <trkpt lat="43.22096" lon="5.46067">
        <ele>539</ele>
        <time>2014-01-23T10:32:32Z</time>
      </trkpt>
      <trkpt lat="43.22094" lon="5.46073">
        <ele>538</ele>
        <time>2014-01-23T10:32:37Z</time>
      </trkpt>
      <trkpt lat="43.22091" lon="5.46078">
        <ele>537</ele>
        <time>2014-01-23T10:32:44Z</time>
      </trkpt>
      <trkpt lat="43.22087" lon="5.46085">
        <ele>534</ele>
        <time>2014-01-23T10:33:00Z</time>
      </trkpt>
      <trkpt lat="43.22085" lon="5.46089">
        <ele>533</ele>
        <time>2014-01-23T10:33:09Z</time>
      </trkpt>
      <trkpt lat="43.22082" lon="5.46095">
        <ele>532</ele>
        <time>2014-01-23T10:33:12Z</time>
      </trkpt>
      <trkpt lat="43.2208" lon="5.46103">
        <ele>530</ele>
        <time>2014-01-23T10:33:21Z</time>
      </trkpt>
      <trkpt lat="43.22079" lon="5.4611">
        <ele>530</ele>
        <time>2014-01-23T10:33:25Z</time>
      </trkpt>
      <trkpt lat="43.22075" lon="5.46116">
        <ele>529</ele>
        <time>2014-01-23T10:33:34Z</time>
      </trkpt>
      <trkpt lat="43.22073" lon="5.46123">
        <ele>529</ele>
        <time>2014-01-23T10:33:38Z</time>
      </trkpt>
      <trkpt lat="43.2207" lon="5.46128">
        <ele>528</ele>
        <time>2014-01-23T10:33:45Z</time>
      </trkpt>
      <trkpt lat="43.22066" lon="5.46133">
        <ele>527</ele>
        <time>2014-01-23T10:33:50Z</time>
      </trkpt>
      <trkpt lat="43.22062" lon="5.46141">
        <ele>526</ele>
        <time>2014-01-23T10:33:57Z</time>
      </trkpt>
      <trkpt lat="43.2206" lon="5.46147">
        <ele>525</ele>
        <time>2014-01-23T10:34:02Z</time>
      </trkpt>
      <trkpt lat="43.22057" lon="5.46152">
        <ele>524</ele>
        <time>2014-01-23T10:34:06Z</time>
      </trkpt>
      <trkpt lat="43.22055" lon="5.46158">
        <ele>523</ele>
        <time>2014-01-23T10:34:11Z</time>
      </trkpt>
      <trkpt lat="43.22052" lon="5.46167">
        <ele>522</ele>
        <time>2014-01-23T10:34:36Z</time>
      </trkpt>
      <trkpt lat="43.22049" lon="5.46172">
        <ele>523</ele>
        <time>2014-01-23T10:34:39Z</time>
      </trkpt>
      <trkpt lat="43.22047" lon="5.46179">
        <ele>524</ele>
        <time>2014-01-23T10:34:44Z</time>
      </trkpt>
      <trkpt lat="43.22045" lon="5.46186">
        <ele>524</ele>
        <time>2014-01-23T10:34:48Z</time>
      </trkpt>
      <trkpt lat="43.22045" lon="5.46193">
        <ele>524</ele>
        <time>2014-01-23T10:34:52Z</time>
      </trkpt>
      <trkpt lat="43.22044" lon="5.462">
        <ele>523</ele>
        <time>2014-01-23T10:34:59Z</time>
      </trkpt>
      <trkpt lat="43.22044" lon="5.46207">
        <ele>523</ele>
        <time>2014-01-23T10:35:04Z</time>
      </trkpt>
      <trkpt lat="43.22045" lon="5.46213">
        <ele>523</ele>
        <time>2014-01-23T10:35:10Z</time>
      </trkpt>
      <trkpt lat="43.22044" lon="5.4622">
        <ele>523</ele>
        <time>2014-01-23T10:35:14Z</time>
      </trkpt>
      <trkpt lat="43.22043" lon="5.46227">
        <ele>523</ele>
        <time>2014-01-23T10:35:21Z</time>
      </trkpt>
      <trkpt lat="43.22044" lon="5.46234">
        <ele>524</ele>
        <time>2014-01-23T10:35:26Z</time>
      </trkpt>
      <trkpt lat="43.22041" lon="5.46244">
        <ele>523</ele>
        <time>2014-01-23T10:35:33Z</time>
      </trkpt>
      <trkpt lat="43.22041" lon="5.4625">
        <ele>523</ele>
        <time>2014-01-23T10:35:37Z</time>
      </trkpt>
      <trkpt lat="43.22042" lon="5.46256">
        <ele>522</ele>
        <time>2014-01-23T10:35:41Z</time>
      </trkpt>
      <trkpt lat="43.22042" lon="5.46263">
        <ele>522</ele>
        <time>2014-01-23T10:35:47Z</time>
      </trkpt>
      <trkpt lat="43.22042" lon="5.4627">
        <ele>523</ele>
        <time>2014-01-23T10:35:55Z</time>
      </trkpt>
      <trkpt lat="43.2204" lon="5.46277">
        <ele>522</ele>
        <time>2014-01-23T10:36:02Z</time>
      </trkpt>
      <trkpt lat="43.22039" lon="5.46289">
        <ele>522</ele>
        <time>2014-01-23T10:36:07Z</time>
      </trkpt>
      <trkpt lat="43.22036" lon="5.46294">
        <ele>522</ele>
        <time>2014-01-23T10:36:12Z</time>
      </trkpt>
      <trkpt lat="43.22033" lon="5.46303">
        <ele>521</ele>
        <time>2014-01-23T10:36:19Z</time>
      </trkpt>
      <trkpt lat="43.22032" lon="5.46309">
        <ele>521</ele>
        <time>2014-01-23T10:36:23Z</time>
      </trkpt>
      <trkpt lat="43.22029" lon="5.46316">
        <ele>521</ele>
        <time>2014-01-23T10:36:29Z</time>
      </trkpt>
      <trkpt lat="43.22028" lon="5.46323">
        <ele>521</ele>
        <time>2014-01-23T10:36:34Z</time>
      </trkpt>
      <trkpt lat="43.22028" lon="5.4633">
        <ele>521</ele>
        <time>2014-01-23T10:36:38Z</time>
      </trkpt>
      <trkpt lat="43.22028" lon="5.46339">
        <ele>522</ele>
        <time>2014-01-23T10:36:47Z</time>
      </trkpt>
      <trkpt lat="43.22025" lon="5.46347">
        <ele>521</ele>
        <time>2014-01-23T10:36:53Z</time>
      </trkpt>
      <trkpt lat="43.22023" lon="5.46352">
        <ele>519</ele>
        <time>2014-01-23T10:37:02Z</time>
      </trkpt>
      <trkpt lat="43.22021" lon="5.46361">
        <ele>523</ele>
        <time>2014-01-23T10:37:22Z</time>
      </trkpt>
      <trkpt lat="43.22021" lon="5.46367">
        <ele>523</ele>
        <time>2014-01-23T10:37:29Z</time>
      </trkpt>
      <trkpt lat="43.22022" lon="5.46374">
        <ele>525</ele>
        <time>2014-01-23T10:37:34Z</time>
      </trkpt>
      <trkpt lat="43.22019" lon="5.46382">
        <ele>524</ele>
        <time>2014-01-23T10:37:43Z</time>
      </trkpt>
      <trkpt lat="43.22019" lon="5.46388">
        <ele>525</ele>
        <time>2014-01-23T10:37:50Z</time>
      </trkpt>
      <trkpt lat="43.22021" lon="5.46395">
        <ele>524</ele>
        <time>2014-01-23T10:37:53Z</time>
      </trkpt>
      <trkpt lat="43.22023" lon="5.46401">
        <ele>525</ele>
        <time>2014-01-23T10:37:58Z</time>
      </trkpt>
      <trkpt lat="43.22024" lon="5.46407">
        <ele>525</ele>
        <time>2014-01-23T10:38:06Z</time>
      </trkpt>
      <trkpt lat="43.22026" lon="5.46413">
        <ele>525</ele>
        <time>2014-01-23T10:38:10Z</time>
      </trkpt>
      <trkpt lat="43.22028" lon="5.46419">
        <ele>526</ele>
        <time>2014-01-23T10:38:16Z</time>
      </trkpt>
      <trkpt lat="43.22031" lon="5.46426">
        <ele>526</ele>
        <time>2014-01-23T10:38:28Z</time>
      </trkpt>
      <trkpt lat="43.22034" lon="5.46433">
        <ele>525</ele>
        <time>2014-01-23T10:38:32Z</time>
      </trkpt>
      <trkpt lat="43.22037" lon="5.46439">
        <ele>524</ele>
        <time>2014-01-23T10:38:37Z</time>
      </trkpt>
      <trkpt lat="43.22041" lon="5.46443">
        <ele>523</ele>
        <time>2014-01-23T10:38:42Z</time>
      </trkpt>
      <trkpt lat="43.22041" lon="5.46449">
        <ele>523</ele>
        <time>2014-01-23T10:38:48Z</time>
      </trkpt>
      <trkpt lat="43.22044" lon="5.4645">
        <ele>524</ele>
        <time>2014-01-23T10:39:11Z</time>
      </trkpt>
      <trkpt lat="43.22045" lon="5.46454">
        <ele>524</ele>
        <time>2014-01-23T10:39:28Z</time>
      </trkpt>
      <trkpt lat="43.22041" lon="5.46459">
        <ele>524</ele>
        <time>2014-01-23T10:39:35Z</time>
      </trkpt>
      <trkpt lat="43.22037" lon="5.46462">
        <ele>525</ele>
        <time>2014-01-23T10:39:40Z</time>
      </trkpt>
      <trkpt lat="43.22033" lon="5.46466">
        <ele>525</ele>
        <time>2014-01-23T10:39:45Z</time>
      </trkpt>
      <trkpt lat="43.22028" lon="5.46468">
        <ele>526</ele>
        <time>2014-01-23T10:39:52Z</time>
      </trkpt>
      <trkpt lat="43.22023" lon="5.46469">
        <ele>526</ele>
        <time>2014-01-23T10:39:58Z</time>
      </trkpt>
      <trkpt lat="43.22019" lon="5.46472">
        <ele>525</ele>
        <time>2014-01-23T10:40:03Z</time>
      </trkpt>
      <trkpt lat="43.22019" lon="5.46478">
        <ele>523</ele>
        <time>2014-01-23T10:40:25Z</time>
      </trkpt>
      <trkpt lat="43.22021" lon="5.46484">
        <ele>524</ele>
        <time>2014-01-23T10:40:29Z</time>
      </trkpt>
      <trkpt lat="43.22023" lon="5.4649">
        <ele>524</ele>
        <time>2014-01-23T10:40:36Z</time>
      </trkpt>
      <trkpt lat="43.22025" lon="5.46497">
        <ele>525</ele>
        <time>2014-01-23T10:40:40Z</time>
      </trkpt>
      <trkpt lat="43.22027" lon="5.46501">
        <ele>525</ele>
        <time>2014-01-23T10:40:49Z</time>
      </trkpt>
      <trkpt lat="43.2203" lon="5.4651">
        <ele>523</ele>
        <time>2014-01-23T10:40:59Z</time>
      </trkpt>
      <trkpt lat="43.22034" lon="5.46513">
        <ele>522</ele>
        <time>2014-01-23T10:41:03Z</time>
      </trkpt>
      <trkpt lat="43.2204" lon="5.46517">
        <ele>521</ele>
        <time>2014-01-23T10:41:10Z</time>
      </trkpt>
      <trkpt lat="43.22044" lon="5.46523">
        <ele>521</ele>
        <time>2014-01-23T10:41:15Z</time>
      </trkpt>
      <trkpt lat="43.22046" lon="5.46525">
        <ele>521</ele>
        <time>2014-01-23T10:41:21Z</time>
      </trkpt>
      <trkpt lat="43.22047" lon="5.46531">
        <ele>522</ele>
        <time>2014-01-23T10:41:28Z</time>
      </trkpt>
      <trkpt lat="43.22048" lon="5.46537">
        <ele>521</ele>
        <time>2014-01-23T10:41:33Z</time>
      </trkpt>
      <trkpt lat="43.22048" lon="5.46544">
        <ele>520</ele>
        <time>2014-01-23T10:41:37Z</time>
      </trkpt>
      <trkpt lat="43.2205" lon="5.4655">
        <ele>520</ele>
        <time>2014-01-23T10:41:43Z</time>
      </trkpt>
      <trkpt lat="43.22052" lon="5.46558">
        <ele>520</ele>
        <time>2014-01-23T10:41:48Z</time>
      </trkpt>
      <trkpt lat="43.22053" lon="5.46564">
        <ele>520</ele>
        <time>2014-01-23T10:41:52Z</time>
      </trkpt>
      <trkpt lat="43.22053" lon="5.46571">
        <ele>520</ele>
        <time>2014-01-23T10:41:56Z</time>
      </trkpt>
      <trkpt lat="43.22053" lon="5.46579">
        <ele>520</ele>
        <time>2014-01-23T10:42:01Z</time>
      </trkpt>
      <trkpt lat="43.22053" lon="5.46582">
        <ele>520</ele>
        <time>2014-01-23T10:42:06Z</time>
      </trkpt>
      <trkpt lat="43.22052" lon="5.46589">
        <ele>521</ele>
        <time>2014-01-23T10:42:12Z</time>
      </trkpt>
      <trkpt lat="43.22053" lon="5.46596">
        <ele>521</ele>
        <time>2014-01-23T10:42:15Z</time>
      </trkpt>
      <trkpt lat="43.22053" lon="5.46603">
        <ele>521</ele>
        <time>2014-01-23T10:42:20Z</time>
      </trkpt>
      <trkpt lat="43.22054" lon="5.4661">
        <ele>521</ele>
        <time>2014-01-23T10:42:26Z</time>
      </trkpt>
      <trkpt lat="43.22055" lon="5.46617">
        <ele>521</ele>
        <time>2014-01-23T10:42:30Z</time>
      </trkpt>
      <trkpt lat="43.22056" lon="5.46621">
        <ele>521</ele>
        <time>2014-01-23T10:42:37Z</time>
      </trkpt>
      <trkpt lat="43.22057" lon="5.46628">
        <ele>520</ele>
        <time>2014-01-23T10:42:42Z</time>
      </trkpt>
      <trkpt lat="43.22058" lon="5.46634">
        <ele>520</ele>
        <time>2014-01-23T10:42:45Z</time>
      </trkpt>
      <trkpt lat="43.22058" lon="5.46638">
        <ele>521</ele>
        <time>2014-01-23T10:42:52Z</time>
      </trkpt>
      <trkpt lat="43.22057" lon="5.46645">
        <ele>521</ele>
        <time>2014-01-23T10:42:58Z</time>
      </trkpt>
      <trkpt lat="43.22057" lon="5.46652">
        <ele>523</ele>
        <time>2014-01-23T10:43:04Z</time>
      </trkpt>
      <trkpt lat="43.22057" lon="5.46657">
        <ele>523</ele>
        <time>2014-01-23T10:43:13Z</time>
      </trkpt>
      <trkpt lat="43.22055" lon="5.46664">
        <ele>522</ele>
        <time>2014-01-23T10:44:14Z</time>
      </trkpt>
      <trkpt lat="43.22054" lon="5.46671">
        <ele>522</ele>
        <time>2014-01-23T10:44:19Z</time>
      </trkpt>
      <trkpt lat="43.22054" lon="5.46678">
        <ele>522</ele>
        <time>2014-01-23T10:44:23Z</time>
      </trkpt>
      <trkpt lat="43.22055" lon="5.46684">
        <ele>522</ele>
        <time>2014-01-23T10:44:28Z</time>
      </trkpt>
      <trkpt lat="43.22056" lon="5.46691">
        <ele>521</ele>
        <time>2014-01-23T10:44:33Z</time>
      </trkpt>
      <trkpt lat="43.22055" lon="5.46699">
        <ele>521</ele>
        <time>2014-01-23T10:44:39Z</time>
      </trkpt>
      <trkpt lat="43.22053" lon="5.46706">
        <ele>521</ele>
        <time>2014-01-23T10:44:42Z</time>
      </trkpt>
      <trkpt lat="43.22052" lon="5.46713">
        <ele>521</ele>
        <time>2014-01-23T10:44:45Z</time>
      </trkpt>
      <trkpt lat="43.2205" lon="5.46721">
        <ele>522</ele>
        <time>2014-01-23T10:44:56Z</time>
      </trkpt>
      <trkpt lat="43.22049" lon="5.46728">
        <ele>520</ele>
        <time>2014-01-23T10:45:07Z</time>
      </trkpt>
      <trkpt lat="43.22052" lon="5.4673">
        <ele>521</ele>
        <time>2014-01-23T10:45:23Z</time>
      </trkpt>
      <trkpt lat="43.22058" lon="5.4673">
        <ele>521</ele>
        <time>2014-01-23T10:45:38Z</time>
      </trkpt>
      <trkpt lat="43.22063" lon="5.46731">
        <ele>521</ele>
        <time>2014-01-23T10:45:41Z</time>
      </trkpt>
      <trkpt lat="43.22062" lon="5.46735">
        <ele>521</ele>
        <time>2014-01-23T10:46:58Z</time>
      </trkpt>
      <trkpt lat="43.22057" lon="5.46734">
        <ele>521</ele>
        <time>2014-01-23T10:47:02Z</time>
      </trkpt>
      <trkpt lat="43.22055" lon="5.46734">
        <ele>520</ele>
        <time>2014-01-23T11:34:47Z</time>
      </trkpt>
      <trkpt lat="43.22049" lon="5.46729">
        <ele>521</ele>
        <time>2014-01-23T11:35:02Z</time>
      </trkpt>
      <trkpt lat="43.22048" lon="5.46735">
        <ele>521</ele>
        <time>2014-01-23T11:35:27Z</time>
      </trkpt>
      <trkpt lat="43.22051" lon="5.46742">
        <ele>521</ele>
        <time>2014-01-23T11:35:41Z</time>
      </trkpt>
      <trkpt lat="43.22055" lon="5.46748">
        <ele>519</ele>
        <time>2014-01-23T11:35:48Z</time>
      </trkpt>
      <trkpt lat="43.22058" lon="5.46753">
        <ele>519</ele>
        <time>2014-01-23T11:35:53Z</time>
      </trkpt>
      <trkpt lat="43.22062" lon="5.46761">
        <ele>518</ele>
        <time>2014-01-23T11:36:07Z</time>
      </trkpt>
      <trkpt lat="43.22066" lon="5.46765">
        <ele>517</ele>
        <time>2014-01-23T11:36:11Z</time>
      </trkpt>
      <trkpt lat="43.22069" lon="5.46771">
        <ele>517</ele>
        <time>2014-01-23T11:36:16Z</time>
      </trkpt>
      <trkpt lat="43.22071" lon="5.46777">
        <ele>517</ele>
        <time>2014-01-23T11:36:22Z</time>
      </trkpt>
      <trkpt lat="43.22074" lon="5.46783">
        <ele>516</ele>
        <time>2014-01-23T11:36:27Z</time>
      </trkpt>
      <trkpt lat="43.22077" lon="5.46788">
        <ele>515</ele>
        <time>2014-01-23T11:36:31Z</time>
      </trkpt>
      <trkpt lat="43.22078" lon="5.46795">
        <ele>515</ele>
        <time>2014-01-23T11:36:38Z</time>
      </trkpt>
      <trkpt lat="43.2208" lon="5.46801">
        <ele>513</ele>
        <time>2014-01-23T11:36:45Z</time>
      </trkpt>
      <trkpt lat="43.22082" lon="5.46806">
        <ele>513</ele>
        <time>2014-01-23T11:36:49Z</time>
      </trkpt>
      <trkpt lat="43.22085" lon="5.46812">
        <ele>512</ele>
        <time>2014-01-23T11:36:56Z</time>
      </trkpt>
      <trkpt lat="43.22085" lon="5.46819">
        <ele>511</ele>
        <time>2014-01-23T11:37:03Z</time>
      </trkpt>
      <trkpt lat="43.22085" lon="5.46826">
        <ele>510</ele>
        <time>2014-01-23T11:37:08Z</time>
      </trkpt>
      <trkpt lat="43.22086" lon="5.46832">
        <ele>509</ele>
        <time>2014-01-23T11:37:13Z</time>
      </trkpt>
      <trkpt lat="43.22088" lon="5.46838">
        <ele>510</ele>
        <time>2014-01-23T11:37:18Z</time>
      </trkpt>
      <trkpt lat="43.22091" lon="5.46843">
        <ele>509</ele>
        <time>2014-01-23T11:37:25Z</time>
      </trkpt>
      <trkpt lat="43.22092" lon="5.4685">
        <ele>507</ele>
        <time>2014-01-23T11:37:33Z</time>
      </trkpt>
      <trkpt lat="43.22093" lon="5.46859">
        <ele>505</ele>
        <time>2014-01-23T11:37:44Z</time>
      </trkpt>
      <trkpt lat="43.22096" lon="5.46866">
        <ele>504</ele>
        <time>2014-01-23T11:38:04Z</time>
      </trkpt>
      <trkpt lat="43.22095" lon="5.46873">
        <ele>502</ele>
        <time>2014-01-23T11:38:12Z</time>
      </trkpt>
      <trkpt lat="43.22096" lon="5.46879">
        <ele>501</ele>
        <time>2014-01-23T11:38:17Z</time>
      </trkpt>
      <trkpt lat="43.22097" lon="5.46886">
        <ele>501</ele>
        <time>2014-01-23T11:38:23Z</time>
      </trkpt>
      <trkpt lat="43.22097" lon="5.46892">
        <ele>501</ele>
        <time>2014-01-23T11:38:40Z</time>
      </trkpt>
      <trkpt lat="43.22098" lon="5.469">
        <ele>500</ele>
        <time>2014-01-23T11:39:11Z</time>
      </trkpt>
      <trkpt lat="43.22099" lon="5.46903">
        <ele>500</ele>
        <time>2014-01-23T11:39:16Z</time>
      </trkpt>
      <trkpt lat="43.22102" lon="5.46912">
        <ele>497</ele>
        <time>2014-01-23T11:39:28Z</time>
      </trkpt>
      <trkpt lat="43.22106" lon="5.46917">
        <ele>498</ele>
        <time>2014-01-23T11:39:33Z</time>
      </trkpt>
      <trkpt lat="43.22107" lon="5.46924">
        <ele>497</ele>
        <time>2014-01-23T11:39:38Z</time>
      </trkpt>
      <trkpt lat="43.22108" lon="5.46931">
        <ele>496</ele>
        <time>2014-01-23T11:39:44Z</time>
      </trkpt>
      <trkpt lat="43.22109" lon="5.46938">
        <ele>494</ele>
        <time>2014-01-23T11:39:50Z</time>
      </trkpt>
      <trkpt lat="43.2211" lon="5.46945">
        <ele>493</ele>
        <time>2014-01-23T11:39:55Z</time>
      </trkpt>
      <trkpt lat="43.22113" lon="5.46951">
        <ele>492</ele>
        <time>2014-01-23T11:40:01Z</time>
      </trkpt>
      <trkpt lat="43.22115" lon="5.46956">
        <ele>491</ele>
        <time>2014-01-23T11:40:04Z</time>
      </trkpt>
      <trkpt lat="43.22117" lon="5.46958">
        <ele>491</ele>
        <time>2014-01-23T11:40:10Z</time>
      </trkpt>
      <trkpt lat="43.22117" lon="5.46968">
        <ele>491</ele>
        <time>2014-01-23T11:40:20Z</time>
      </trkpt>
      <trkpt lat="43.2212" lon="5.46973">
        <ele>491</ele>
        <time>2014-01-23T11:40:25Z</time>
      </trkpt>
      <trkpt lat="43.22121" lon="5.4698">
        <ele>489</ele>
        <time>2014-01-23T11:40:30Z</time>
      </trkpt>
      <trkpt lat="43.22124" lon="5.46985">
        <ele>488</ele>
        <time>2014-01-23T11:40:33Z</time>
      </trkpt>
      <trkpt lat="43.22128" lon="5.4699">
        <ele>487</ele>
        <time>2014-01-23T11:40:37Z</time>
      </trkpt>
      <trkpt lat="43.22132" lon="5.46996">
        <ele>486</ele>
        <time>2014-01-23T11:40:41Z</time>
      </trkpt>
      <trkpt lat="43.22135" lon="5.47002">
        <ele>485</ele>
        <time>2014-01-23T11:40:46Z</time>
      </trkpt>
      <trkpt lat="43.2214" lon="5.47006">
        <ele>485</ele>
        <time>2014-01-23T11:40:50Z</time>
      </trkpt>
      <trkpt lat="43.22144" lon="5.4701">
        <ele>484</ele>
        <time>2014-01-23T11:40:54Z</time>
      </trkpt>
      <trkpt lat="43.22148" lon="5.47013">
        <ele>484</ele>
        <time>2014-01-23T11:40:59Z</time>
      </trkpt>
      <trkpt lat="43.22151" lon="5.47018">
        <ele>484</ele>
        <time>2014-01-23T11:41:05Z</time>
      </trkpt>
      <trkpt lat="43.22155" lon="5.47022">
        <ele>483</ele>
        <time>2014-01-23T11:41:10Z</time>
      </trkpt>
      <trkpt lat="43.22158" lon="5.47027">
        <ele>483</ele>
        <time>2014-01-23T11:41:13Z</time>
      </trkpt>
      <trkpt lat="43.22162" lon="5.47032">
        <ele>482</ele>
        <time>2014-01-23T11:41:17Z</time>
      </trkpt>
      <trkpt lat="43.22166" lon="5.47036">
        <ele>482</ele>
        <time>2014-01-23T11:41:21Z</time>
      </trkpt>
      <trkpt lat="43.2217" lon="5.47041">
        <ele>481</ele>
        <time>2014-01-23T11:41:26Z</time>
      </trkpt>
      <trkpt lat="43.22175" lon="5.47044">
        <ele>482</ele>
        <time>2014-01-23T11:41:31Z</time>
      </trkpt>
      <trkpt lat="43.22179" lon="5.47048">
        <ele>481</ele>
        <time>2014-01-23T11:41:36Z</time>
      </trkpt>
      <trkpt lat="43.22183" lon="5.47053">
        <ele>480</ele>
        <time>2014-01-23T11:41:41Z</time>
      </trkpt>
      <trkpt lat="43.22187" lon="5.47058">
        <ele>479</ele>
        <time>2014-01-23T11:41:46Z</time>
      </trkpt>
      <trkpt lat="43.22191" lon="5.47062">
        <ele>478</ele>
        <time>2014-01-23T11:41:51Z</time>
      </trkpt>
      <trkpt lat="43.22197" lon="5.47065">
        <ele>478</ele>
        <time>2014-01-23T11:41:55Z</time>
      </trkpt>
      <trkpt lat="43.22202" lon="5.47067">
        <ele>478</ele>
        <time>2014-01-23T11:41:59Z</time>
      </trkpt>
      <trkpt lat="43.22206" lon="5.47068">
        <ele>478</ele>
        <time>2014-01-23T11:42:04Z</time>
      </trkpt>
      <trkpt lat="43.2221" lon="5.47072">
        <ele>477</ele>
        <time>2014-01-23T11:42:11Z</time>
      </trkpt>
      <trkpt lat="43.22215" lon="5.47074">
        <ele>477</ele>
        <time>2014-01-23T11:42:15Z</time>
      </trkpt>
      <trkpt lat="43.2222" lon="5.47076">
        <ele>476</ele>
        <time>2014-01-23T11:42:20Z</time>
      </trkpt>
      <trkpt lat="43.22226" lon="5.47077">
        <ele>476</ele>
        <time>2014-01-23T11:42:26Z</time>
      </trkpt>
      <trkpt lat="43.2223" lon="5.47079">
        <ele>476</ele>
        <time>2014-01-23T11:42:30Z</time>
      </trkpt>
      <trkpt lat="43.22235" lon="5.47082">
        <ele>476</ele>
        <time>2014-01-23T11:42:35Z</time>
      </trkpt>
      <trkpt lat="43.2224" lon="5.47084">
        <ele>475</ele>
        <time>2014-01-23T11:42:39Z</time>
      </trkpt>
      <trkpt lat="43.22243" lon="5.47086">
        <ele>474</ele>
        <time>2014-01-23T11:42:47Z</time>
      </trkpt>
      <trkpt lat="43.22246" lon="5.47088">
        <ele>471</ele>
        <time>2014-01-23T11:43:03Z</time>
      </trkpt>
      <trkpt lat="43.22251" lon="5.47092">
        <ele>471</ele>
        <time>2014-01-23T11:43:07Z</time>
      </trkpt>
      <trkpt lat="43.22256" lon="5.47093">
        <ele>471</ele>
        <time>2014-01-23T11:43:10Z</time>
      </trkpt>
      <trkpt lat="43.22261" lon="5.47095">
        <ele>471</ele>
        <time>2014-01-23T11:43:14Z</time>
      </trkpt>
      <trkpt lat="43.22266" lon="5.47097">
        <ele>472</ele>
        <time>2014-01-23T11:43:18Z</time>
      </trkpt>
      <trkpt lat="43.22272" lon="5.47101">
        <ele>472</ele>
        <time>2014-01-23T11:43:23Z</time>
      </trkpt>
      <trkpt lat="43.22276" lon="5.47102">
        <ele>471</ele>
        <time>2014-01-23T11:43:27Z</time>
      </trkpt>
      <trkpt lat="43.22281" lon="5.47105">
        <ele>471</ele>
        <time>2014-01-23T11:43:31Z</time>
      </trkpt>
      <trkpt lat="43.22284" lon="5.47108">
        <ele>471</ele>
        <time>2014-01-23T11:43:36Z</time>
      </trkpt>
      <trkpt lat="43.22288" lon="5.47112">
        <ele>471</ele>
        <time>2014-01-23T11:43:41Z</time>
      </trkpt>
      <trkpt lat="43.22294" lon="5.47116">
        <ele>470</ele>
        <time>2014-01-23T11:43:46Z</time>
      </trkpt>
      <trkpt lat="43.22298" lon="5.47119">
        <ele>471</ele>
        <time>2014-01-23T11:43:50Z</time>
      </trkpt>
      <trkpt lat="43.22301" lon="5.47122">
        <ele>471</ele>
        <time>2014-01-23T11:43:59Z</time>
      </trkpt>
      <trkpt lat="43.22304" lon="5.47127">
        <ele>470</ele>
        <time>2014-01-23T11:44:08Z</time>
      </trkpt>
      <trkpt lat="43.22308" lon="5.47132">
        <ele>470</ele>
        <time>2014-01-23T11:44:12Z</time>
      </trkpt>
      <trkpt lat="43.22312" lon="5.47136">
        <ele>470</ele>
        <time>2014-01-23T11:44:16Z</time>
      </trkpt>
      <trkpt lat="43.22316" lon="5.47141">
        <ele>470</ele>
        <time>2014-01-23T11:44:22Z</time>
      </trkpt>
      <trkpt lat="43.2232" lon="5.47146">
        <ele>470</ele>
        <time>2014-01-23T11:44:26Z</time>
      </trkpt>
      <trkpt lat="43.22322" lon="5.47148">
        <ele>470</ele>
        <time>2014-01-23T11:44:32Z</time>
      </trkpt>
      <trkpt lat="43.22324" lon="5.47157">
        <ele>470</ele>
        <time>2014-01-23T11:45:00Z</time>
      </trkpt>
      <trkpt lat="43.22327" lon="5.47162">
        <ele>468</ele>
        <time>2014-01-23T11:45:04Z</time>
      </trkpt>
      <trkpt lat="43.2233" lon="5.47167">
        <ele>467</ele>
        <time>2014-01-23T11:45:14Z</time>
      </trkpt>
      <trkpt lat="43.22333" lon="5.47173">
        <ele>468</ele>
        <time>2014-01-23T11:45:19Z</time>
      </trkpt>
      <trkpt lat="43.22336" lon="5.47179">
        <ele>468</ele>
        <time>2014-01-23T11:45:23Z</time>
      </trkpt>
      <trkpt lat="43.22339" lon="5.47185">
        <ele>468</ele>
        <time>2014-01-23T11:45:27Z</time>
      </trkpt>
      <trkpt lat="43.22341" lon="5.47191">
        <ele>468</ele>
        <time>2014-01-23T11:45:31Z</time>
      </trkpt>
      <trkpt lat="43.22344" lon="5.47196">
        <ele>468</ele>
        <time>2014-01-23T11:45:36Z</time>
      </trkpt>
      <trkpt lat="43.22347" lon="5.47202">
        <ele>468</ele>
        <time>2014-01-23T11:45:41Z</time>
      </trkpt>
      <trkpt lat="43.22349" lon="5.47208">
        <ele>468</ele>
        <time>2014-01-23T11:45:45Z</time>
      </trkpt>
      <trkpt lat="43.2235" lon="5.47214">
        <ele>468</ele>
        <time>2014-01-23T11:45:50Z</time>
      </trkpt>
      <trkpt lat="43.22352" lon="5.47221">
        <ele>467</ele>
        <time>2014-01-23T11:45:56Z</time>
      </trkpt>
      <trkpt lat="43.22353" lon="5.47227">
        <ele>467</ele>
        <time>2014-01-23T11:46:01Z</time>
      </trkpt>
      <trkpt lat="43.22354" lon="5.47234">
        <ele>466</ele>
        <time>2014-01-23T11:46:06Z</time>
      </trkpt>
      <trkpt lat="43.22353" lon="5.47242">
        <ele>465</ele>
        <time>2014-01-23T11:46:12Z</time>
      </trkpt>
      <trkpt lat="43.22355" lon="5.47249">
        <ele>464</ele>
        <time>2014-01-23T11:46:16Z</time>
      </trkpt>
      <trkpt lat="43.22357" lon="5.47256">
        <ele>464</ele>
        <time>2014-01-23T11:46:20Z</time>
      </trkpt>
      <trkpt lat="43.22359" lon="5.47262">
        <ele>464</ele>
        <time>2014-01-23T11:46:24Z</time>
      </trkpt>
      <trkpt lat="43.22361" lon="5.47269">
        <ele>464</ele>
        <time>2014-01-23T11:46:28Z</time>
      </trkpt>
      <trkpt lat="43.22363" lon="5.47276">
        <ele>465</ele>
        <time>2014-01-23T11:46:33Z</time>
      </trkpt>
      <trkpt lat="43.22365" lon="5.47282">
        <ele>465</ele>
        <time>2014-01-23T11:46:37Z</time>
      </trkpt>
      <trkpt lat="43.22367" lon="5.47288">
        <ele>466</ele>
        <time>2014-01-23T11:46:41Z</time>
      </trkpt>
      <trkpt lat="43.22369" lon="5.47293">
        <ele>466</ele>
        <time>2014-01-23T11:46:46Z</time>
      </trkpt>
      <trkpt lat="43.22372" lon="5.47299">
        <ele>467</ele>
        <time>2014-01-23T11:46:51Z</time>
      </trkpt>
      <trkpt lat="43.22375" lon="5.47308">
        <ele>468</ele>
        <time>2014-01-23T11:47:02Z</time>
      </trkpt>
      <trkpt lat="43.22376" lon="5.47314">
        <ele>468</ele>
        <time>2014-01-23T11:47:06Z</time>
      </trkpt>
      <trkpt lat="43.22381" lon="5.47315">
        <ele>468</ele>
        <time>2014-01-23T11:47:11Z</time>
      </trkpt>
      <trkpt lat="43.22386" lon="5.47317">
        <ele>468</ele>
        <time>2014-01-23T11:47:15Z</time>
      </trkpt>
      <trkpt lat="43.2239" lon="5.47319">
        <ele>468</ele>
        <time>2014-01-23T11:47:19Z</time>
      </trkpt>
      <trkpt lat="43.22395" lon="5.47323">
        <ele>468</ele>
        <time>2014-01-23T11:47:24Z</time>
      </trkpt>
      <trkpt lat="43.224" lon="5.47325">
        <ele>469</ele>
        <time>2014-01-23T11:47:29Z</time>
      </trkpt>
      <trkpt lat="43.22404" lon="5.47329">
        <ele>470</ele>
        <time>2014-01-23T11:47:45Z</time>
      </trkpt>
      <trkpt lat="43.22405" lon="5.47336">
        <ele>468</ele>
        <time>2014-01-23T11:48:08Z</time>
      </trkpt>
      <trkpt lat="43.22406" lon="5.47343">
        <ele>467</ele>
        <time>2014-01-23T11:48:17Z</time>
      </trkpt>
      <trkpt lat="43.22409" lon="5.47348">
        <ele>467</ele>
        <time>2014-01-23T11:48:21Z</time>
      </trkpt>
      <trkpt lat="43.22414" lon="5.47354">
        <ele>471</ele>
        <time>2014-01-23T11:48:41Z</time>
      </trkpt>
      <trkpt lat="43.22419" lon="5.47356">
        <ele>471</ele>
        <time>2014-01-23T11:48:49Z</time>
      </trkpt>
      <trkpt lat="43.22422" lon="5.47362">
        <ele>471</ele>
        <time>2014-01-23T11:48:57Z</time>
      </trkpt>
      <trkpt lat="43.22419" lon="5.47359">
        <ele>467</ele>
        <time>2014-01-23T11:49:37Z</time>
      </trkpt>
      <trkpt lat="43.22417" lon="5.47353">
        <ele>467</ele>
        <time>2014-01-23T11:49:42Z</time>
      </trkpt>
      <trkpt lat="43.22416" lon="5.47346">
        <ele>467</ele>
        <time>2014-01-23T11:49:47Z</time>
      </trkpt>
      <trkpt lat="43.22416" lon="5.47339">
        <ele>468</ele>
        <time>2014-01-23T11:49:51Z</time>
      </trkpt>
      <trkpt lat="43.22416" lon="5.47333">
        <ele>469</ele>
        <time>2014-01-23T11:49:55Z</time>
      </trkpt>
      <trkpt lat="43.22412" lon="5.47326">
        <ele>468</ele>
        <time>2014-01-23T11:50:18Z</time>
      </trkpt>
      <trkpt lat="43.22414" lon="5.47323">
        <ele>468</ele>
        <time>2014-01-23T11:51:35Z</time>
      </trkpt>
      <trkpt lat="43.22415" lon="5.47317">
        <ele>468</ele>
        <time>2014-01-23T11:51:38Z</time>
      </trkpt>
      <trkpt lat="43.22415" lon="5.4731">
        <ele>469</ele>
        <time>2014-01-23T11:51:41Z</time>
      </trkpt>
      <trkpt lat="43.22414" lon="5.47303">
        <ele>470</ele>
        <time>2014-01-23T11:51:45Z</time>
      </trkpt>
      <trkpt lat="43.22415" lon="5.47296">
        <ele>472</ele>
        <time>2014-01-23T11:51:51Z</time>
      </trkpt>
      <trkpt lat="43.22416" lon="5.4729">
        <ele>472</ele>
        <time>2014-01-23T11:51:55Z</time>
      </trkpt>
      <trkpt lat="43.22417" lon="5.47283">
        <ele>473</ele>
        <time>2014-01-23T11:51:59Z</time>
      </trkpt>
      <trkpt lat="43.22418" lon="5.47275">
        <ele>473</ele>
        <time>2014-01-23T11:52:04Z</time>
      </trkpt>
      <trkpt lat="43.22421" lon="5.47269">
        <ele>473</ele>
        <time>2014-01-23T11:52:08Z</time>
      </trkpt>
      <trkpt lat="43.22424" lon="5.47263">
        <ele>473</ele>
        <time>2014-01-23T11:52:13Z</time>
      </trkpt>
      <trkpt lat="43.22426" lon="5.47256">
        <ele>473</ele>
        <time>2014-01-23T11:52:17Z</time>
      </trkpt>
      <trkpt lat="43.22428" lon="5.4725">
        <ele>474</ele>
        <time>2014-01-23T11:52:21Z</time>
      </trkpt>
      <trkpt lat="43.22432" lon="5.47246">
        <ele>474</ele>
        <time>2014-01-23T11:52:26Z</time>
      </trkpt>
      <trkpt lat="43.22436" lon="5.47242">
        <ele>474</ele>
        <time>2014-01-23T11:52:30Z</time>
      </trkpt>
      <trkpt lat="43.22439" lon="5.47237">
        <ele>474</ele>
        <time>2014-01-23T11:52:34Z</time>
      </trkpt>
      <trkpt lat="43.22443" lon="5.47233">
        <ele>475</ele>
        <time>2014-01-23T11:52:38Z</time>
      </trkpt>
      <trkpt lat="43.22447" lon="5.47228">
        <ele>475</ele>
        <time>2014-01-23T11:52:41Z</time>
      </trkpt>
      <trkpt lat="43.22451" lon="5.47225">
        <ele>476</ele>
        <time>2014-01-23T11:52:46Z</time>
      </trkpt>
      <trkpt lat="43.22456" lon="5.47221">
        <ele>476</ele>
        <time>2014-01-23T11:52:52Z</time>
      </trkpt>
      <trkpt lat="43.2246" lon="5.47222">
        <ele>476</ele>
        <time>2014-01-23T11:53:00Z</time>
      </trkpt>
      <trkpt lat="43.22465" lon="5.4722">
        <ele>476</ele>
        <time>2014-01-23T11:53:04Z</time>
      </trkpt>
      <trkpt lat="43.22468" lon="5.47214">
        <ele>477</ele>
        <time>2014-01-23T11:53:09Z</time>
      </trkpt>
      <trkpt lat="43.22475" lon="5.47209">
        <ele>478</ele>
        <time>2014-01-23T11:53:26Z</time>
      </trkpt>
      <trkpt lat="43.22481" lon="5.47209">
        <ele>478</ele>
        <time>2014-01-23T11:53:30Z</time>
      </trkpt>
      <trkpt lat="43.22486" lon="5.47209">
        <ele>478</ele>
        <time>2014-01-23T11:53:33Z</time>
      </trkpt>
      <trkpt lat="43.22488" lon="5.47205">
        <ele>479</ele>
        <time>2014-01-23T11:53:56Z</time>
      </trkpt>
      <trkpt lat="43.22489" lon="5.47201">
        <ele>479</ele>
        <time>2014-01-23T11:54:23Z</time>
      </trkpt>
      <trkpt lat="43.22484" lon="5.47202">
        <ele>480</ele>
        <time>2014-01-23T11:55:37Z</time>
      </trkpt>
      <trkpt lat="43.22479" lon="5.47202">
        <ele>480</ele>
        <time>2014-01-23T11:55:40Z</time>
      </trkpt>
      <trkpt lat="43.22474" lon="5.47203">
        <ele>478</ele>
        <time>2014-01-23T11:55:45Z</time>
      </trkpt>
      <trkpt lat="43.2247" lon="5.47207">
        <ele>478</ele>
        <time>2014-01-23T11:55:51Z</time>
      </trkpt>
      <trkpt lat="43.22465" lon="5.4721">
        <ele>478</ele>
        <time>2014-01-23T11:56:02Z</time>
      </trkpt>
      <trkpt lat="43.2246" lon="5.4721">
        <ele>478</ele>
        <time>2014-01-23T11:56:06Z</time>
      </trkpt>
      <trkpt lat="43.22455" lon="5.47209">
        <ele>478</ele>
        <time>2014-01-23T11:56:11Z</time>
      </trkpt>
      <trkpt lat="43.2245" lon="5.4721">
        <ele>478</ele>
        <time>2014-01-23T11:56:17Z</time>
      </trkpt>
      <trkpt lat="43.22447" lon="5.47206">
        <ele>478</ele>
        <time>2014-01-23T11:56:21Z</time>
      </trkpt>
      <trkpt lat="43.22446" lon="5.47201">
        <ele>479</ele>
        <time>2014-01-23T11:56:48Z</time>
      </trkpt>
      <trkpt lat="43.22451" lon="5.47197">
        <ele>480</ele>
        <time>2014-01-23T11:57:02Z</time>
      </trkpt>
      <trkpt lat="43.2245" lon="5.4719">
        <ele>477</ele>
        <time>2014-01-23T11:57:17Z</time>
      </trkpt>
      <trkpt lat="43.22446" lon="5.47186">
        <ele>475</ele>
        <time>2014-01-23T11:57:24Z</time>
      </trkpt>
      <trkpt lat="43.22444" lon="5.47178">
        <ele>473</ele>
        <time>2014-01-23T11:57:38Z</time>
      </trkpt>
      <trkpt lat="43.2244" lon="5.47173">
        <ele>470</ele>
        <time>2014-01-23T11:57:49Z</time>
      </trkpt>
      <trkpt lat="43.22436" lon="5.47168">
        <ele>468</ele>
        <time>2014-01-23T11:57:55Z</time>
      </trkpt>
      <trkpt lat="43.22432" lon="5.47164">
        <ele>466</ele>
        <time>2014-01-23T11:58:02Z</time>
      </trkpt>
      <trkpt lat="43.22431" lon="5.47158">
        <ele>463</ele>
        <time>2014-01-23T11:58:11Z</time>
      </trkpt>
      <trkpt lat="43.22435" lon="5.47153">
        <ele>462</ele>
        <time>2014-01-23T11:58:17Z</time>
      </trkpt>
      <trkpt lat="43.2243" lon="5.47151">
        <ele>458</ele>
        <time>2014-01-23T11:58:33Z</time>
      </trkpt>
      <trkpt lat="43.22426" lon="5.47147">
        <ele>458</ele>
        <time>2014-01-23T11:58:38Z</time>
      </trkpt>
      <trkpt lat="43.22423" lon="5.47142">
        <ele>456</ele>
        <time>2014-01-23T11:58:46Z</time>
      </trkpt>
      <trkpt lat="43.2242" lon="5.47136">
        <ele>458</ele>
        <time>2014-01-23T11:59:21Z</time>
      </trkpt>
      <trkpt lat="43.22416" lon="5.47133">
        <ele>455</ele>
        <time>2014-01-23T11:59:27Z</time>
      </trkpt>
      <trkpt lat="43.22413" lon="5.47129">
        <ele>454</ele>
        <time>2014-01-23T11:59:35Z</time>
      </trkpt>
      <trkpt lat="43.22408" lon="5.47122">
        <ele>451</ele>
        <time>2014-01-23T11:59:50Z</time>
      </trkpt>
      <trkpt lat="43.22405" lon="5.47117">
        <ele>450</ele>
        <time>2014-01-23T11:59:56Z</time>
      </trkpt>
      <trkpt lat="43.22398" lon="5.4711">
        <ele>448</ele>
        <time>2014-01-23T12:00:07Z</time>
      </trkpt>
      <trkpt lat="43.22399" lon="5.47103">
        <ele>443</ele>
        <time>2014-01-23T12:00:24Z</time>
      </trkpt>
      <trkpt lat="43.22399" lon="5.47094">
        <ele>441</ele>
        <time>2014-01-23T12:00:45Z</time>
      </trkpt>
      <trkpt lat="43.22398" lon="5.47086">
        <ele>440</ele>
        <time>2014-01-23T12:01:35Z</time>
      </trkpt>
      <trkpt lat="43.22397" lon="5.47079">
        <ele>444</ele>
        <time>2014-01-23T12:02:12Z</time>
      </trkpt>
      <trkpt lat="43.2239" lon="5.47078">
        <ele>439</ele>
        <time>2014-01-23T12:02:28Z</time>
      </trkpt>
      <trkpt lat="43.22386" lon="5.47071">
        <ele>435</ele>
        <time>2014-01-23T12:03:07Z</time>
      </trkpt>
      <trkpt lat="43.22381" lon="5.47065">
        <ele>431</ele>
        <time>2014-01-23T12:03:21Z</time>
      </trkpt>
      <trkpt lat="43.22379" lon="5.4705">
        <ele>427</ele>
        <time>2014-01-23T12:03:47Z</time>
      </trkpt>
      <trkpt lat="43.22366" lon="5.4703">
        <ele>417</ele>
        <time>2014-01-23T12:04:18Z</time>
      </trkpt>
      <trkpt lat="43.22362" lon="5.47018">
        <ele>416</ele>
        <time>2014-01-23T12:04:28Z</time>
      </trkpt>
      <trkpt lat="43.22362" lon="5.47006">
        <ele>413</ele>
        <time>2014-01-23T12:04:39Z</time>
      </trkpt>
      <trkpt lat="43.22356" lon="5.46996">
        <ele>408</ele>
        <time>2014-01-23T12:04:53Z</time>
      </trkpt>
      <trkpt lat="43.22356" lon="5.46983">
        <ele>405</ele>
        <time>2014-01-23T12:05:06Z</time>
      </trkpt>
      <trkpt lat="43.22346" lon="5.46977">
        <ele>397</ele>
        <time>2014-01-23T12:05:18Z</time>
      </trkpt>
      <trkpt lat="43.22344" lon="5.46966">
        <ele>394</ele>
        <time>2014-01-23T12:05:29Z</time>
      </trkpt>
      <trkpt lat="43.22342" lon="5.46961">
        <ele>394</ele>
        <time>2014-01-23T12:05:33Z</time>
      </trkpt>
      <trkpt lat="43.2234" lon="5.46948">
        <ele>399</ele>
        <time>2014-01-23T12:05:58Z</time>
      </trkpt>
      <trkpt lat="43.22351" lon="5.46955">
        <ele>403</ele>
        <time>2014-01-23T12:06:43Z</time>
      </trkpt>
      <trkpt lat="43.2236" lon="5.46955">
        <ele>403</ele>
        <time>2014-01-23T12:06:52Z</time>
      </trkpt>
      <trkpt lat="43.22368" lon="5.46957">
        <ele>392</ele>
        <time>2014-01-23T12:07:46Z</time>
      </trkpt>
      <trkpt lat="43.22378" lon="5.46957">
        <ele>393</ele>
        <time>2014-01-23T12:07:59Z</time>
      </trkpt>
      <trkpt lat="43.22387" lon="5.4696">
        <ele>392</ele>
        <time>2014-01-23T12:08:08Z</time>
      </trkpt>
      <trkpt lat="43.22396" lon="5.46965">
        <ele>389</ele>
        <time>2014-01-23T12:08:22Z</time>
      </trkpt>
      <trkpt lat="43.22403" lon="5.46971">
        <ele>385</ele>
        <time>2014-01-23T12:08:43Z</time>
      </trkpt>
      <trkpt lat="43.22411" lon="5.46971">
        <ele>389</ele>
        <time>2014-01-23T12:09:34Z</time>
      </trkpt>
      <trkpt lat="43.22415" lon="5.46972">
        <ele>391</ele>
        <time>2014-01-23T12:10:03Z</time>
      </trkpt>
      <trkpt lat="43.22428" lon="5.46967">
        <ele>391</ele>
        <time>2014-01-23T12:10:22Z</time>
      </trkpt>
      <trkpt lat="43.22449" lon="5.46969">
        <ele>377</ele>
        <time>2014-01-23T12:10:58Z</time>
      </trkpt>
      <trkpt lat="43.22472" lon="5.46965">
        <ele>363</ele>
        <time>2014-01-23T12:11:28Z</time>
      </trkpt>
      <trkpt lat="43.22483" lon="5.46966">
        <ele>364</ele>
        <time>2014-01-23T12:11:41Z</time>
      </trkpt>
      <trkpt lat="43.22499" lon="5.4697">
        <ele>378</ele>
        <time>2014-01-23T12:12:17Z</time>
      </trkpt>
      <trkpt lat="43.22512" lon="5.46976">
        <ele>380</ele>
        <time>2014-01-23T12:12:28Z</time>
      </trkpt>
      <trkpt lat="43.22515" lon="5.46989">
        <ele>382</ele>
        <time>2014-01-23T12:12:36Z</time>
      </trkpt>
      <trkpt lat="43.22532" lon="5.46985">
        <ele>381</ele>
        <time>2014-01-23T12:12:53Z</time>
      </trkpt>
      <trkpt lat="43.22541" lon="5.46979">
        <ele>377</ele>
        <time>2014-01-23T12:12:57Z</time>
      </trkpt>
      <trkpt lat="43.22546" lon="5.4699">
        <ele>385</ele>
        <time>2014-01-23T12:13:38Z</time>
      </trkpt>
      <trkpt lat="43.2255" lon="5.46998">
        <ele>381</ele>
        <time>2014-01-23T12:13:55Z</time>
      </trkpt>
      <trkpt lat="43.22563" lon="5.47">
        <ele>372</ele>
        <time>2014-01-23T12:14:11Z</time>
      </trkpt>
      <trkpt lat="43.22579" lon="5.46991">
        <ele>368</ele>
        <time>2014-01-23T12:14:22Z</time>
      </trkpt>
      <trkpt lat="43.22588" lon="5.4699">
        <ele>366</ele>
        <time>2014-01-23T12:14:26Z</time>
      </trkpt>
      <trkpt lat="43.22611" lon="5.46986">
        <ele>336</ele>
        <time>2014-01-23T12:15:39Z</time>
      </trkpt>
      <trkpt lat="43.22619" lon="5.46979">
        <ele>336</ele>
        <time>2014-01-23T12:15:49Z</time>
      </trkpt>
      <trkpt lat="43.22627" lon="5.46971">
        <ele>335</ele>
        <time>2014-01-23T12:15:59Z</time>
      </trkpt>
      <trkpt lat="43.2263" lon="5.46966">
        <ele>333</ele>
        <time>2014-01-23T12:16:10Z</time>
      </trkpt>
      <trkpt lat="43.22633" lon="5.46959">
        <ele>331</ele>
        <time>2014-01-23T12:16:30Z</time>
      </trkpt>
      <trkpt lat="43.22636" lon="5.46945">
        <ele>327</ele>
        <time>2014-01-23T12:17:15Z</time>
      </trkpt>
      <trkpt lat="43.22637" lon="5.46939">
        <ele>327</ele>
        <time>2014-01-23T12:17:19Z</time>
      </trkpt>
      <trkpt lat="43.22641" lon="5.4693">
        <ele>327</ele>
        <time>2014-01-23T12:17:28Z</time>
      </trkpt>
      <trkpt lat="43.22644" lon="5.46924">
        <ele>326</ele>
        <time>2014-01-23T12:17:34Z</time>
      </trkpt>
      <trkpt lat="43.22646" lon="5.46912">
        <ele>325</ele>
        <time>2014-01-23T12:17:43Z</time>
      </trkpt>
      <trkpt lat="43.22645" lon="5.46902">
        <ele>322</ele>
        <time>2014-01-23T12:18:06Z</time>
      </trkpt>
      <trkpt lat="43.22644" lon="5.46893">
        <ele>320</ele>
        <time>2014-01-23T12:18:17Z</time>
      </trkpt>
      <trkpt lat="43.22649" lon="5.4689">
        <ele>319</ele>
        <time>2014-01-23T12:18:25Z</time>
      </trkpt>
      <trkpt lat="43.22654" lon="5.46886">
        <ele>317</ele>
        <time>2014-01-23T12:18:39Z</time>
      </trkpt>
      <trkpt lat="43.22659" lon="5.46884">
        <ele>319</ele>
        <time>2014-01-23T12:19:22Z</time>
      </trkpt>
      <trkpt lat="43.22669" lon="5.46878">
        <ele>315</ele>
        <time>2014-01-23T12:20:19Z</time>
      </trkpt>
      <trkpt lat="43.22676" lon="5.46874">
        <ele>314</ele>
        <time>2014-01-23T12:20:35Z</time>
      </trkpt>
      <trkpt lat="43.22683" lon="5.4687">
        <ele>317</ele>
        <time>2014-01-23T12:21:15Z</time>
      </trkpt>
      <trkpt lat="43.22692" lon="5.46871">
        <ele>308</ele>
        <time>2014-01-23T12:21:38Z</time>
      </trkpt>
      <trkpt lat="43.22696" lon="5.46865">
        <ele>308</ele>
        <time>2014-01-23T12:21:43Z</time>
      </trkpt>
      <trkpt lat="43.22701" lon="5.46861">
        <ele>307</ele>
        <time>2014-01-23T12:21:49Z</time>
      </trkpt>
      <trkpt lat="43.22707" lon="5.46858">
        <ele>308</ele>
        <time>2014-01-23T12:21:53Z</time>
      </trkpt>
      <trkpt lat="43.22711" lon="5.46857">
        <ele>306</ele>
        <time>2014-01-23T12:22:05Z</time>
      </trkpt>
      <trkpt lat="43.22715" lon="5.46851">
        <ele>305</ele>
        <time>2014-01-23T12:22:13Z</time>
      </trkpt>
      <trkpt lat="43.22716" lon="5.46843">
        <ele>306</ele>
        <time>2014-01-23T12:22:19Z</time>
      </trkpt>
      <trkpt lat="43.22717" lon="5.46836">
        <ele>307</ele>
        <time>2014-01-23T12:22:23Z</time>
      </trkpt>
      <trkpt lat="43.22718" lon="5.46823">
        <ele>308</ele>
        <time>2014-01-23T12:22:38Z</time>
      </trkpt>
      <trkpt lat="43.22722" lon="5.46811">
        <ele>307</ele>
        <time>2014-01-23T12:22:48Z</time>
      </trkpt>
      <trkpt lat="43.22722" lon="5.46802">
        <ele>302</ele>
        <time>2014-01-23T12:23:16Z</time>
      </trkpt>
      <trkpt lat="43.22714" lon="5.46799">
        <ele>302</ele>
        <time>2014-01-23T12:23:38Z</time>
      </trkpt>
      <trkpt lat="43.22709" lon="5.46798">
        <ele>303</ele>
        <time>2014-01-23T12:23:54Z</time>
      </trkpt>
      <trkpt lat="43.22705" lon="5.46794">
        <ele>304</ele>
        <time>2014-01-23T12:24:05Z</time>
      </trkpt>
      <trkpt lat="43.22711" lon="5.46793">
        <ele>307</ele>
        <time>2014-01-23T12:25:03Z</time>
      </trkpt>
      <trkpt lat="43.22714" lon="5.46791">
        <ele>315</ele>
        <time>2014-01-23T12:26:37Z</time>
      </trkpt>
      <trkpt lat="43.22721" lon="5.46788">
        <ele>326</ele>
        <time>2014-01-23T12:28:07Z</time>
      </trkpt>
      <trkpt lat="43.22719" lon="5.46789">
        <ele>313</ele>
        <time>2014-01-23T12:31:57Z</time>
      </trkpt>
      <trkpt lat="43.22714" lon="5.46792">
        <ele>312</ele>
        <time>2014-01-23T12:32:31Z</time>
      </trkpt>
      <trkpt lat="43.22719" lon="5.46801">
        <ele>315</ele>
        <time>2014-01-23T12:35:04Z</time>
      </trkpt>
      <trkpt lat="43.22728" lon="5.46795">
        <ele>301</ele>
        <time>2014-01-23T12:35:45Z</time>
      </trkpt>
      <trkpt lat="43.22734" lon="5.4679">
        <ele>300</ele>
        <time>2014-01-23T12:35:49Z</time>
      </trkpt>
      <trkpt lat="43.22738" lon="5.46786">
        <ele>299</ele>
        <time>2014-01-23T12:35:54Z</time>
      </trkpt>
      <trkpt lat="43.22742" lon="5.46782">
        <ele>298</ele>
        <time>2014-01-23T12:35:59Z</time>
      </trkpt>
      <trkpt lat="43.22749" lon="5.46778">
        <ele>299</ele>
        <time>2014-01-23T12:36:07Z</time>
      </trkpt>
      <trkpt lat="43.22754" lon="5.46774">
        <ele>299</ele>
        <time>2014-01-23T12:36:12Z</time>
      </trkpt>
      <trkpt lat="43.22757" lon="5.46763">
        <ele>301</ele>
        <time>2014-01-23T12:37:50Z</time>
      </trkpt>
      <trkpt lat="43.2276" lon="5.46759">
        <ele>301</ele>
        <time>2014-01-23T12:37:56Z</time>
      </trkpt>
      <trkpt lat="43.22764" lon="5.46752">
        <ele>299</ele>
        <time>2014-01-23T12:38:06Z</time>
      </trkpt>
      <trkpt lat="43.22767" lon="5.46746">
        <ele>298</ele>
        <time>2014-01-23T12:38:12Z</time>
      </trkpt>
      <trkpt lat="43.22773" lon="5.46737">
        <ele>297</ele>
        <time>2014-01-23T12:38:21Z</time>
      </trkpt>
      <trkpt lat="43.22778" lon="5.46729">
        <ele>297</ele>
        <time>2014-01-23T12:38:30Z</time>
      </trkpt>
      <trkpt lat="43.22783" lon="5.46719">
        <ele>296</ele>
        <time>2014-01-23T12:38:38Z</time>
      </trkpt>
      <trkpt lat="43.22786" lon="5.46712">
        <ele>297</ele>
        <time>2014-01-23T12:38:43Z</time>
      </trkpt>
      <trkpt lat="43.22789" lon="5.46706">
        <ele>297</ele>
        <time>2014-01-23T12:38:48Z</time>
      </trkpt>
      <trkpt lat="43.22793" lon="5.46701">
        <ele>298</ele>
        <time>2014-01-23T12:38:53Z</time>
      </trkpt>
      <trkpt lat="43.22795" lon="5.46695">
        <ele>299</ele>
        <time>2014-01-23T12:38:58Z</time>
      </trkpt>
      <trkpt lat="43.22798" lon="5.4669">
        <ele>299</ele>
        <time>2014-01-23T12:39:02Z</time>
      </trkpt>
      <trkpt lat="43.228" lon="5.46685">
        <ele>299</ele>
        <time>2014-01-23T12:39:07Z</time>
      </trkpt>
      <trkpt lat="43.22805" lon="5.46677">
        <ele>299</ele>
        <time>2014-01-23T12:39:15Z</time>
      </trkpt>
      <trkpt lat="43.22809" lon="5.46665">
        <ele>298</ele>
        <time>2014-01-23T12:39:23Z</time>
      </trkpt>
      <trkpt lat="43.22808" lon="5.46658">
        <ele>298</ele>
        <time>2014-01-23T12:39:27Z</time>
      </trkpt>
      <trkpt lat="43.2281" lon="5.46651">
        <ele>299</ele>
        <time>2014-01-23T12:39:32Z</time>
      </trkpt>
      <trkpt lat="43.22811" lon="5.46645">
        <ele>299</ele>
        <time>2014-01-23T12:39:36Z</time>
      </trkpt>
      <trkpt lat="43.22812" lon="5.46638">
        <ele>299</ele>
        <time>2014-01-23T12:39:42Z</time>
      </trkpt>
      <trkpt lat="43.22813" lon="5.46632">
        <ele>299</ele>
        <time>2014-01-23T12:39:47Z</time>
      </trkpt>
      <trkpt lat="43.22813" lon="5.46624">
        <ele>299</ele>
        <time>2014-01-23T12:39:53Z</time>
      </trkpt>
      <trkpt lat="43.22813" lon="5.46617">
        <ele>299</ele>
        <time>2014-01-23T12:39:58Z</time>
      </trkpt>
      <trkpt lat="43.22816" lon="5.46611">
        <ele>299</ele>
        <time>2014-01-23T12:40:03Z</time>
      </trkpt>
      <trkpt lat="43.22818" lon="5.46603">
        <ele>299</ele>
        <time>2014-01-23T12:40:10Z</time>
      </trkpt>
      <trkpt lat="43.2282" lon="5.46596">
        <ele>299</ele>
        <time>2014-01-23T12:40:16Z</time>
      </trkpt>
      <trkpt lat="43.22822" lon="5.4659">
        <ele>299</ele>
        <time>2014-01-23T12:40:22Z</time>
      </trkpt>
      <trkpt lat="43.22824" lon="5.46583">
        <ele>299</ele>
        <time>2014-01-23T12:40:29Z</time>
      </trkpt>
      <trkpt lat="43.22827" lon="5.46577">
        <ele>300</ele>
        <time>2014-01-23T12:40:35Z</time>
      </trkpt>
      <trkpt lat="43.22828" lon="5.46571">
        <ele>300</ele>
        <time>2014-01-23T12:40:40Z</time>
      </trkpt>
      <trkpt lat="43.22829" lon="5.46564">
        <ele>300</ele>
        <time>2014-01-23T12:40:45Z</time>
      </trkpt>
      <trkpt lat="43.22831" lon="5.46557">
        <ele>302</ele>
        <time>2014-01-23T12:40:53Z</time>
      </trkpt>
      <trkpt lat="43.22834" lon="5.46545">
        <ele>302</ele>
        <time>2014-01-23T12:41:13Z</time>
      </trkpt>
      <trkpt lat="43.22837" lon="5.46536">
        <ele>305</ele>
        <time>2014-01-23T12:41:24Z</time>
      </trkpt>
      <trkpt lat="43.22839" lon="5.4653">
        <ele>305</ele>
        <time>2014-01-23T12:41:31Z</time>
      </trkpt>
      <trkpt lat="43.22843" lon="5.46526">
        <ele>307</ele>
        <time>2014-01-23T12:41:41Z</time>
      </trkpt>
      <trkpt lat="43.22847" lon="5.46522">
        <ele>307</ele>
        <time>2014-01-23T12:41:48Z</time>
      </trkpt>
      <trkpt lat="43.22852" lon="5.46515">
        <ele>309</ele>
        <time>2014-01-23T12:41:55Z</time>
      </trkpt>
      <trkpt lat="43.22856" lon="5.46509">
        <ele>311</ele>
        <time>2014-01-23T12:42:01Z</time>
      </trkpt>
      <trkpt lat="43.22859" lon="5.46505">
        <ele>312</ele>
        <time>2014-01-23T12:42:11Z</time>
      </trkpt>
      <trkpt lat="43.22864" lon="5.46498">
        <ele>315</ele>
        <time>2014-01-23T12:42:25Z</time>
      </trkpt>
      <trkpt lat="43.22866" lon="5.46492">
        <ele>316</ele>
        <time>2014-01-23T12:42:34Z</time>
      </trkpt>
      <trkpt lat="43.22869" lon="5.46486">
        <ele>318</ele>
        <time>2014-01-23T12:42:45Z</time>
      </trkpt>
      <trkpt lat="43.22873" lon="5.46482">
        <ele>319</ele>
        <time>2014-01-23T12:42:51Z</time>
      </trkpt>
      <trkpt lat="43.22875" lon="5.46477">
        <ele>319</ele>
        <time>2014-01-23T12:43:01Z</time>
      </trkpt>
      <trkpt lat="43.2288" lon="5.46472">
        <ele>319</ele>
        <time>2014-01-23T12:43:15Z</time>
      </trkpt>
      <trkpt lat="43.22885" lon="5.46468">
        <ele>319</ele>
        <time>2014-01-23T12:43:21Z</time>
      </trkpt>
      <trkpt lat="43.22889" lon="5.46464">
        <ele>321</ele>
        <time>2014-01-23T12:43:26Z</time>
      </trkpt>
      <trkpt lat="43.22893" lon="5.46462">
        <ele>322</ele>
        <time>2014-01-23T12:43:32Z</time>
      </trkpt>
      <trkpt lat="43.22898" lon="5.46459">
        <ele>322</ele>
        <time>2014-01-23T12:43:51Z</time>
      </trkpt>
      <trkpt lat="43.22902" lon="5.46455">
        <ele>323</ele>
        <time>2014-01-23T12:43:56Z</time>
      </trkpt>
      <trkpt lat="43.22908" lon="5.46451">
        <ele>325</ele>
        <time>2014-01-23T12:44:07Z</time>
      </trkpt>
      <trkpt lat="43.22912" lon="5.46447">
        <ele>325</ele>
        <time>2014-01-23T12:44:13Z</time>
      </trkpt>
      <trkpt lat="43.22917" lon="5.46443">
        <ele>326</ele>
        <time>2014-01-23T12:44:19Z</time>
      </trkpt>
      <trkpt lat="43.22921" lon="5.46439">
        <ele>327</ele>
        <time>2014-01-23T12:44:25Z</time>
      </trkpt>
      <trkpt lat="43.22927" lon="5.46436">
        <ele>328</ele>
        <time>2014-01-23T12:44:33Z</time>
      </trkpt>
      <trkpt lat="43.22931" lon="5.46432">
        <ele>329</ele>
        <time>2014-01-23T12:44:38Z</time>
      </trkpt>
      <trkpt lat="43.22936" lon="5.46429">
        <ele>330</ele>
        <time>2014-01-23T12:44:43Z</time>
      </trkpt>
      <trkpt lat="43.2294" lon="5.46426">
        <ele>331</ele>
        <time>2014-01-23T12:44:49Z</time>
      </trkpt>
      <trkpt lat="43.22947" lon="5.46422">
        <ele>332</ele>
        <time>2014-01-23T12:44:58Z</time>
      </trkpt>
      <trkpt lat="43.22953" lon="5.46419">
        <ele>333</ele>
        <time>2014-01-23T12:45:03Z</time>
      </trkpt>
      <trkpt lat="43.22957" lon="5.46415">
        <ele>334</ele>
        <time>2014-01-23T12:45:08Z</time>
      </trkpt>
      <trkpt lat="43.22961" lon="5.46411">
        <ele>335</ele>
        <time>2014-01-23T12:45:13Z</time>
      </trkpt>
      <trkpt lat="43.22964" lon="5.46406">
        <ele>335</ele>
        <time>2014-01-23T12:45:18Z</time>
      </trkpt>
      <trkpt lat="43.22967" lon="5.46402">
        <ele>336</ele>
        <time>2014-01-23T12:45:23Z</time>
      </trkpt>
      <trkpt lat="43.22969" lon="5.46395">
        <ele>337</ele>
        <time>2014-01-23T12:45:28Z</time>
      </trkpt>
      <trkpt lat="43.22972" lon="5.4639">
        <ele>338</ele>
        <time>2014-01-23T12:45:36Z</time>
      </trkpt>
      <trkpt lat="43.22978" lon="5.46383">
        <ele>340</ele>
        <time>2014-01-23T12:45:44Z</time>
      </trkpt>
      <trkpt lat="43.22983" lon="5.4638">
        <ele>341</ele>
        <time>2014-01-23T12:45:50Z</time>
      </trkpt>
      <trkpt lat="43.22988" lon="5.46376">
        <ele>343</ele>
        <time>2014-01-23T12:45:55Z</time>
      </trkpt>
      <trkpt lat="43.22991" lon="5.46371">
        <ele>343</ele>
        <time>2014-01-23T12:46:00Z</time>
      </trkpt>
      <trkpt lat="43.22994" lon="5.46365">
        <ele>343</ele>
        <time>2014-01-23T12:46:06Z</time>
      </trkpt>
      <trkpt lat="43.22997" lon="5.4636">
        <ele>342</ele>
        <time>2014-01-23T12:46:12Z</time>
      </trkpt>
      <trkpt lat="43.23002" lon="5.46356">
        <ele>342</ele>
        <time>2014-01-23T12:46:18Z</time>
      </trkpt>
      <trkpt lat="43.23006" lon="5.46351">
        <ele>342</ele>
        <time>2014-01-23T12:46:23Z</time>
      </trkpt>
      <trkpt lat="43.23012" lon="5.46345">
        <ele>342</ele>
        <time>2014-01-23T12:46:31Z</time>
      </trkpt>
      <trkpt lat="43.23016" lon="5.46341">
        <ele>342</ele>
        <time>2014-01-23T12:46:35Z</time>
      </trkpt>
      <trkpt lat="43.23022" lon="5.46338">
        <ele>341</ele>
        <time>2014-01-23T12:46:39Z</time>
      </trkpt>
      <trkpt lat="43.23027" lon="5.46335">
        <ele>341</ele>
        <time>2014-01-23T12:46:43Z</time>
      </trkpt>
      <trkpt lat="43.23032" lon="5.46332">
        <ele>342</ele>
        <time>2014-01-23T12:46:47Z</time>
      </trkpt>
      <trkpt lat="43.23037" lon="5.46328">
        <ele>343</ele>
        <time>2014-01-23T12:46:53Z</time>
      </trkpt>
      <trkpt lat="43.23041" lon="5.46324">
        <ele>343</ele>
        <time>2014-01-23T12:46:57Z</time>
      </trkpt>
      <trkpt lat="43.23045" lon="5.46319">
        <ele>343</ele>
        <time>2014-01-23T12:47:03Z</time>
      </trkpt>
      <trkpt lat="43.23053" lon="5.46315">
        <ele>342</ele>
        <time>2014-01-23T12:47:11Z</time>
      </trkpt>
      <trkpt lat="43.23057" lon="5.46313">
        <ele>342</ele>
        <time>2014-01-23T12:47:14Z</time>
      </trkpt>
      <trkpt lat="43.23062" lon="5.46311">
        <ele>342</ele>
        <time>2014-01-23T12:47:18Z</time>
      </trkpt>
      <trkpt lat="43.23066" lon="5.46309">
        <ele>341</ele>
        <time>2014-01-23T12:47:22Z</time>
      </trkpt>
      <trkpt lat="43.23071" lon="5.46306">
        <ele>341</ele>
        <time>2014-01-23T12:47:27Z</time>
      </trkpt>
      <trkpt lat="43.23077" lon="5.46306">
        <ele>341</ele>
        <time>2014-01-23T12:47:32Z</time>
      </trkpt>
      <trkpt lat="43.23084" lon="5.46307">
        <ele>340</ele>
        <time>2014-01-23T12:47:38Z</time>
      </trkpt>
      <trkpt lat="43.23089" lon="5.4631">
        <ele>341</ele>
        <time>2014-01-23T12:47:44Z</time>
      </trkpt>
      <trkpt lat="43.23094" lon="5.46311">
        <ele>341</ele>
        <time>2014-01-23T12:47:51Z</time>
      </trkpt>
      <trkpt lat="43.231" lon="5.46311">
        <ele>342</ele>
        <time>2014-01-23T12:47:57Z</time>
      </trkpt>
      <trkpt lat="43.23106" lon="5.46312">
        <ele>343</ele>
        <time>2014-01-23T12:48:04Z</time>
      </trkpt>
      <trkpt lat="43.23111" lon="5.46311">
        <ele>344</ele>
        <time>2014-01-23T12:48:10Z</time>
      </trkpt>
      <trkpt lat="43.23117" lon="5.4631">
        <ele>346</ele>
        <time>2014-01-23T12:48:16Z</time>
      </trkpt>
      <trkpt lat="43.23119" lon="5.4631">
        <ele>347</ele>
        <time>2014-01-23T12:48:22Z</time>
      </trkpt>
      <trkpt lat="43.23125" lon="5.46316">
        <ele>347</ele>
        <time>2014-01-23T12:48:36Z</time>
      </trkpt>
      <trkpt lat="43.2313" lon="5.46317">
        <ele>349</ele>
        <time>2014-01-23T12:48:44Z</time>
      </trkpt>
      <trkpt lat="43.23134" lon="5.4632">
        <ele>350</ele>
        <time>2014-01-23T12:48:50Z</time>
      </trkpt>
      <trkpt lat="43.23135" lon="5.46327">
        <ele>351</ele>
        <time>2014-01-23T12:48:56Z</time>
      </trkpt>
      <trkpt lat="43.23136" lon="5.46334">
        <ele>352</ele>
        <time>2014-01-23T12:49:01Z</time>
      </trkpt>
      <trkpt lat="43.23136" lon="5.4634">
        <ele>352</ele>
        <time>2014-01-23T12:49:05Z</time>
      </trkpt>
      <trkpt lat="43.23136" lon="5.46348">
        <ele>354</ele>
        <time>2014-01-23T12:49:12Z</time>
      </trkpt>
      <trkpt lat="43.23136" lon="5.46355">
        <ele>355</ele>
        <time>2014-01-23T12:49:19Z</time>
      </trkpt>
      <trkpt lat="43.23137" lon="5.4636">
        <ele>356</ele>
        <time>2014-01-23T12:50:37Z</time>
      </trkpt>
      <trkpt lat="43.23136" lon="5.46369">
        <ele>357</ele>
        <time>2014-01-23T12:50:46Z</time>
      </trkpt>
      <trkpt lat="43.23138" lon="5.46376">
        <ele>359</ele>
        <time>2014-01-23T12:50:51Z</time>
      </trkpt>
      <trkpt lat="43.23138" lon="5.46383">
        <ele>361</ele>
        <time>2014-01-23T12:50:56Z</time>
      </trkpt>
      <trkpt lat="43.2314" lon="5.46396">
        <ele>363</ele>
        <time>2014-01-23T12:51:14Z</time>
      </trkpt>
      <trkpt lat="43.2314" lon="5.46405">
        <ele>364</ele>
        <time>2014-01-23T12:51:21Z</time>
      </trkpt>
      <trkpt lat="43.23141" lon="5.46412">
        <ele>365</ele>
        <time>2014-01-23T12:51:26Z</time>
      </trkpt>
      <trkpt lat="43.23141" lon="5.46419">
        <ele>366</ele>
        <time>2014-01-23T12:51:32Z</time>
      </trkpt>
      <trkpt lat="43.23141" lon="5.46425">
        <ele>366</ele>
        <time>2014-01-23T12:51:58Z</time>
      </trkpt>
      <trkpt lat="43.23147" lon="5.46436">
        <ele>368</ele>
        <time>2014-01-23T12:52:28Z</time>
      </trkpt>
      <trkpt lat="43.23153" lon="5.46444">
        <ele>370</ele>
        <time>2014-01-23T12:52:34Z</time>
      </trkpt>
      <trkpt lat="43.23158" lon="5.46445">
        <ele>372</ele>
        <time>2014-01-23T12:52:39Z</time>
      </trkpt>
      <trkpt lat="43.23164" lon="5.46448">
        <ele>373</ele>
        <time>2014-01-23T12:52:45Z</time>
      </trkpt>
      <trkpt lat="43.23168" lon="5.46447">
        <ele>374</ele>
        <time>2014-01-23T12:52:51Z</time>
      </trkpt>
      <trkpt lat="43.23171" lon="5.46449">
        <ele>374</ele>
        <time>2014-01-23T12:52:58Z</time>
      </trkpt>
      <trkpt lat="43.23176" lon="5.4645">
        <ele>378</ele>
        <time>2014-01-23T12:53:09Z</time>
      </trkpt>
      <trkpt lat="43.23181" lon="5.46448">
        <ele>378</ele>
        <time>2014-01-23T12:53:15Z</time>
      </trkpt>
      <trkpt lat="43.23189" lon="5.46446">
        <ele>378</ele>
        <time>2014-01-23T12:53:31Z</time>
      </trkpt>
      <trkpt lat="43.23195" lon="5.46445">
        <ele>377</ele>
        <time>2014-01-23T12:53:37Z</time>
      </trkpt>
      <trkpt lat="43.232" lon="5.46444">
        <ele>378</ele>
        <time>2014-01-23T12:53:41Z</time>
      </trkpt>
      <trkpt lat="43.23205" lon="5.46442">
        <ele>378</ele>
        <time>2014-01-23T12:53:45Z</time>
      </trkpt>
      <trkpt lat="43.2321" lon="5.46439">
        <ele>377</ele>
        <time>2014-01-23T12:53:50Z</time>
      </trkpt>
      <trkpt lat="43.23214" lon="5.46436">
        <ele>377</ele>
        <time>2014-01-23T12:53:54Z</time>
      </trkpt>
      <trkpt lat="43.23218" lon="5.46431">
        <ele>376</ele>
        <time>2014-01-23T12:54:01Z</time>
      </trkpt>
      <trkpt lat="43.23223" lon="5.46427">
        <ele>374</ele>
        <time>2014-01-23T12:54:08Z</time>
      </trkpt>
      <trkpt lat="43.23228" lon="5.46427">
        <ele>374</ele>
        <time>2014-01-23T12:54:12Z</time>
      </trkpt>
      <trkpt lat="43.23232" lon="5.46427">
        <ele>375</ele>
        <time>2014-01-23T12:54:16Z</time>
      </trkpt>
      <trkpt lat="43.23237" lon="5.46428">
        <ele>376</ele>
        <time>2014-01-23T12:54:22Z</time>
      </trkpt>
      <trkpt lat="43.23243" lon="5.46429">
        <ele>381</ele>
        <time>2014-01-23T12:54:36Z</time>
      </trkpt>
      <trkpt lat="43.23248" lon="5.46428">
        <ele>380</ele>
        <time>2014-01-23T12:54:39Z</time>
      </trkpt>
      <trkpt lat="43.23255" lon="5.46428">
        <ele>380</ele>
        <time>2014-01-23T12:54:46Z</time>
      </trkpt>
      <trkpt lat="43.2326" lon="5.46428">
        <ele>380</ele>
        <time>2014-01-23T12:54:53Z</time>
      </trkpt>
      <trkpt lat="43.23266" lon="5.46432">
        <ele>381</ele>
        <time>2014-01-23T12:54:59Z</time>
      </trkpt>
      <trkpt lat="43.2327" lon="5.46433">
        <ele>381</ele>
        <time>2014-01-23T12:55:04Z</time>
      </trkpt>
      <trkpt lat="43.23275" lon="5.46432">
        <ele>382</ele>
        <time>2014-01-23T12:55:09Z</time>
      </trkpt>
      <trkpt lat="43.2328" lon="5.46429">
        <ele>383</ele>
        <time>2014-01-23T12:55:15Z</time>
      </trkpt>
      <trkpt lat="43.23285" lon="5.46426">
        <ele>383</ele>
        <time>2014-01-23T12:55:21Z</time>
      </trkpt>
      <trkpt lat="43.2329" lon="5.46425">
        <ele>383</ele>
        <time>2014-01-23T12:55:26Z</time>
      </trkpt>
      <trkpt lat="43.23296" lon="5.46424">
        <ele>383</ele>
        <time>2014-01-23T12:55:31Z</time>
      </trkpt>
      <trkpt lat="43.23301" lon="5.46426">
        <ele>383</ele>
        <time>2014-01-23T12:55:35Z</time>
      </trkpt>
      <trkpt lat="43.23308" lon="5.46429">
        <ele>383</ele>
        <time>2014-01-23T12:55:42Z</time>
      </trkpt>
      <trkpt lat="43.23312" lon="5.46426">
        <ele>383</ele>
        <time>2014-01-23T12:55:46Z</time>
      </trkpt>
      <trkpt lat="43.23317" lon="5.46427">
        <ele>382</ele>
        <time>2014-01-23T12:55:54Z</time>
      </trkpt>
      <trkpt lat="43.23322" lon="5.46426">
        <ele>382</ele>
        <time>2014-01-23T12:56:00Z</time>
      </trkpt>
      <trkpt lat="43.23327" lon="5.46424">
        <ele>382</ele>
        <time>2014-01-23T12:56:06Z</time>
      </trkpt>
      <trkpt lat="43.2333" lon="5.4642">
        <ele>382</ele>
        <time>2014-01-23T12:56:12Z</time>
      </trkpt>
      <trkpt lat="43.23335" lon="5.46417">
        <ele>381</ele>
        <time>2014-01-23T12:56:17Z</time>
      </trkpt>
      <trkpt lat="43.23339" lon="5.46414">
        <ele>381</ele>
        <time>2014-01-23T12:56:20Z</time>
      </trkpt>
      <trkpt lat="43.23343" lon="5.4641">
        <ele>381</ele>
        <time>2014-01-23T12:56:25Z</time>
      </trkpt>
      <trkpt lat="43.23348" lon="5.46407">
        <ele>382</ele>
        <time>2014-01-23T12:56:30Z</time>
      </trkpt>
      <trkpt lat="43.23352" lon="5.46402">
        <ele>382</ele>
        <time>2014-01-23T12:56:35Z</time>
      </trkpt>
      <trkpt lat="43.23356" lon="5.46399">
        <ele>382</ele>
        <time>2014-01-23T12:56:39Z</time>
      </trkpt>
      <trkpt lat="43.2336" lon="5.46395">
        <ele>383</ele>
        <time>2014-01-23T12:56:44Z</time>
      </trkpt>
      <trkpt lat="43.23363" lon="5.46392">
        <ele>383</ele>
        <time>2014-01-23T12:56:53Z</time>
      </trkpt>
      <trkpt lat="43.23365" lon="5.4639">
        <ele>382</ele>
        <time>2014-01-23T12:57:00Z</time>
      </trkpt>
      <trkpt lat="43.23369" lon="5.46385">
        <ele>382</ele>
        <time>2014-01-23T12:57:04Z</time>
      </trkpt>
      <trkpt lat="43.23373" lon="5.46381">
        <ele>382</ele>
        <time>2014-01-23T12:57:09Z</time>
      </trkpt>
      <trkpt lat="43.23377" lon="5.46376">
        <ele>383</ele>
        <time>2014-01-23T12:57:15Z</time>
      </trkpt>
      <trkpt lat="43.23381" lon="5.46374">
        <ele>382</ele>
        <time>2014-01-23T12:57:21Z</time>
      </trkpt>
      <trkpt lat="43.23384" lon="5.46368">
        <ele>382</ele>
        <time>2014-01-23T12:57:28Z</time>
      </trkpt>
      <trkpt lat="43.23387" lon="5.46362">
        <ele>381</ele>
        <time>2014-01-23T12:57:32Z</time>
      </trkpt>
      <trkpt lat="43.23391" lon="5.46357">
        <ele>381</ele>
        <time>2014-01-23T12:57:37Z</time>
      </trkpt>
      <trkpt lat="43.23395" lon="5.46352">
        <ele>381</ele>
        <time>2014-01-23T12:57:42Z</time>
      </trkpt>
      <trkpt lat="43.23399" lon="5.46348">
        <ele>380</ele>
        <time>2014-01-23T12:57:46Z</time>
      </trkpt>
      <trkpt lat="43.23403" lon="5.46344">
        <ele>379</ele>
        <time>2014-01-23T12:57:51Z</time>
      </trkpt>
      <trkpt lat="43.23408" lon="5.4634">
        <ele>379</ele>
        <time>2014-01-23T12:57:56Z</time>
      </trkpt>
      <trkpt lat="43.2341" lon="5.46335">
        <ele>379</ele>
        <time>2014-01-23T12:58:00Z</time>
      </trkpt>
      <trkpt lat="43.23414" lon="5.46329">
        <ele>379</ele>
        <time>2014-01-23T12:58:04Z</time>
      </trkpt>
      <trkpt lat="43.23417" lon="5.46324">
        <ele>379</ele>
        <time>2014-01-23T12:58:08Z</time>
      </trkpt>
      <trkpt lat="43.2342" lon="5.46318">
        <ele>380</ele>
        <time>2014-01-23T12:58:12Z</time>
      </trkpt>
      <trkpt lat="43.23423" lon="5.46314">
        <ele>379</ele>
        <time>2014-01-23T12:58:16Z</time>
      </trkpt>
      <trkpt lat="43.23427" lon="5.46309">
        <ele>379</ele>
        <time>2014-01-23T12:58:20Z</time>
      </trkpt>
      <trkpt lat="43.23431" lon="5.46305">
        <ele>380</ele>
        <time>2014-01-23T12:58:24Z</time>
      </trkpt>
      <trkpt lat="43.23435" lon="5.463">
        <ele>380</ele>
        <time>2014-01-23T12:58:29Z</time>
      </trkpt>
      <trkpt lat="43.23439" lon="5.46296">
        <ele>380</ele>
        <time>2014-01-23T12:58:33Z</time>
      </trkpt>
      <trkpt lat="43.23442" lon="5.46292">
        <ele>380</ele>
        <time>2014-01-23T12:58:36Z</time>
      </trkpt>
      <trkpt lat="43.23445" lon="5.46287">
        <ele>380</ele>
        <time>2014-01-23T12:58:40Z</time>
      </trkpt>
      <trkpt lat="43.23447" lon="5.46281">
        <ele>381</ele>
        <time>2014-01-23T12:58:45Z</time>
      </trkpt>
      <trkpt lat="43.23449" lon="5.46275">
        <ele>381</ele>
        <time>2014-01-23T12:58:49Z</time>
      </trkpt>
      <trkpt lat="43.23452" lon="5.4627">
        <ele>380</ele>
        <time>2014-01-23T12:58:53Z</time>
      </trkpt>
      <trkpt lat="43.23455" lon="5.46265">
        <ele>380</ele>
        <time>2014-01-23T12:58:58Z</time>
      </trkpt>
      <trkpt lat="43.23457" lon="5.46257">
        <ele>381</ele>
        <time>2014-01-23T12:59:03Z</time>
      </trkpt>
      <trkpt lat="43.2346" lon="5.46252">
        <ele>380</ele>
        <time>2014-01-23T12:59:07Z</time>
      </trkpt>
      <trkpt lat="43.23464" lon="5.46248">
        <ele>380</ele>
        <time>2014-01-23T12:59:11Z</time>
      </trkpt>
      <trkpt lat="43.23468" lon="5.46244">
        <ele>380</ele>
        <time>2014-01-23T12:59:15Z</time>
      </trkpt>
      <trkpt lat="43.23471" lon="5.46239">
        <ele>381</ele>
        <time>2014-01-23T12:59:22Z</time>
      </trkpt>
      <trkpt lat="43.23475" lon="5.46234">
        <ele>382</ele>
        <time>2014-01-23T12:59:27Z</time>
      </trkpt>
      <trkpt lat="43.23478" lon="5.4623">
        <ele>383</ele>
        <time>2014-01-23T12:59:32Z</time>
      </trkpt>
      <trkpt lat="43.23481" lon="5.46225">
        <ele>383</ele>
        <time>2014-01-23T12:59:37Z</time>
      </trkpt>
      <trkpt lat="43.23484" lon="5.46221">
        <ele>384</ele>
        <time>2014-01-23T12:59:42Z</time>
      </trkpt>
      <trkpt lat="43.23488" lon="5.46217">
        <ele>384</ele>
        <time>2014-01-23T12:59:48Z</time>
      </trkpt>
      <trkpt lat="43.23493" lon="5.46214">
        <ele>386</ele>
        <time>2014-01-23T12:59:53Z</time>
      </trkpt>
      <trkpt lat="43.23497" lon="5.4621">
        <ele>386</ele>
        <time>2014-01-23T12:59:58Z</time>
      </trkpt>
      <trkpt lat="43.23501" lon="5.46206">
        <ele>386</ele>
        <time>2014-01-23T13:00:03Z</time>
      </trkpt>
      <trkpt lat="43.23505" lon="5.46201">
        <ele>390</ele>
        <time>2014-01-23T13:00:43Z</time>
      </trkpt>
      <trkpt lat="43.23507" lon="5.46199">
        <ele>390</ele>
        <time>2014-01-23T13:01:18Z</time>
      </trkpt>
      <trkpt lat="43.23514" lon="5.46195">
        <ele>387</ele>
        <time>2014-01-23T13:01:52Z</time>
      </trkpt>
      <trkpt lat="43.23518" lon="5.46191">
        <ele>389</ele>
        <time>2014-01-23T13:01:59Z</time>
      </trkpt>
      <trkpt lat="43.23522" lon="5.46188">
        <ele>389</ele>
        <time>2014-01-23T13:02:06Z</time>
      </trkpt>
      <trkpt lat="43.23527" lon="5.46187">
        <ele>389</ele>
        <time>2014-01-23T13:02:10Z</time>
      </trkpt>
      <trkpt lat="43.23532" lon="5.46184">
        <ele>389</ele>
        <time>2014-01-23T13:02:15Z</time>
      </trkpt>
      <trkpt lat="43.23537" lon="5.46181">
        <ele>390</ele>
        <time>2014-01-23T13:02:20Z</time>
      </trkpt>
      <trkpt lat="43.23542" lon="5.4618">
        <ele>390</ele>
        <time>2014-01-23T13:02:26Z</time>
      </trkpt>
      <trkpt lat="43.23547" lon="5.46179">
        <ele>390</ele>
        <time>2014-01-23T13:02:41Z</time>
      </trkpt>
      <trkpt lat="43.2355" lon="5.46178">
        <ele>395</ele>
        <time>2014-01-23T13:02:53Z</time>
      </trkpt>
      <trkpt lat="43.23554" lon="5.46175">
        <ele>395</ele>
        <time>2014-01-23T13:02:58Z</time>
      </trkpt>
      <trkpt lat="43.2356" lon="5.46175">
        <ele>395</ele>
        <time>2014-01-23T13:03:03Z</time>
      </trkpt>
      <trkpt lat="43.23564" lon="5.46173">
        <ele>395</ele>
        <time>2014-01-23T13:03:09Z</time>
      </trkpt>
      <trkpt lat="43.23567" lon="5.46171">
        <ele>395</ele>
        <time>2014-01-23T13:03:20Z</time>
      </trkpt>
      <trkpt lat="43.23572" lon="5.46167">
        <ele>394</ele>
        <time>2014-01-23T13:03:25Z</time>
      </trkpt>
      <trkpt lat="43.23575" lon="5.46162">
        <ele>394</ele>
        <time>2014-01-23T13:03:28Z</time>
      </trkpt>
      <trkpt lat="43.23578" lon="5.46157">
        <ele>395</ele>
        <time>2014-01-23T13:03:32Z</time>
      </trkpt>
      <trkpt lat="43.23579" lon="5.46152">
        <ele>396</ele>
        <time>2014-01-23T13:03:49Z</time>
      </trkpt>
      <trkpt lat="43.23579" lon="5.46148">
        <ele>396</ele>
        <time>2014-01-23T13:03:55Z</time>
      </trkpt>
      <trkpt lat="43.23577" lon="5.4614">
        <ele>395</ele>
        <time>2014-01-23T13:04:11Z</time>
      </trkpt>
      <trkpt lat="43.23577" lon="5.46133">
        <ele>394</ele>
        <time>2014-01-23T13:04:16Z</time>
      </trkpt>
      <trkpt lat="43.23579" lon="5.46127">
        <ele>394</ele>
        <time>2014-01-23T13:04:24Z</time>
      </trkpt>
      <trkpt lat="43.23581" lon="5.46121">
        <ele>395</ele>
        <time>2014-01-23T13:04:35Z</time>
      </trkpt>
      <trkpt lat="43.23581" lon="5.46112">
        <ele>392</ele>
        <time>2014-01-23T13:04:47Z</time>
      </trkpt>
      <trkpt lat="43.23581" lon="5.46107">
        <ele>390</ele>
        <time>2014-01-23T13:04:55Z</time>
      </trkpt>
      <trkpt lat="43.2358" lon="5.46101">
        <ele>392</ele>
        <time>2014-01-23T13:05:18Z</time>
      </trkpt>
      <trkpt lat="43.23579" lon="5.46094">
        <ele>392</ele>
        <time>2014-01-23T13:05:23Z</time>
      </trkpt>
      <trkpt lat="43.23578" lon="5.46087">
        <ele>391</ele>
        <time>2014-01-23T13:05:30Z</time>
      </trkpt>
      <trkpt lat="43.23577" lon="5.4608">
        <ele>390</ele>
        <time>2014-01-23T13:05:36Z</time>
      </trkpt>
      <trkpt lat="43.23577" lon="5.46074">
        <ele>388</ele>
        <time>2014-01-23T13:05:44Z</time>
      </trkpt>
      <trkpt lat="43.23577" lon="5.46067">
        <ele>386</ele>
        <time>2014-01-23T13:05:50Z</time>
      </trkpt>
      <trkpt lat="43.23576" lon="5.4606">
        <ele>385</ele>
        <time>2014-01-23T13:05:57Z</time>
      </trkpt>
      <trkpt lat="43.23575" lon="5.46054">
        <ele>384</ele>
        <time>2014-01-23T13:06:03Z</time>
      </trkpt>
      <trkpt lat="43.23574" lon="5.46044">
        <ele>382</ele>
        <time>2014-01-23T13:06:15Z</time>
      </trkpt>
      <trkpt lat="43.23572" lon="5.46038">
        <ele>382</ele>
        <time>2014-01-23T13:06:20Z</time>
      </trkpt>
      <trkpt lat="43.23572" lon="5.46031">
        <ele>382</ele>
        <time>2014-01-23T13:06:26Z</time>
      </trkpt>
      <trkpt lat="43.23571" lon="5.46025">
        <ele>381</ele>
        <time>2014-01-23T13:06:32Z</time>
      </trkpt>
      <trkpt lat="43.2357" lon="5.4602">
        <ele>380</ele>
        <time>2014-01-23T13:06:40Z</time>
      </trkpt>
      <trkpt lat="43.23567" lon="5.46011">
        <ele>378</ele>
        <time>2014-01-23T13:06:57Z</time>
      </trkpt>
      <trkpt lat="43.23564" lon="5.46005">
        <ele>378</ele>
        <time>2014-01-23T13:07:03Z</time>
      </trkpt>
      <trkpt lat="43.23562" lon="5.45999">
        <ele>377</ele>
        <time>2014-01-23T13:07:11Z</time>
      </trkpt>
      <trkpt lat="43.2356" lon="5.45993">
        <ele>376</ele>
        <time>2014-01-23T13:07:20Z</time>
      </trkpt>
      <trkpt lat="43.23564" lon="5.45989">
        <ele>374</ele>
        <time>2014-01-23T13:07:29Z</time>
      </trkpt>
      <trkpt lat="43.23566" lon="5.45985">
        <ele>372</ele>
        <time>2014-01-23T13:07:39Z</time>
      </trkpt>
      <trkpt lat="43.23568" lon="5.45978">
        <ele>372</ele>
        <time>2014-01-23T13:07:51Z</time>
      </trkpt>
      <trkpt lat="43.23569" lon="5.45972">
        <ele>371</ele>
        <time>2014-01-23T13:07:55Z</time>
      </trkpt>
      <trkpt lat="43.23568" lon="5.45965">
        <ele>371</ele>
        <time>2014-01-23T13:08:00Z</time>
      </trkpt>
      <trkpt lat="43.2357" lon="5.45959">
        <ele>369</ele>
        <time>2014-01-23T13:08:05Z</time>
      </trkpt>
      <trkpt lat="43.23569" lon="5.45952">
        <ele>367</ele>
        <time>2014-01-23T13:08:11Z</time>
      </trkpt>
      <trkpt lat="43.23568" lon="5.45945">
        <ele>366</ele>
        <time>2014-01-23T13:08:18Z</time>
      </trkpt>
      <trkpt lat="43.23569" lon="5.45939">
        <ele>364</ele>
        <time>2014-01-23T13:08:26Z</time>
      </trkpt>
      <trkpt lat="43.2357" lon="5.45935">
        <ele>364</ele>
        <time>2014-01-23T13:08:34Z</time>
      </trkpt>
      <trkpt lat="43.23572" lon="5.45928">
        <ele>364</ele>
        <time>2014-01-23T13:08:45Z</time>
      </trkpt>
      <trkpt lat="43.2357" lon="5.45922">
        <ele>364</ele>
        <time>2014-01-23T13:08:51Z</time>
      </trkpt>
      <trkpt lat="43.23573" lon="5.45915">
        <ele>361</ele>
        <time>2014-01-23T13:09:22Z</time>
      </trkpt>
      <trkpt lat="43.23574" lon="5.45908">
        <ele>362</ele>
        <time>2014-01-23T13:09:30Z</time>
      </trkpt>
      <trkpt lat="43.23577" lon="5.45903">
        <ele>360</ele>
        <time>2014-01-23T13:09:36Z</time>
      </trkpt>
      <trkpt lat="43.2358" lon="5.45897">
        <ele>359</ele>
        <time>2014-01-23T13:09:42Z</time>
      </trkpt>
      <trkpt lat="43.23582" lon="5.45894">
        <ele>358</ele>
        <time>2014-01-23T13:09:53Z</time>
      </trkpt>
      <trkpt lat="43.23587" lon="5.45892">
        <ele>357</ele>
        <time>2014-01-23T13:10:00Z</time>
      </trkpt>
      <trkpt lat="43.23588" lon="5.45885">
        <ele>355</ele>
        <time>2014-01-23T13:10:08Z</time>
      </trkpt>
      <trkpt lat="43.23591" lon="5.45879">
        <ele>354</ele>
        <time>2014-01-23T13:10:15Z</time>
      </trkpt>
      <trkpt lat="43.23591" lon="5.45871">
        <ele>351</ele>
        <time>2014-01-23T13:10:32Z</time>
      </trkpt>
      <trkpt lat="43.23592" lon="5.45869">
        <ele>351</ele>
        <time>2014-01-23T13:10:38Z</time>
      </trkpt>
      <trkpt lat="43.23594" lon="5.45863">
        <ele>351</ele>
        <time>2014-01-23T13:10:45Z</time>
      </trkpt>
      <trkpt lat="43.23597" lon="5.45857">
        <ele>350</ele>
        <time>2014-01-23T13:10:51Z</time>
      </trkpt>
      <trkpt lat="43.236" lon="5.45852">
        <ele>349</ele>
        <time>2014-01-23T13:10:56Z</time>
      </trkpt>
      <trkpt lat="43.23602" lon="5.45847">
        <ele>348</ele>
        <time>2014-01-23T13:11:01Z</time>
      </trkpt>
      <trkpt lat="43.23606" lon="5.45842">
        <ele>347</ele>
        <time>2014-01-23T13:11:07Z</time>
      </trkpt>
      <trkpt lat="43.2361" lon="5.45838">
        <ele>346</ele>
        <time>2014-01-23T13:11:16Z</time>
      </trkpt>
      <trkpt lat="43.23615" lon="5.45834">
        <ele>344</ele>
        <time>2014-01-23T13:11:24Z</time>
      </trkpt>
      <trkpt lat="43.23618" lon="5.4583">
        <ele>344</ele>
        <time>2014-01-23T13:11:29Z</time>
      </trkpt>
      <trkpt lat="43.23621" lon="5.45824">
        <ele>344</ele>
        <time>2014-01-23T13:11:33Z</time>
      </trkpt>
      <trkpt lat="43.23625" lon="5.45818">
        <ele>342</ele>
        <time>2014-01-23T13:11:39Z</time>
      </trkpt>
      <trkpt lat="43.23628" lon="5.45814">
        <ele>341</ele>
        <time>2014-01-23T13:11:44Z</time>
      </trkpt>
      <trkpt lat="43.23632" lon="5.45808">
        <ele>340</ele>
        <time>2014-01-23T13:11:50Z</time>
      </trkpt>
      <trkpt lat="43.23637" lon="5.45806">
        <ele>339</ele>
        <time>2014-01-23T13:11:55Z</time>
      </trkpt>
      <trkpt lat="43.23642" lon="5.45805">
        <ele>339</ele>
        <time>2014-01-23T13:12:00Z</time>
      </trkpt>
      <trkpt lat="43.23646" lon="5.45805">
        <ele>338</ele>
        <time>2014-01-23T13:12:06Z</time>
      </trkpt>
      <trkpt lat="43.23651" lon="5.45802">
        <ele>338</ele>
        <time>2014-01-23T13:12:11Z</time>
      </trkpt>
      <trkpt lat="43.23655" lon="5.45801">
        <ele>337</ele>
        <time>2014-01-23T13:12:18Z</time>
      </trkpt>
      <trkpt lat="43.23658" lon="5.458">
        <ele>338</ele>
        <time>2014-01-23T13:12:34Z</time>
      </trkpt>
      <trkpt lat="43.23663" lon="5.45801">
        <ele>338</ele>
        <time>2014-01-23T13:12:40Z</time>
      </trkpt>
      <trkpt lat="43.23668" lon="5.45799">
        <ele>337</ele>
        <time>2014-01-23T13:12:47Z</time>
      </trkpt>
      <trkpt lat="43.23673" lon="5.45799">
        <ele>336</ele>
        <time>2014-01-23T13:12:52Z</time>
      </trkpt>
      <trkpt lat="43.23678" lon="5.45797">
        <ele>334</ele>
        <time>2014-01-23T13:12:58Z</time>
      </trkpt>
      <trkpt lat="43.23683" lon="5.45796">
        <ele>332</ele>
        <time>2014-01-23T13:13:03Z</time>
      </trkpt>
      <trkpt lat="43.23693" lon="5.45794">
        <ele>331</ele>
        <time>2014-01-23T13:13:47Z</time>
      </trkpt>
      <trkpt lat="43.23698" lon="5.45793">
        <ele>330</ele>
        <time>2014-01-23T13:13:50Z</time>
      </trkpt>
      <trkpt lat="43.23703" lon="5.45792">
        <ele>330</ele>
        <time>2014-01-23T13:13:55Z</time>
      </trkpt>
      <trkpt lat="43.23708" lon="5.45792">
        <ele>330</ele>
        <time>2014-01-23T13:14:00Z</time>
      </trkpt>
      <trkpt lat="43.23714" lon="5.45791">
        <ele>329</ele>
        <time>2014-01-23T13:14:05Z</time>
      </trkpt>
      <trkpt lat="43.23719" lon="5.45792">
        <ele>329</ele>
        <time>2014-01-23T13:14:10Z</time>
      </trkpt>
      <trkpt lat="43.23722" lon="5.45792">
        <ele>328</ele>
        <time>2014-01-23T13:14:18Z</time>
      </trkpt>
      <trkpt lat="43.23727" lon="5.4579">
        <ele>328</ele>
        <time>2014-01-23T13:14:29Z</time>
      </trkpt>
      <trkpt lat="43.23732" lon="5.4579">
        <ele>329</ele>
        <time>2014-01-23T13:14:33Z</time>
      </trkpt>
      <trkpt lat="43.23736" lon="5.45791">
        <ele>329</ele>
        <time>2014-01-23T13:14:37Z</time>
      </trkpt>
      <trkpt lat="43.23742" lon="5.45791">
        <ele>330</ele>
        <time>2014-01-23T13:14:42Z</time>
      </trkpt>
      <trkpt lat="43.23746" lon="5.45792">
        <ele>333</ele>
        <time>2014-01-23T13:14:52Z</time>
      </trkpt>
      <trkpt lat="43.23752" lon="5.45792">
        <ele>333</ele>
        <time>2014-01-23T13:15:00Z</time>
      </trkpt>
      <trkpt lat="43.23756" lon="5.45794">
        <ele>333</ele>
        <time>2014-01-23T13:15:04Z</time>
      </trkpt>
      <trkpt lat="43.23761" lon="5.45795">
        <ele>333</ele>
        <time>2014-01-23T13:15:07Z</time>
      </trkpt>
      <trkpt lat="43.23766" lon="5.45798">
        <ele>332</ele>
        <time>2014-01-23T13:15:11Z</time>
      </trkpt>
      <trkpt lat="43.23775" lon="5.45801">
        <ele>336</ele>
        <time>2014-01-23T13:15:42Z</time>
      </trkpt>
      <trkpt lat="43.2378" lon="5.45802">
        <ele>334</ele>
        <time>2014-01-23T13:15:47Z</time>
      </trkpt>
      <trkpt lat="43.23786" lon="5.458">
        <ele>333</ele>
        <time>2014-01-23T13:15:52Z</time>
      </trkpt>
      <trkpt lat="43.2379" lon="5.45797">
        <ele>331</ele>
        <time>2014-01-23T13:15:57Z</time>
      </trkpt>
      <trkpt lat="43.23795" lon="5.45793">
        <ele>329</ele>
        <time>2014-01-23T13:16:02Z</time>
      </trkpt>
      <trkpt lat="43.23798" lon="5.45789">
        <ele>327</ele>
        <time>2014-01-23T13:16:06Z</time>
      </trkpt>
      <trkpt lat="43.23803" lon="5.45788">
        <ele>326</ele>
        <time>2014-01-23T13:16:10Z</time>
      </trkpt>
      <trkpt lat="43.23807" lon="5.45784">
        <ele>326</ele>
        <time>2014-01-23T13:16:14Z</time>
      </trkpt>
      <trkpt lat="43.23813" lon="5.45782">
        <ele>326</ele>
        <time>2014-01-23T13:16:18Z</time>
      </trkpt>
      <trkpt lat="43.23817" lon="5.4578">
        <ele>326</ele>
        <time>2014-01-23T13:16:22Z</time>
      </trkpt>
      <trkpt lat="43.23822" lon="5.45777">
        <ele>327</ele>
        <time>2014-01-23T13:16:26Z</time>
      </trkpt>
      <trkpt lat="43.23826" lon="5.45775">
        <ele>329</ele>
        <time>2014-01-23T13:16:37Z</time>
      </trkpt>
      <trkpt lat="43.23831" lon="5.45772">
        <ele>329</ele>
        <time>2014-01-23T13:16:41Z</time>
      </trkpt>
      <trkpt lat="43.23836" lon="5.4577">
        <ele>329</ele>
        <time>2014-01-23T13:16:45Z</time>
      </trkpt>
      <trkpt lat="43.23841" lon="5.45768">
        <ele>329</ele>
        <time>2014-01-23T13:16:49Z</time>
      </trkpt>
      <trkpt lat="43.23846" lon="5.45767">
        <ele>329</ele>
        <time>2014-01-23T13:16:53Z</time>
      </trkpt>
      <trkpt lat="43.2385" lon="5.45764">
        <ele>328</ele>
        <time>2014-01-23T13:16:57Z</time>
      </trkpt>
      <trkpt lat="43.23854" lon="5.45761">
        <ele>328</ele>
        <time>2014-01-23T13:17:01Z</time>
      </trkpt>
      <trkpt lat="43.23859" lon="5.45758">
        <ele>329</ele>
        <time>2014-01-23T13:17:05Z</time>
      </trkpt>
      <trkpt lat="43.23864" lon="5.45755">
        <ele>328</ele>
        <time>2014-01-23T13:17:10Z</time>
      </trkpt>
      <trkpt lat="43.23868" lon="5.45751">
        <ele>328</ele>
        <time>2014-01-23T13:17:14Z</time>
      </trkpt>
      <trkpt lat="43.23872" lon="5.45747">
        <ele>329</ele>
        <time>2014-01-23T13:17:17Z</time>
      </trkpt>
      <trkpt lat="43.23874" lon="5.45741">
        <ele>329</ele>
        <time>2014-01-23T13:17:22Z</time>
      </trkpt>
      <trkpt lat="43.23877" lon="5.45736">
        <ele>329</ele>
        <time>2014-01-23T13:17:26Z</time>
      </trkpt>
      <trkpt lat="43.23881" lon="5.4573">
        <ele>330</ele>
        <time>2014-01-23T13:17:30Z</time>
      </trkpt>
      <trkpt lat="43.23885" lon="5.45726">
        <ele>330</ele>
        <time>2014-01-23T13:17:33Z</time>
      </trkpt>
      <trkpt lat="43.23888" lon="5.45722">
        <ele>331</ele>
        <time>2014-01-23T13:17:36Z</time>
      </trkpt>
      <trkpt lat="43.23891" lon="5.45717">
        <ele>331</ele>
        <time>2014-01-23T13:17:40Z</time>
      </trkpt>
      <trkpt lat="43.23895" lon="5.45713">
        <ele>331</ele>
        <time>2014-01-23T13:17:44Z</time>
      </trkpt>
      <trkpt lat="43.23898" lon="5.45708">
        <ele>331</ele>
        <time>2014-01-23T13:17:50Z</time>
      </trkpt>
      <trkpt lat="43.23901" lon="5.45702">
        <ele>330</ele>
        <time>2014-01-23T13:17:54Z</time>
      </trkpt>
      <trkpt lat="43.23905" lon="5.45698">
        <ele>331</ele>
        <time>2014-01-23T13:17:57Z</time>
      </trkpt>
      <trkpt lat="43.23909" lon="5.45695">
        <ele>331</ele>
        <time>2014-01-23T13:18:00Z</time>
      </trkpt>
      <trkpt lat="43.23912" lon="5.45689">
        <ele>331</ele>
        <time>2014-01-23T13:18:05Z</time>
      </trkpt>
      <trkpt lat="43.23916" lon="5.45687">
        <ele>331</ele>
        <time>2014-01-23T13:18:10Z</time>
      </trkpt>
      <trkpt lat="43.23923" lon="5.45688">
        <ele>330</ele>
        <time>2014-01-23T13:18:20Z</time>
      </trkpt>
      <trkpt lat="43.23929" lon="5.45688">
        <ele>329</ele>
        <time>2014-01-23T13:18:26Z</time>
      </trkpt>
      <trkpt lat="43.23933" lon="5.45687">
        <ele>328</ele>
        <time>2014-01-23T13:18:30Z</time>
      </trkpt>
      <trkpt lat="43.23939" lon="5.45688">
        <ele>328</ele>
        <time>2014-01-23T13:18:34Z</time>
      </trkpt>
      <trkpt lat="43.23944" lon="5.45689">
        <ele>328</ele>
        <time>2014-01-23T13:18:38Z</time>
      </trkpt>
      <trkpt lat="43.23949" lon="5.45692">
        <ele>329</ele>
        <time>2014-01-23T13:18:41Z</time>
      </trkpt>
      <trkpt lat="43.23952" lon="5.45697">
        <ele>329</ele>
        <time>2014-01-23T13:18:45Z</time>
      </trkpt>
      <trkpt lat="43.23957" lon="5.45699">
        <ele>328</ele>
        <time>2014-01-23T13:18:49Z</time>
      </trkpt>
      <trkpt lat="43.23962" lon="5.45701">
        <ele>328</ele>
        <time>2014-01-23T13:18:53Z</time>
      </trkpt>
      <trkpt lat="43.23966" lon="5.45703">
        <ele>328</ele>
        <time>2014-01-23T13:18:56Z</time>
      </trkpt>
      <trkpt lat="43.23971" lon="5.45702">
        <ele>327</ele>
        <time>2014-01-23T13:19:01Z</time>
      </trkpt>
      <trkpt lat="43.23976" lon="5.45701">
        <ele>327</ele>
        <time>2014-01-23T13:19:05Z</time>
      </trkpt>
      <trkpt lat="43.23981" lon="5.45704">
        <ele>327</ele>
        <time>2014-01-23T13:19:09Z</time>
      </trkpt>
      <trkpt lat="43.23985" lon="5.45708">
        <ele>327</ele>
        <time>2014-01-23T13:19:13Z</time>
      </trkpt>
      <trkpt lat="43.23989" lon="5.45713">
        <ele>326</ele>
        <time>2014-01-23T13:19:18Z</time>
      </trkpt>
      <trkpt lat="43.23993" lon="5.45718">
        <ele>325</ele>
        <time>2014-01-23T13:19:22Z</time>
      </trkpt>
      <trkpt lat="43.23997" lon="5.45722">
        <ele>324</ele>
        <time>2014-01-23T13:19:26Z</time>
      </trkpt>
      <trkpt lat="43.24001" lon="5.45728">
        <ele>324</ele>
        <time>2014-01-23T13:19:31Z</time>
      </trkpt>
      <trkpt lat="43.24003" lon="5.45734">
        <ele>325</ele>
        <time>2014-01-23T13:19:36Z</time>
      </trkpt>
      <trkpt lat="43.24004" lon="5.45742">
        <ele>325</ele>
        <time>2014-01-23T13:19:44Z</time>
      </trkpt>
      <trkpt lat="43.24006" lon="5.45748">
        <ele>325</ele>
        <time>2014-01-23T13:19:47Z</time>
      </trkpt>
      <trkpt lat="43.24008" lon="5.45754">
        <ele>324</ele>
        <time>2014-01-23T13:19:50Z</time>
      </trkpt>
      <trkpt lat="43.2401" lon="5.45761">
        <ele>323</ele>
        <time>2014-01-23T13:19:54Z</time>
      </trkpt>
      <trkpt lat="43.24012" lon="5.45767">
        <ele>322</ele>
        <time>2014-01-23T13:19:59Z</time>
      </trkpt>
      <trkpt lat="43.24014" lon="5.45773">
        <ele>322</ele>
        <time>2014-01-23T13:20:02Z</time>
      </trkpt>
      <trkpt lat="43.24016" lon="5.4578">
        <ele>323</ele>
        <time>2014-01-23T13:20:06Z</time>
      </trkpt>
      <trkpt lat="43.24019" lon="5.45786">
        <ele>323</ele>
        <time>2014-01-23T13:20:11Z</time>
      </trkpt>
      <trkpt lat="43.24023" lon="5.45796">
        <ele>323</ele>
        <time>2014-01-23T13:20:19Z</time>
      </trkpt>
      <trkpt lat="43.24025" lon="5.45802">
        <ele>324</ele>
        <time>2014-01-23T13:20:23Z</time>
      </trkpt>
      <trkpt lat="43.24026" lon="5.45808">
        <ele>324</ele>
        <time>2014-01-23T13:20:27Z</time>
      </trkpt>
      <trkpt lat="43.24029" lon="5.45817">
        <ele>323</ele>
        <time>2014-01-23T13:20:32Z</time>
      </trkpt>
      <trkpt lat="43.24031" lon="5.45825">
        <ele>323</ele>
        <time>2014-01-23T13:20:38Z</time>
      </trkpt>
      <trkpt lat="43.24031" lon="5.45828">
        <ele>324</ele>
        <time>2014-01-23T13:20:44Z</time>
      </trkpt>
    </trkseg>
  </trk>
</gpx>